Provisional Data: Trout Brook near McGraw, NY


Please select a monitoring station.
Please select start date.
Please select start date.

Toggle Unit: C/F Toggle Unit: C/F
Sample Time Temperature (C) Temperature (F) Specific Conductivity (mS/cm) pH   Turbidity (NTU+) DO (mg/L)
8/9/2021 12:00:00 AM 19.64 67.352 0.287 7.66 0.87 7.84
8/9/2021 12:15:00 AM 19.57 67.226 0.287 7.66 0.8 7.86
8/9/2021 12:30:00 AM 19.51 67.118 0.287 7.66 0.93 7.88
8/9/2021 12:45:00 AM 19.44 66.992 0.288 7.66 0.92 7.89
8/9/2021 1:00:00 AM 19.38 66.884 0.288 7.66 0.83 7.9
8/9/2021 1:15:00 AM 19.33 66.794 0.288 7.67 0.79 7.93
8/9/2021 1:30:00 AM 19.26 66.668 0.288 7.66 0.83 7.94
8/9/2021 1:45:00 AM 19.21 66.578 0.289 7.66 0.91 7.96
8/9/2021 2:00:00 AM 19.16 66.488 0.289 7.67 0.89 7.97
8/9/2021 2:15:00 AM 19.12 66.416 0.289 7.67 0.82 7.99
8/9/2021 2:30:00 AM 19.06 66.308 0.289 7.66 0.93 8
8/9/2021 2:45:00 AM 19.03 66.254 0.289 7.66 0.89 8.02
8/9/2021 3:00:00 AM 18.98 66.164 0.289 7.67 0.97 8.03
8/9/2021 3:15:00 AM 18.93 66.074 0.289 7.67 0.84 8.04
8/9/2021 3:30:00 AM 18.89 66.002 0.29 7.67 0.93 8.05
8/9/2021 3:45:00 AM 18.86 65.948 0.29 7.67 1 8.06
8/9/2021 4:00:00 AM 18.83 65.894 0.29 7.67 0.9 8.07
8/9/2021 4:15:00 AM 18.81 65.858 0.29 7.67 0.89 8.08
8/9/2021 4:30:00 AM 18.77 65.786 0.29 7.67 0.92 8.09
8/9/2021 4:45:00 AM 18.74 65.732 0.291 7.67 0.86 8.1
8/9/2021 5:00:00 AM 18.71 65.67799 0.291 7.67 0.91 8.1
8/9/2021 5:15:00 AM 18.68 65.624 0.291 7.67 1 8.12
8/9/2021 5:30:00 AM 18.65 65.57 0.291 7.67 0.92 8.12
8/9/2021 5:45:00 AM 18.62 65.516 0.291 7.68 0.83 8.13
8/9/2021 6:00:00 AM 18.59 65.462 0.291 7.68 0.92 8.15
8/9/2021 6:15:00 AM 18.55 65.39 0.291 7.68 0.9 8.18
8/9/2021 6:30:00 AM 18.52 65.336 0.291 7.69 0.73 8.26
8/9/2021 6:45:00 AM 18.49 65.282 0.291 7.71 0.69 8.37
8/9/2021 7:00:00 AM 18.47 65.246 0.291 7.74 0.74 8.57
8/9/2021 7:15:00 AM 18.45 65.21 0.291 7.77 0.74 8.76
8/9/2021 7:30:00 AM 18.43 65.174 0.291 7.82 0.72 9.09
8/9/2021 7:45:00 AM 18.43 65.174 0.291 7.88 0.69 9.4
8/9/2021 8:00:00 AM 18.46 65.228 0.29 7.94 0.73 9.66
8/9/2021 8:15:00 AM 18.48 65.264 0.29 7.99 0.85 9.87
8/9/2021 8:30:00 AM 18.53 65.354 0.289 8.09 0.86 10.22
8/9/2021 8:45:00 AM 18.6 65.48 0.288 8.18 0.83 10.51
8/9/2021 9:00:00 AM 18.67 65.606 0.288 8.26 0.87 10.75
8/9/2021 9:15:00 AM 18.77 65.786 0.287 8.37 0.73 11.08
8/9/2021 9:30:00 AM 18.89 66.002 0.286 8.46 0.75 11.34
8/9/2021 9:45:00 AM 19.01 66.218 0.285 8.54 0.95 11.59
8/9/2021 10:00:00 AM 19.22 66.596 0.284 8.64 0.8 11.9
8/9/2021 10:15:00 AM 19.44 66.992 0.283 8.72 0.75 12.08
8/9/2021 10:30:00 AM 19.57 67.226 0.282 8.77 0.84 12.07
8/9/2021 10:45:00 AM 19.66 67.388 0.281 8.81 0.83 12.12
8/9/2021 11:00:00 AM 20.04 68.07201 0.28 8.89 0.76 12.36
8/9/2021 11:15:00 AM 20.38 68.684 0.279 8.93 0.74 12.37
8/9/2021 11:30:00 AM 20.77 69.386 0.278 8.96 0.97 12.37
8/9/2021 11:45:00 AM 21.12 70.016 0.278 8.99 0.83 12.37
8/9/2021 12:00:00 PM 21.43 70.574 0.277 9.01 0.78 12.35
8/9/2021 12:15:00 PM 21.72 71.096 0.276 9.03 0.74 12.33
8/9/2021 12:30:00 PM 22.03 71.654 0.276 9.05 0.87 12.31
8/9/2021 12:45:00 PM 22.31 72.158 0.275 9.06 0.73 12.28
8/9/2021 1:00:00 PM 22.59 72.662 0.275 9.07 0.74 12.25
8/9/2021 1:15:00 PM 22.83 73.094 0.275 9.08 0.75 12.22
8/9/2021 1:30:00 PM 23.08 73.544 0.274 9.09 0.73 12.19
8/9/2021 1:45:00 PM 23.27 73.886 0.274 9.1 0.76 12.16
8/9/2021 2:00:00 PM 23.46 74.228 0.274 9.1 0.73 12.12
8/9/2021 2:15:00 PM 23.66 74.588 0.273 9.11 0.85 12.09
8/9/2021 2:30:00 PM 23.82 74.876 0.273 9.11 0.95 12.03
8/9/2021 2:45:00 PM 23.99 75.182 0.273 9.12 0.75 12.01
8/9/2021 3:00:00 PM 24.17 75.506 0.272 9.12 0.75 11.99
8/9/2021 3:15:00 PM 24.14 75.452 0.272 9.12 0.77 11.85
8/9/2021 3:30:00 PM 24.16 75.488 0.272 9.12 0.78 11.83
8/9/2021 3:45:00 PM 24.35 75.83 0.271 9.13 0.74 11.79
8/9/2021 4:00:00 PM 24.4 75.92 0.271 9.13 0.7 11.64
8/9/2021 4:15:00 PM 24.39 75.902 0.271 9.12 0.79 11.48
8/9/2021 4:30:00 PM 24.36 75.848 0.271 9.1 0.74 11.38
8/9/2021 4:45:00 PM 24.25 75.65 0.272 9.08 0.77 11.17
8/9/2021 5:00:00 PM 24.11 75.398 0.272 9.04 0.79 10.91
8/9/2021 5:15:00 PM 24.09 75.362 0.272 9.04 0.75 10.86
8/9/2021 5:30:00 PM 24.02 75.236 0.273 9.01 0.76 10.72
8/9/2021 5:45:00 PM 23.92 75.056 0.273 8.98 0.73 10.53
8/9/2021 6:00:00 PM 23.8 74.84 0.274 8.94 0.67 10.31
8/9/2021 6:15:00 PM 23.65 74.57 0.275 8.88 0.66 10.06
8/9/2021 6:30:00 PM 23.48 74.264 0.276 8.81 0.66 9.84
8/9/2021 6:45:00 PM 23.29 73.922 0.278 8.72 1.04 9.59
8/9/2021 7:00:00 PM 23.07 73.526 0.28 8.61 1.15 9.29
8/9/2021 7:15:00 PM 22.85 73.13 0.281 8.46 1.19 8.98
8/9/2021 7:30:00 PM 22.64 72.752 0.283 8.29 0.87 8.71
8/9/2021 7:45:00 PM 22.45 72.41 0.284 8.12 0.64 8.42
8/9/2021 8:00:00 PM 22.26 72.068 0.286 7.97 0.62 8.13
8/9/2021 8:15:00 PM 22.07 71.726 0.286 7.86 0.68 7.87
8/9/2021 8:30:00 PM 21.91 71.438 0.287 7.79 0.67 7.68
8/9/2021 8:45:00 PM 21.77 71.186 0.287 7.75 0.71 7.57
8/9/2021 9:00:00 PM 21.64 70.952 0.288 7.72 0.76 7.49
8/9/2021 9:15:00 PM 21.52 70.736 0.288 7.7 0.84 7.46
8/9/2021 9:30:00 PM 21.42 70.556 0.288 7.69 0.83 7.44
8/9/2021 9:45:00 PM 21.3 70.34 0.289 7.67 0.82 7.44
8/9/2021 10:00:00 PM 21.2 70.16 0.289 7.67 0.89 7.45
8/9/2021 10:15:00 PM 21.09 69.962 0.289 7.66 0.77 7.47
8/9/2021 10:30:00 PM 20.99 69.782 0.29 7.65 0.81 7.49
8/9/2021 10:45:00 PM 20.89 69.602 0.29 7.66 0.85 7.51
8/9/2021 11:00:00 PM 20.78 69.404 0.29 7.65 0.98 7.52
8/9/2021 11:15:00 PM 20.7 69.26 0.29 7.65 0.86 7.55
8/9/2021 11:30:00 PM 20.61 69.098 0.291 7.65 1.09 7.57
8/9/2021 11:45:00 PM 20.53 68.954 0.291 7.66 0.94 7.59
8/10/2021 12:00:00 AM 20.45 68.81 0.291 7.65 0.99 7.6
8/10/2021 12:15:00 AM 20.37 68.666 0.291 7.66 0.95 7.63
8/10/2021 12:30:00 AM 20.3 68.54 0.292 7.66 0.89 7.64
8/10/2021 12:45:00 AM 20.23 68.414 0.292 7.65 0.88 7.66
8/10/2021 1:00:00 AM 20.16 68.288 0.292 7.66 0.93 7.68
8/10/2021 1:15:00 AM 20.09 68.162 0.292 7.66 0.85 7.69
8/10/2021 1:30:00 AM 20.03 68.054 0.293 7.66 0.87 7.71
8/10/2021 1:45:00 AM 19.97 67.946 0.293 7.66 0.91 7.73
8/10/2021 2:00:00 AM 19.92 67.856 0.293 7.66 0.84 7.74
8/10/2021 2:15:00 AM 19.85 67.73 0.293 7.66 0.83 7.76
8/10/2021 2:30:00 AM 19.78 67.604 0.294 7.66 0.95 7.78
8/10/2021 2:45:00 AM 19.72 67.496 0.294 7.66 0.97 7.79
8/10/2021 3:00:00 AM 19.67 67.406 0.294 7.66 0.96 7.81
8/10/2021 3:15:00 AM 19.61 67.298 0.294 7.67 0.91 7.82
8/10/2021 3:30:00 AM 19.56 67.208 0.294 7.66 0.92 7.83
8/10/2021 3:45:00 AM 19.52 67.136 0.294 7.67 0.96 7.85
8/10/2021 4:00:00 AM 19.47 67.046 0.295 7.67 0.91 7.86
8/10/2021 4:15:00 AM 19.42 66.956 0.295 7.67 13.29 7.87
8/10/2021 4:30:00 AM 19.38 66.884 0.295 7.67 0.92 7.88
8/10/2021 4:45:00 AM 19.34 66.812 0.295 7.67 0.98 7.89
8/10/2021 5:00:00 AM 19.3 66.74 0.295 7.67 1 7.91
8/10/2021 5:15:00 AM 19.27 66.686 0.295 7.67 1.03 7.91
8/10/2021 5:30:00 AM 19.24 66.632 0.296 7.67 1.05 7.92
8/10/2021 5:45:00 AM 19.22 66.596 0.296 7.67 0.95 7.93
8/10/2021 6:00:00 AM 19.2 66.56 0.296 7.67 0.9 7.94
8/10/2021 6:15:00 AM 19.18 66.524 0.296 7.68 0.81 8.01
8/10/2021 6:30:00 AM 19.2 66.56 0.296 7.69 0.79 8.09
8/10/2021 6:45:00 AM 19.22 66.596 0.296 7.71 0.71 8.23
8/10/2021 7:00:00 AM 19.23 66.614 0.296 7.74 0.77 8.41
8/10/2021 7:15:00 AM 19.25 66.65 0.296 7.79 0.71 8.75
8/10/2021 7:30:00 AM 19.25 66.65 0.295 7.84 0.77 9.03
8/10/2021 7:45:00 AM 19.27 66.686 0.295 7.91 0.69 9.39
8/10/2021 8:00:00 AM 19.32 66.776 0.295 7.97 0.76 9.69
8/10/2021 8:15:00 AM 19.41 66.938 0.294 8.06 0.77 9.99
8/10/2021 8:30:00 AM 19.47 67.046 0.294 8.12 0.72 10.17
8/10/2021 8:45:00 AM 19.59 67.262 0.293 8.2 0.82 10.43
8/10/2021 9:00:00 AM 19.77 67.586 0.292 8.31 0.73 10.76
8/10/2021 9:15:00 AM 19.97 67.946 0.292 8.4 0.82 10.99
8/10/2021 9:30:00 AM 20.28 68.504 0.291 8.5 0.78 11.32
8/10/2021 9:45:00 AM 20.47 68.846 0.29 8.58 0.92 11.45
8/10/2021 10:00:00 AM 20.57 69.026 0.289 8.65 0.83 11.47
8/10/2021 10:15:00 AM 20.7 69.26 0.288 8.71 0.79 11.53
8/10/2021 10:30:00 AM 20.72 69.296 0.287 8.75 0.84 11.5
8/10/2021 10:45:00 AM 20.93 69.674 0.287 8.81 0.8 11.69
8/10/2021 11:00:00 AM 20.93 69.674 0.287 8.81 0.83 11.45
8/10/2021 11:15:00 AM 20.85 69.53 0.287 8.75 0.91 11.05
8/10/2021 11:30:00 AM 20.97 69.746 0.287 8.82 0.79 11.5
8/10/2021 11:45:00 AM 21.24 70.232 0.285 8.87 0.76 11.84
8/10/2021 12:00:00 PM 21.41 70.538 0.285 8.89 0.76 11.85
8/10/2021 12:15:00 PM 21.75 71.15 0.285 8.9 0.91 11.89
8/10/2021 12:30:00 PM 21.74 71.132 0.284 8.91 0.8 11.88
8/10/2021 12:45:00 PM 22.07 71.726 0.282 8.97 0.77 12.11
8/10/2021 1:00:00 PM 22.43 72.374 0.282 9.01 0.76 12.08
8/10/2021 1:15:00 PM 22.9 73.22 0.281 9.05 0.81 12.14
8/10/2021 1:30:00 PM 23.27 73.886 0.28 9.07 0.75 12.09
8/10/2021 1:45:00 PM 23.23 73.814 0.28 9.06 0.76 11.84
8/10/2021 2:00:00 PM 23.09 73.562 0.279 9.07 0.71 11.7
8/10/2021 2:15:00 PM 23.11 73.598 0.279 9.07 0.83 11.66
8/10/2021 2:30:00 PM 23.61 74.498 0.278 9.11 0.77 11.9
8/10/2021 2:45:00 PM 23.89 75.002 0.278 9.11 0.79 11.73
8/10/2021 3:00:00 PM 23.8 74.84 0.278 9.09 0.94 11.51
8/10/2021 3:15:00 PM 23.61 74.498 0.278 9.07 1.28 11.42
8/10/2021 3:30:00 PM 23.7 74.66 0.278 9.08 0.76 11.52
8/10/2021 3:45:00 PM 23.66 74.588 0.278 9.06 0.85 11.25
8/10/2021 4:00:00 PM 23.9 75.02 0.277 9.08 0.77 11.38
8/10/2021 4:15:00 PM 24 75.2 0.277 9.07 0.8 11.27
8/10/2021 4:30:00 PM 23.98 75.164 0.278 9.04 0.83 11.14
8/10/2021 4:45:00 PM 24.04 75.272 0.278 9.03 0.76 11.12
8/10/2021 5:00:00 PM 24.04 75.272 0.278 9.01 0.76 10.96
8/10/2021 5:15:00 PM 23.98 75.164 0.278 8.99 0.75 10.76
8/10/2021 5:30:00 PM 23.76 74.768 0.279 8.94 0.86 10.3
8/10/2021 5:45:00 PM 23.55 74.39 0.28 8.91 0.86 10.15
8/10/2021 6:00:00 PM 23.48 74.264 0.28 8.9 0.72 10.23
8/10/2021 6:15:00 PM 23.33 73.994 0.281 8.81 0.77 9.79
8/10/2021 6:30:00 PM 23.12 73.616 0.284 8.68 0.78 9.39
8/10/2021 6:45:00 PM 22.98 73.364 0.285 8.58 0.74 9.24
8/10/2021 7:00:00 PM 22.83 73.094 0.287 8.45 0.7 9
8/10/2021 7:15:00 PM 22.68 72.824 0.288 8.27 0.73 8.52
8/10/2021 7:30:00 PM 22.51 72.518 0.29 8.06 0.69 8.14
8/10/2021 7:45:00 PM 22.37 72.266 0.291 7.96 0.62 8.01
8/10/2021 8:00:00 PM 22.24 72.032 0.291 7.87 0.7 7.79
8/10/2021 8:15:00 PM 22.11 71.798 0.292 7.79 0.72 7.58
8/10/2021 8:30:00 PM 21.99 71.582 0.293 7.75 0.71 7.47
8/10/2021 8:45:00 PM 21.87 71.366 0.293 7.72 0.83 7.39
8/10/2021 9:00:00 PM 21.77 71.186 0.293 7.7 0.93 7.36
8/10/2021 9:15:00 PM 21.69 71.042 0.294 7.69 0.84 7.34
8/10/2021 9:30:00 PM 21.6 70.88 0.294 7.67 0.91 7.33
8/10/2021 9:45:00 PM 21.51 70.718 0.294 7.67 0.87 7.34
8/10/2021 10:00:00 PM 21.43 70.574 0.295 7.68 0.88 7.35
8/10/2021 10:15:00 PM 21.35 70.43 0.295 7.67 0.92 7.35
8/10/2021 10:30:00 PM 21.34 70.412 0.289 7.68 1.25 7.5
8/10/2021 10:45:00 PM 21.28 70.304 0.288 7.67 1.11 7.4
8/10/2021 11:00:00 PM 21.23 70.214 0.288 7.67 1.18 7.46
8/10/2021 11:15:00 PM 21.14 70.052 0.288 7.66 1.7 7.4
8/10/2021 11:30:00 PM 21.06 69.908 0.289 7.66 1.71 7.45
8/10/2021 11:45:00 PM 20.99 69.782 0.288 7.66 1.5 7.49
8/11/2021 12:00:00 AM 20.94 69.692 0.285 7.63 2.11 7.35
8/11/2021 12:15:00 AM 21 69.8 0.276 7.59 3.17 7.1
8/11/2021 12:30:00 AM 21 69.8 0.274 7.58 2.99 7.04
8/11/2021 12:45:00 AM 20.95 69.71 0.276 7.58 2.29 7.07
8/11/2021 1:00:00 AM 20.87 69.566 0.279 7.59 1.97 7.14
8/11/2021 1:15:00 AM 20.75 69.35 0.283 7.6 1.72 7.24
8/11/2021 1:30:00 AM 20.66 69.188 0.287 7.62 1.37 7.34
8/11/2021 1:45:00 AM 20.57 69.026 0.289 7.63 1.24 7.43
8/11/2021 2:00:00 AM 20.5 68.9 0.29 7.64 1.1 7.48
8/11/2021 2:15:00 AM 20.45 68.81 0.29 7.64 1.08 7.54
8/11/2021 2:30:00 AM 20.42 68.756 0.29 7.65 1.11 7.57
8/11/2021 2:45:00 AM 20.38 68.684 0.29 7.65 1.18 7.6
8/11/2021 3:00:00 AM 20.33 68.594 0.29 7.65 1.07 7.62
8/11/2021 3:15:00 AM 20.27 68.486 0.29 7.65 1.53 7.65
8/11/2021 3:30:00 AM 20.23 68.414 0.29 7.65 1.16 7.66
8/11/2021 3:45:00 AM 20.19 68.342 0.29 7.66 1.36 7.68
8/11/2021 4:00:00 AM 20.12 68.216 0.29 7.65 1.11 7.7
8/11/2021 4:15:00 AM 20.06 68.108 0.291 7.65 1.07 7.72
8/11/2021 4:30:00 AM 20 68 0.291 7.65 2.35 7.73
8/11/2021 4:45:00 AM 19.95 67.91 0.291 7.65 1.13 7.75
8/11/2021 5:00:00 AM 19.89 67.802 0.291 7.66 1.12 7.76
8/11/2021 5:15:00 AM 19.85 67.73 0.291 7.66 1.11 7.78
8/11/2021 5:30:00 AM 19.82 67.676 0.292 7.66 1.12 7.78
8/11/2021 5:45:00 AM 19.79 67.622 0.292 7.66 1.09 7.79
8/11/2021 6:00:00 AM 19.75 67.55 0.292 7.66 1.06 7.81
8/11/2021 6:15:00 AM 19.68 67.424 0.293 7.67 0.98 7.87
8/11/2021 6:30:00 AM 19.64 67.352 0.293 7.69 0.88 8
8/11/2021 6:45:00 AM 19.61 67.298 0.293 7.72 0.84 8.2
8/11/2021 7:00:00 AM 19.59 67.262 0.294 7.74 0.77 8.42
8/11/2021 7:15:00 AM 19.59 67.262 0.293 7.79 0.87 8.66
8/11/2021 7:30:00 AM 19.62 67.316 0.293 7.82 0.98 8.85
8/11/2021 7:45:00 AM 19.67 67.406 0.293 7.84 0.84 9
8/11/2021 8:00:00 AM 19.68 67.424 0.293 7.85 1.05 8.95
8/11/2021 8:15:00 AM 19.69 67.442 0.293 7.87 0.72 9.1
8/11/2021 8:30:00 AM 19.84 67.712 0.292 8.03 0.72 9.89
8/11/2021 8:45:00 AM 19.93 67.874 0.292 8.08 1.41 10
8/11/2021 9:00:00 AM 20.12 68.216 0.291 8.19 0.86 10.43
8/11/2021 9:15:00 AM 20.18 68.324 0.291 8.2 1.01 10.29
8/11/2021 9:30:00 AM 20.12 68.216 0.286 8.08 0.94 9.67
8/11/2021 9:45:00 AM 20.14 68.252 0.279 8.04 1.21 9.37
8/11/2021 10:00:00 AM 20.22 68.396 0.277 8.17 1.32 9.9
8/11/2021 10:15:00 AM 20.28 68.504 0.276 8.24 3.13 10.07
8/11/2021 10:30:00 AM 20.39 68.702 0.27 8.19 3.53 10.03
8/11/2021 10:45:00 AM 20.83 69.494 0.254 8.24 5.34 10.26
8/11/2021 11:00:00 AM 21.31 70.358 0.244 8.34 4.88 10.57
8/11/2021 11:15:00 AM 21.47 70.646 0.246 8.41 3.81 10.71
8/11/2021 11:30:00 AM 21.83 71.294 0.251 8.53 3.27 11.12
8/11/2021 11:45:00 AM 22.16 71.888 0.258 8.63 2.79 11.33
8/11/2021 12:00:00 PM 22.43 72.374 0.264 8.7 2.74 11.43
8/11/2021 12:15:00 PM 22.57 72.626 0.268 8.74 2.48 11.41
8/11/2021 12:30:00 PM 22.72 72.896 0.27 8.78 1.69 11.46
8/11/2021 12:45:00 PM 22.73 72.914 0.271 8.81 1.57 11.44
8/11/2021 1:00:00 PM 22.94 73.292 0.271 8.85 1.45 11.48
8/11/2021 1:15:00 PM 23.11 73.598 0.27 8.87 1.45 11.49
8/11/2021 1:30:00 PM 23.17 73.706 0.27 8.87 1.51 11.25
8/11/2021 1:45:00 PM 23.24 73.832 0.269 8.9 1.46 11.33
8/11/2021 2:00:00 PM 23.35 74.03 0.269 8.91 1.43 11.32
8/11/2021 2:15:00 PM 23.58 74.444 0.269 8.92 1.41 11.33
8/11/2021 2:30:00 PM 23.91 75.038 0.268 8.93 1.51 11.35
8/11/2021 2:45:00 PM 23.8 74.84 0.267 8.93 1.41 11.18
8/11/2021 3:00:00 PM 23.75 74.75 0.266 8.94 1.48 11.14
8/11/2021 3:15:00 PM 23.85 74.93 0.266 8.95 1.34 11.11
8/11/2021 3:30:00 PM 24.09 75.362 0.265 8.95 1.35 11.06
8/11/2021 3:45:00 PM 24.1 75.38 0.265 8.93 1.42 10.92
8/11/2021 4:00:00 PM 24.14 75.452 0.264 8.92 1.3 10.81
8/11/2021 4:15:00 PM 24.28 75.704 0.263 8.91 1.38 10.75
8/11/2021 4:30:00 PM 24.32 75.776 0.263 8.9 1.3 10.66
8/11/2021 4:45:00 PM 24.38 75.884 0.262 8.88 1.33 10.56
8/11/2021 5:00:00 PM 24.4 75.92 0.262 8.86 1.21 10.43
8/11/2021 5:15:00 PM 24.38 75.884 0.262 8.83 1.32 10.28
8/11/2021 5:30:00 PM 24.23 75.614 0.263 8.77 1.19 9.99
8/11/2021 5:45:00 PM 24.05 75.29 0.264 8.68 1.14 9.54
8/11/2021 6:00:00 PM 23.91 75.038 0.264 8.61 1.08 9.42
8/11/2021 6:15:00 PM 23.86 74.948 0.265 8.57 0.96 9.52
8/11/2021 6:30:00 PM 23.78 74.804 0.266 8.49 1.03 9.4
8/11/2021 6:45:00 PM 23.63 74.534 0.267 8.37 0.93 9.14
8/11/2021 7:00:00 PM 23.48 74.264 0.268 8.26 0.95 8.91
8/11/2021 7:15:00 PM 23.35 74.03 0.268 8.17 0.95 8.69
8/11/2021 7:30:00 PM 23.2 73.76 0.269 8.06 0.89 8.42
8/11/2021 7:45:00 PM 23.04 73.472 0.27 7.92 0.93 8.09
8/11/2021 8:00:00 PM 22.89 73.202 0.271 7.84 0.88 7.85
8/11/2021 8:15:00 PM 22.76 72.968 0.272 7.78 0.85 7.65
8/11/2021 8:30:00 PM 22.63 72.734 0.273 7.73 0.91 7.52
8/11/2021 8:45:00 PM 22.51 72.518 0.273 7.7 1.02 7.44
8/11/2021 9:00:00 PM 22.4 72.32 0.274 7.68 1.19 7.4
8/11/2021 9:15:00 PM 22.3 72.14 0.275 7.68 1.12 7.38
8/11/2021 9:30:00 PM 22.2 71.96 0.275 7.67 1.11 7.38
8/11/2021 9:45:00 PM 22.09 71.762 0.276 7.66 1.14 7.38
8/11/2021 10:00:00 PM 21.99 71.582 0.276 7.65 1.18 7.39
8/11/2021 10:15:00 PM 21.9 71.42 0.277 7.65 1.28 7.42
8/11/2021 10:30:00 PM 21.81 71.258 0.278 7.65 1.14 7.42
8/11/2021 10:45:00 PM 21.74 71.132 0.278 7.65 1.29 7.44
8/11/2021 11:00:00 PM 21.67 71.006 0.279 7.65 1.19 7.45
8/11/2021 11:15:00 PM 21.58 70.844 0.279 7.64 1.14 7.47
8/11/2021 11:30:00 PM 21.51 70.718 0.28 7.65 1.14 7.48
8/11/2021 11:45:00 PM 21.42 70.556 0.28 7.64 1.28 7.48
8/12/2021 12:00:00 AM 21.34 70.412 0.281 7.65 1.09 7.51
8/12/2021 12:15:00 AM 21.25 70.25 0.281 7.65 1.14 7.53
8/12/2021 12:30:00 AM 21.17 70.106 0.282 7.65 1.25 7.55
8/12/2021 12:45:00 AM 21.09 69.962 0.282 7.65 1.32 7.57
8/12/2021 1:00:00 AM 21.02 69.836 0.282 7.65 1.14 7.59
8/12/2021 1:15:00 AM 20.95 69.71 0.283 7.65 1.17 7.61
8/12/2021 1:30:00 AM 20.9 69.62 0.283 7.65 1.11 7.62
8/12/2021 1:45:00 AM 20.84 69.512 0.283 7.65 0.98 7.64
8/12/2021 2:00:00 AM 20.78 69.404 0.284 7.65 1.16 7.66
8/12/2021 2:15:00 AM 20.73 69.314 0.284 7.65 1.15 7.68
8/12/2021 2:30:00 AM 20.67 69.206 0.284 7.65 1.16 7.69
8/12/2021 2:45:00 AM 20.61 69.098 0.284 7.65 1.09 7.71
8/12/2021 3:00:00 AM 20.53 68.954 0.285 7.65 1.11 7.72
8/12/2021 3:15:00 AM 20.44 68.792 0.285 7.66 1.05 7.74
8/12/2021 3:30:00 AM 20.37 68.666 0.285 7.66 1.24 7.76
8/12/2021 3:45:00 AM 20.31 68.558 0.285 7.66 1.28 7.77
8/12/2021 4:00:00 AM 20.24 68.432 0.286 7.66 1.05 7.79
8/12/2021 4:15:00 AM 20.18 68.324 0.286 7.66 1.2 7.81
8/12/2021 4:30:00 AM 20.12 68.216 0.286 7.66 1.08 7.83
8/12/2021 4:45:00 AM 20.05 68.09 0.287 7.66 1.13 7.84
8/12/2021 5:00:00 AM 20.02 68.036 0.287 7.67 1.12 7.86
8/12/2021 5:15:00 AM 19.97 67.946 0.287 7.67 1.28 7.87
8/12/2021 5:30:00 AM 19.92 67.856 0.287 7.67 1.13 7.88
8/12/2021 5:45:00 AM 19.89 67.802 0.288 7.67 1.11 7.9
8/12/2021 6:00:00 AM 19.84 67.712 0.288 7.67 1.19 7.91
8/12/2021 6:15:00 AM 19.79 67.622 0.288 7.68 1.05 7.96
8/12/2021 6:30:00 AM 19.74 67.532 0.288 7.69 0.87 8.09
8/12/2021 6:45:00 AM 19.7 67.46 0.288 7.72 1 8.25
8/12/2021 7:00:00 AM 19.68 67.424 0.287 7.74 0.86 8.43
8/12/2021 7:15:00 AM 19.67 67.406 0.287 7.78 0.73 8.65
8/12/2021 7:30:00 AM 19.67 67.406 0.287 7.81 0.86 8.82
8/12/2021 7:45:00 AM 19.67 67.406 0.287 7.84 0.88 8.98
8/12/2021 8:00:00 AM 19.73 67.514 0.287 7.9 0.8 9.25
8/12/2021 8:15:00 AM 19.82 67.676 0.287 7.96 0.87 9.54
8/12/2021 8:30:00 AM 19.95 67.91 0.286 8.03 1.01 9.81
8/12/2021 8:45:00 AM 20.04 68.07201 0.286 8.1 0.79 10
8/12/2021 9:00:00 AM 20.22 68.396 0.285 8.18 0.84 10.25
8/12/2021 9:15:00 AM 20.4 68.72 0.285 8.25 0.9 10.44
8/12/2021 9:30:00 AM 20.62 69.116 0.284 8.34 0.88 10.63
8/12/2021 9:45:00 AM 20.85 69.53 0.284 8.41 0.91 10.76
8/12/2021 10:00:00 AM 21.08 69.944 0.283 8.48 0.87 10.86
8/12/2021 10:15:00 AM 21.34 70.412 0.283 8.54 0.83 10.96
8/12/2021 10:30:00 AM 21.6 70.88 0.282 8.59 0.95 11
8/12/2021 10:45:00 AM 21.8 71.24 0.282 8.64 0.95 11.04
8/12/2021 11:00:00 AM 21.86 71.348 0.282 8.67 0.85 11.06
8/12/2021 11:15:00 AM 21.86 71.348 0.281 8.69 0.8 11
8/12/2021 11:30:00 AM 21.7 71.06 0.282 8.64 0.85 10.55
8/12/2021 11:45:00 AM 21.63 70.934 0.282 8.62 0.81 10.39
8/12/2021 12:00:00 PM 21.56 70.808 0.283 8.57 0.75 10.14
8/12/2021 12:15:00 PM 21.61 70.898 0.282 8.6 0.77 10.49
8/12/2021 12:30:00 PM 21.88 71.384 0.282 8.64 0.81 10.84
8/12/2021 12:45:00 PM 22.28 72.104 0.282 8.65 0.88 10.89
8/12/2021 1:00:00 PM 22.36 72.248 0.282 8.65 0.77 10.97
8/12/2021 1:15:00 PM 22.66 72.788 0.281 8.71 0.79 11.17
8/12/2021 1:30:00 PM 22.78 73.004 0.28 8.76 0.71 11.13
8/12/2021 1:45:00 PM 22.92 73.256 0.279 8.81 0.76 11.07
8/12/2021 2:00:00 PM 22.76 72.968 0.279 8.78 0.84 10.75
8/12/2021 2:15:00 PM 22.77 72.986 0.279 8.82 0.8 10.91
8/12/2021 2:30:00 PM 22.83 73.094 0.278 8.84 0.79 10.88
8/12/2021 2:45:00 PM 23.17 73.706 0.278 8.85 0.79 11.03
8/12/2021 3:00:00 PM 23.64 74.552 0.278 8.85 0.85 11.09
8/12/2021 3:15:00 PM 23.94 75.092 0.278 8.86 0.79 11.07
8/12/2021 3:30:00 PM 24.18 75.524 0.278 8.87 0.79 11.03
8/12/2021 3:45:00 PM 24.16 75.488 0.277 8.87 0.73 10.85
8/12/2021 4:00:00 PM 23.88 74.984 0.277 8.86 0.91 10.66
8/12/2021 4:15:00 PM 23.77 74.786 0.277 8.86 0.76 10.52
8/12/2021 4:30:00 PM 23.58 74.444 0.278 8.81 0.74 10.18
8/12/2021 4:45:00 PM 23.46 74.228 0.278 8.76 0.79 9.98
8/12/2021 5:00:00 PM 23.39 74.102 0.279 8.73 0.77 10.02
8/12/2021 5:15:00 PM 23.47 74.246 0.279 8.74 0.79 10.24
8/12/2021 5:30:00 PM 23.54 74.372 0.28 8.69 0.72 10.09
8/12/2021 5:45:00 PM 23.41 74.138 0.281 8.62 0.72 9.87
8/12/2021 6:00:00 PM 23.24 73.832 0.281 8.56 0.86 9.66
8/12/2021 6:15:00 PM 23.19 73.742 0.281 8.55 0.69 9.66
8/12/2021 6:30:00 PM 23.13 73.634 0.281 8.51 0.74 9.4
8/12/2021 6:45:00 PM 23.01 73.418 0.282 8.41 0.78 9.11
8/12/2021 7:00:00 PM 22.83 73.094 0.284 8.27 0.68 8.8
8/12/2021 7:15:00 PM 22.69 72.842 0.284 8.16 0.68 8.61
8/12/2021 7:30:00 PM 22.55 72.59 0.285 8.07 0.75 8.48
8/12/2021 7:45:00 PM 22.42 72.356 0.286 7.97 0.76 8.25
8/12/2021 8:00:00 PM 22.26 72.068 0.287 7.86 0.72 7.93
8/12/2021 8:15:00 PM 22.14 71.852 0.287 7.8 0.91 7.73
8/12/2021 8:30:00 PM 22.05 71.69 0.287 7.76 0.92 7.63
8/12/2021 8:45:00 PM 21.95 71.51 0.287 7.72 0.92 7.54
8/12/2021 9:00:00 PM 21.85 71.33 0.288 7.71 1 7.48
8/12/2021 9:15:00 PM 21.78 71.204 0.288 7.7 0.88 7.45
8/12/2021 9:30:00 PM 21.71 71.078 0.288 7.68 0.9 7.44
8/12/2021 9:45:00 PM 21.61 70.898 0.288 7.68 0.97 7.45
8/12/2021 10:00:00 PM 21.54 70.772 0.289 7.67 0.94 7.46
8/12/2021 10:15:00 PM 21.47 70.646 0.289 7.67 0.93 7.47
8/12/2021 10:30:00 PM 21.4 70.52 0.289 7.66 0.96 7.47
8/12/2021 10:45:00 PM 21.32 70.376 0.29 7.66 1.02 7.49
8/12/2021 11:00:00 PM 21.25 70.25 0.29 7.67 0.99 7.51
8/12/2021 11:15:00 PM 21.18 70.124 0.29 7.66 1.01 7.53
8/12/2021 11:30:00 PM 21.12 70.016 0.29 7.66 0.94 7.55
8/12/2021 11:45:00 PM 21.07 69.926 0.29 7.66 5.15 7.57
8/13/2021 12:00:00 AM 21.02 69.836 0.291 7.66 0.98 7.59
8/13/2021 12:15:00 AM 20.97 69.746 0.291 7.66 0.93 7.6
8/13/2021 12:30:00 AM 20.93 69.674 0.291 7.66 0.96 7.62
8/13/2021 12:45:00 AM 20.87 69.566 0.292 7.66 1.01 7.62
8/13/2021 1:00:00 AM 20.82 69.476 0.292 7.66 1.03 7.64
8/13/2021 1:15:00 AM 20.77 69.386 0.292 7.66 0.97 7.65
8/13/2021 1:30:00 AM 20.7 69.26 0.293 7.66 1.03 7.67
8/13/2021 1:45:00 AM 20.63 69.134 0.293 7.66 1.07 7.69
8/13/2021 2:00:00 AM 20.57 69.026 0.293 7.66 0.95 7.7
8/13/2021 2:15:00 AM 20.5 68.9 0.293 7.65 1.07 7.72
8/13/2021 2:30:00 AM 20.45 68.81 0.293 7.66 0.94 7.74
8/13/2021 2:45:00 AM 20.39 68.702 0.293 7.66 0.96 7.76
8/13/2021 3:00:00 AM 20.34 68.612 0.293 7.66 0.96 7.77
8/13/2021 3:15:00 AM 20.28 68.504 0.293 7.66 1.49 7.79
8/13/2021 3:30:00 AM 20.22 68.396 0.294 7.66 0.97 7.8
8/13/2021 3:45:00 AM 20.15 68.27 0.294 7.66 0.94 7.82
8/13/2021 4:00:00 AM 20.1 68.18 0.294 7.66 1.07 7.83
8/13/2021 4:15:00 AM 20.04 68.07201 0.294 7.66 0.97 7.85
8/13/2021 4:30:00 AM 19.98 67.964 0.294 7.66 1.02 7.87
8/13/2021 4:45:00 AM 19.92 67.856 0.294 7.66 0.97 7.88
8/13/2021 5:00:00 AM 19.87 67.766 0.294 7.67 1.07 7.9
8/13/2021 5:15:00 AM 19.82 67.676 0.294 7.67 1.07 7.92
8/13/2021 5:30:00 AM 19.77 67.586 0.294 7.67 1.31 7.92
8/13/2021 5:45:00 AM 19.73 67.514 0.294 7.67 1.14 7.94
8/13/2021 6:00:00 AM 19.69 67.442 0.294 7.67 1.01 7.95
8/13/2021 6:15:00 AM 19.67 67.406 0.294 7.68 0.95 8.02
8/13/2021 6:30:00 AM 19.63 67.334 0.294 7.69 0.85 8.13
8/13/2021 6:45:00 AM 19.61 67.298 0.294 7.72 0.81 8.34
8/13/2021 7:00:00 AM 19.6 67.28 0.294 7.75 0.83 8.55
8/13/2021 7:15:00 AM 19.62 67.316 0.294 7.79 0.79 8.79
8/13/2021 7:30:00 AM 19.64 67.352 0.294 7.82 0.82 8.99
8/13/2021 7:45:00 AM 19.63 67.334 0.293 7.85 0.88 9.11
8/13/2021 8:00:00 AM 19.67 67.406 0.293 7.89 0.77 9.33
8/13/2021 8:15:00 AM 19.76 67.568 0.293 7.94 0.74 9.56
8/13/2021 8:30:00 AM 19.86 67.748 0.293 7.99 0.73 9.69
8/13/2021 8:45:00 AM 19.99 67.982 0.292 8.04 0.78 9.89
8/13/2021 9:00:00 AM 20.16 68.288 0.292 8.12 0.83 10.11
8/13/2021 9:15:00 AM 20.34 68.612 0.291 8.18 1 10.27
8/13/2021 9:30:00 AM 20.52 68.936 0.291 8.25 0.89 10.41
8/13/2021 9:45:00 AM 20.76 69.368 0.29 8.34 1.04 10.62
8/13/2021 10:00:00 AM 20.99 69.782 0.29 8.4 1.09 10.7
8/13/2021 10:15:00 AM 21.24 70.232 0.29 8.45 0.99 10.81
8/13/2021 10:30:00 AM 21.57 70.826 0.289 8.53 1.08 10.95
8/13/2021 10:45:00 AM 21.83 71.294 0.289 8.56 0.99 10.94
8/13/2021 11:00:00 AM 22.09 71.762 0.289 8.6 0.85 10.98
8/13/2021 11:15:00 AM 22.39 72.302 0.288 8.65 0.85 11.04
8/13/2021 11:30:00 AM 22.53 72.554 0.288 8.67 0.85 10.95
8/13/2021 11:45:00 AM 22.77 72.986 0.287 8.7 0.94 11.02
8/13/2021 12:00:00 PM 22.91 73.238 0.287 8.72 0.86 11.02
8/13/2021 12:15:00 PM 23.04 73.472 0.287 8.73 0.71 10.89
8/13/2021 12:30:00 PM 22.91 73.238 0.287 8.73 0.69 10.78
8/13/2021 12:45:00 PM 22.75 72.95 0.287 8.69 0.9 10.36
8/13/2021 1:00:00 PM 22.85 73.13 0.287 8.69 0.83 10.46
8/13/2021 1:15:00 PM 23.22 73.796 0.286 8.75 0.97 10.71
8/13/2021 1:30:00 PM 23.71 74.67799 0.286 8.75 0.76 10.81
8/13/2021 1:45:00 PM 23.98 75.164 0.286 8.74 0.74 10.77
8/13/2021 2:00:00 PM 24.07 75.326 0.286 8.72 0.72 10.76
8/13/2021 2:15:00 PM 24.42 75.956 0.285 8.77 0.86 10.9
8/13/2021 2:30:00 PM 24.5 76.1 0.284 8.78 0.73 10.69
8/13/2021 2:45:00 PM 24.36 75.848 0.284 8.77 0.74 10.47
8/13/2021 3:00:00 PM 24.74 76.532 0.284 8.81 0.72 10.73
8/13/2021 3:15:00 PM 24.97 76.946 0.283 8.82 0.71 10.71
8/13/2021 3:30:00 PM 24.89 76.802 0.283 8.8 0.76 10.48
8/13/2021 3:45:00 PM 24.97 76.946 0.283 8.81 0.79 10.54
8/13/2021 4:00:00 PM 25.03 77.054 0.283 8.81 0.73 10.5
8/13/2021 4:15:00 PM 24.78 76.604 0.284 8.73 0.74 9.93
8/13/2021 4:30:00 PM 24.39 75.902 0.285 8.64 0.73 9.45
8/13/2021 4:45:00 PM 24.22 75.596 0.285 8.64 0.74 9.59
8/13/2021 5:00:00 PM 24.31 75.758 0.284 8.69 0.79 9.9
8/13/2021 5:15:00 PM 24.25 75.65 0.285 8.65 0.73 9.81
8/13/2021 5:30:00 PM 24.03 75.254 0.287 8.52 0.72 9.39
8/13/2021 5:45:00 PM 23.83 74.894 0.288 8.43 0.66 9.23
8/13/2021 6:00:00 PM 23.69 74.642 0.288 8.37 0.85 9.12
8/13/2021 6:15:00 PM 23.56 74.408 0.288 8.28 0.81 8.86
8/13/2021 6:30:00 PM 23.4 74.12 0.289 8.18 0.65 8.63
8/13/2021 6:45:00 PM 23.27 73.886 0.29 8.11 0.79 8.57
8/13/2021 7:00:00 PM 23.15 73.67 0.29 8.07 0.64 8.54
8/13/2021 7:15:00 PM 23.02 73.436 0.291 8.01 0.67 8.44
8/13/2021 7:30:00 PM 22.89 73.202 0.291 7.95 0.68 8.28
8/13/2021 7:45:00 PM 22.76 72.968 0.292 7.89 0.62 8.07
8/13/2021 8:00:00 PM 22.62 72.716 0.292 7.84 0.67 7.88
8/13/2021 8:15:00 PM 22.48 72.464 0.293 7.79 0.71 7.7
8/13/2021 8:30:00 PM 22.35 72.23 0.293 7.76 1.57 7.56
8/13/2021 8:45:00 PM 22.22 71.996 0.293 7.73 0.86 7.48
8/13/2021 9:00:00 PM 22.1 71.78 0.294 7.71 0.95 7.44
8/13/2021 9:15:00 PM 21.98 71.564 0.294 7.71 0.92 7.42
8/13/2021 9:30:00 PM 21.87 71.366 0.294 7.69 0.89 7.41
8/13/2021 9:45:00 PM 21.76 71.168 0.295 7.69 1 7.41
8/13/2021 10:00:00 PM 21.66 70.988 0.295 7.68 0.92 7.42
8/13/2021 10:15:00 PM 21.57 70.826 0.295 7.69 1.02 7.44
8/13/2021 10:30:00 PM 21.47 70.646 0.295 7.68 0.94 7.46
8/13/2021 10:45:00 PM 21.38 70.484 0.296 7.68 0.96 7.49
8/13/2021 11:00:00 PM 21.3 70.34 0.296 7.68 1.17 7.51
8/13/2021 11:15:00 PM 21.21 70.17799 0.296 7.68 1 7.52
8/13/2021 11:30:00 PM 21.14 70.052 0.296 7.68 1 7.54
8/13/2021 11:45:00 PM 21.06 69.908 0.296 7.68 0.99 7.56
8/14/2021 12:00:00 AM 21 69.8 0.297 7.68 0.98 7.58
8/14/2021 12:15:00 AM 20.94 69.692 0.297 7.68 0.97 7.6
8/14/2021 12:30:00 AM 20.89 69.602 0.297 7.68 1.03 7.62
8/14/2021 12:45:00 AM 20.83 69.494 0.297 7.68 1.11 7.64
8/14/2021 1:00:00 AM 20.77 69.386 0.297 7.68 1.06 7.65
8/14/2021 1:15:00 AM 20.7 69.26 0.297 7.68 1.03 7.67
8/14/2021 1:30:00 AM 20.67 69.206 0.297 7.68 0.95 7.7
8/14/2021 1:45:00 AM 20.64 69.152 0.297 7.68 1.09 7.71
8/14/2021 2:00:00 AM 20.61 69.098 0.296 7.68 0.99 7.73
8/14/2021 2:15:00 AM 20.58 69.044 0.296 7.68 1.02 7.74
8/14/2021 2:30:00 AM 20.54 68.972 0.293 7.68 1.11 7.81
8/14/2021 2:45:00 AM 20.52 68.936 0.292 7.68 1.18 7.79
8/14/2021 3:00:00 AM 20.5 68.9 0.293 7.67 1.19 7.78
8/14/2021 3:15:00 AM 20.48 68.864 0.292 7.67 1.22 7.78
8/14/2021 3:30:00 AM 20.46 68.828 0.292 7.68 1.1 7.78
8/14/2021 3:45:00 AM 20.43 68.774 0.292 7.67 1.27 7.78
8/14/2021 4:00:00 AM 20.38 68.684 0.292 7.67 1.27 7.76
8/14/2021 4:15:00 AM 20.36 68.648 0.292 7.66 1.22 7.73
8/14/2021 4:30:00 AM 20.34 68.612 0.292 7.66 1.31 7.72
8/14/2021 4:45:00 AM 20.32 68.576 0.293 7.67 1.2 7.75
8/14/2021 5:00:00 AM 20.29 68.522 0.293 7.68 1.29 7.79
8/14/2021 5:15:00 AM 20.26 68.468 0.294 7.69 1.18 7.82
8/14/2021 5:30:00 AM 20.22 68.396 0.294 7.69 1.34 7.85
8/14/2021 5:45:00 AM 20.17 68.306 0.295 7.7 1.32 7.87
8/14/2021 6:00:00 AM 20.11 68.198 0.296 7.7 1.22 7.9
8/14/2021 6:15:00 AM 20.04 68.07201 0.296 7.7 1.02 7.94
8/14/2021 6:30:00 AM 19.98 67.964 0.297 7.72 0.91 8
8/14/2021 6:45:00 AM 19.94 67.892 0.297 7.73 1.03 8.09
8/14/2021 7:00:00 AM 19.87 67.766 0.297 7.74 0.94 8.17
8/14/2021 7:15:00 AM 19.83 67.694 0.297 7.76 0.84 8.3
8/14/2021 7:30:00 AM 19.77 67.586 0.297 7.76 0.92 8.31
8/14/2021 7:45:00 AM 19.72 67.496 0.297 7.76 0.85 8.34
8/14/2021 8:00:00 AM 19.71 67.478 0.296 7.82 0.89 8.73
8/14/2021 8:15:00 AM 19.73 67.514 0.296 7.88 0.81 9.03
8/14/2021 8:30:00 AM 19.72 67.496 0.296 7.9 0.88 9.08
8/14/2021 8:45:00 AM 19.71 67.478 0.296 7.94 0.92 9.28
8/14/2021 9:00:00 AM 19.71 67.478 0.296 7.95 0.95 9.29
8/14/2021 9:15:00 AM 19.68 67.424 0.295 7.97 0.9 9.36
8/14/2021 9:30:00 AM 19.67 67.406 0.295 8 0.84 9.43
8/14/2021 9:45:00 AM 19.63 67.334 0.295 7.97 0.92 9.29
8/14/2021 10:00:00 AM 19.65 67.37 0.295 8.04 0.87 9.61
8/14/2021 10:15:00 AM 19.87 67.766 0.294 8.2 0.98 10.24
8/14/2021 10:30:00 AM 20.03 68.054 0.294 8.28 0.84 10.47
8/14/2021 10:45:00 AM 20.19 68.342 0.293 8.31 0.86 10.53
8/14/2021 11:00:00 AM 20.1 68.18 0.293 8.33 0.87 10.49
8/14/2021 11:15:00 AM 20.19 68.342 0.292 8.42 0.88 10.76
8/14/2021 11:30:00 AM 20.34 68.612 0.291 8.5 0.8 10.94
8/14/2021 11:45:00 AM 20.63 69.134 0.29 8.58 0.87 11.1
8/14/2021 12:00:00 PM 20.62 69.116 0.29 8.6 0.89 11.04
8/14/2021 12:15:00 PM 20.89 69.602 0.289 8.64 0.86 11.14
8/14/2021 12:30:00 PM 21.27 70.286 0.288 8.66 0.96 11.1
8/14/2021 12:45:00 PM 21.51 70.718 0.287 8.69 0.92 11.11
8/14/2021 1:00:00 PM 21.89 71.402 0.287 8.72 0.89 11.09
8/14/2021 1:15:00 PM 22.1 71.78 0.286 8.72 0.78 11.03
8/14/2021 1:30:00 PM 22.39 72.302 0.286 8.73 0.79 11
8/14/2021 1:45:00 PM 22.65 72.77 0.285 8.73 0.76 10.93
8/14/2021 2:00:00 PM 22.9 73.22 0.285 8.74 0.85 10.95
8/14/2021 2:15:00 PM 23.08 73.544 0.285 8.75 0.81 10.92
8/14/2021 2:30:00 PM 23.23 73.814 0.285 8.75 0.88 10.88
8/14/2021 2:45:00 PM 23.38 74.084 0.284 8.76 0.79 10.89
8/14/2021 3:00:00 PM 23.5 74.3 0.284 8.77 0.87 10.87
8/14/2021 3:15:00 PM 23.36 74.048 0.284 8.74 0.91 10.57
8/14/2021 3:30:00 PM 23.28 73.904 0.284 8.74 0.92 10.65
8/14/2021 3:45:00 PM 23.37 74.066 0.284 8.74 0.81 10.49
8/14/2021 4:00:00 PM 23.15 73.67 0.284 8.7 0.78 10.32
8/14/2021 4:15:00 PM 23.16 73.688 0.285 8.69 0.78 10.23
8/14/2021 4:30:00 PM 23.04 73.472 0.285 8.67 0.88 10.2
8/14/2021 4:45:00 PM 23.05 73.49 0.285 8.67 0.83 10.17
8/14/2021 5:00:00 PM 22.76 72.968 0.286 8.59 0.77 9.86
8/14/2021 5:15:00 PM 22.63 72.734 0.286 8.58 0.7 9.89
8/14/2021 5:30:00 PM 22.7 72.86 0.286 8.58 0.71 9.91
8/14/2021 5:45:00 PM 22.58 72.644 0.286 8.54 0.88 9.75
8/14/2021 6:00:00 PM 22.42 72.356 0.287 8.48 0.7 9.51
8/14/2021 6:15:00 PM 22.26 72.068 0.288 8.44 0.77 9.45
8/14/2021 6:30:00 PM 22.12 71.816 0.288 8.39 0.79 9.35
8/14/2021 6:45:00 PM 21.94 71.492 0.289 8.31 0.75 9.15
8/14/2021 7:00:00 PM 21.72 71.096 0.29 8.21 0.7 8.92
8/14/2021 7:15:00 PM 21.51 70.718 0.291 8.12 0.7 8.73
8/14/2021 7:30:00 PM 21.28 70.304 0.292 8.03 0.61 8.58
8/14/2021 7:45:00 PM 21.08 69.944 0.292 7.96 0.63 8.41
8/14/2021 8:00:00 PM 20.87 69.566 0.293 7.89 0.63 8.23
8/14/2021 8:15:00 PM 20.65 69.17 0.294 7.83 0.68 8.08
8/14/2021 8:30:00 PM 20.45 68.81 0.294 7.79 0.71 7.98
8/14/2021 8:45:00 PM 20.27 68.486 0.295 7.76 0.78 7.93
8/14/2021 9:00:00 PM 20.1 68.18 0.295 7.75 1.02 7.91
8/14/2021 9:15:00 PM 19.95 67.91 0.295 7.74 0.87 7.91
8/14/2021 9:30:00 PM 19.79 67.622 0.295 7.72 0.96 7.92
8/14/2021 9:45:00 PM 19.64 67.352 0.296 7.72 1.03 7.94
8/14/2021 10:00:00 PM 19.51 67.118 0.296 7.7 1.01 7.97
8/14/2021 10:15:00 PM 19.37 66.866 0.296 7.7 1 8
8/14/2021 10:30:00 PM 19.24 66.632 0.296 7.7 1.01 8.03
8/14/2021 10:45:00 PM 19.12 66.416 0.297 7.69 1.03 8.05
8/14/2021 11:00:00 PM 19.01 66.218 0.297 7.7 1.04 8.08
8/14/2021 11:15:00 PM 18.91 66.038 0.297 7.7 1.08 8.11
8/14/2021 11:30:00 PM 18.79 65.82201 0.297 7.7 1.02 8.14
8/14/2021 11:45:00 PM 18.69 65.642 0.297 7.65 0.97 8.18
8/15/2021 12:00:00 AM 18.59 65.462 0.297 7.68 1.05 8.2
8/15/2021 12:15:00 AM 18.48 65.264 0.298 7.69 0.95 8.23
8/15/2021 12:30:00 AM 18.38 65.084 0.298 7.69 1.04 8.25
8/15/2021 12:45:00 AM 18.28 64.904 0.298 7.7 1.03 8.28
8/15/2021 1:00:00 AM 18.19 64.742 0.298 7.69 1.09 8.31
8/15/2021 1:15:00 AM 18.09 64.562 0.298 7.69 1.04 8.33
8/15/2021 1:30:00 AM 17.99 64.382 0.299 7.69 1.02 8.35
8/15/2021 1:45:00 AM 17.89 64.202 0.299 7.7 0.92 8.39
8/15/2021 2:00:00 AM 17.8 64.04 0.299 7.71 1.15 8.41
8/15/2021 2:15:00 AM 17.7 63.86 0.299 7.7 1.07 8.44
8/15/2021 2:30:00 AM 17.61 63.698 0.299 7.71 0.96 8.46
8/15/2021 2:45:00 AM 17.52 63.536 0.299 7.7 0.98 8.48
8/15/2021 3:00:00 AM 17.43 63.374 0.299 7.71 0.97 8.52
8/15/2021 3:15:00 AM 17.33 63.194 0.299 7.71 1.02 8.54
8/15/2021 3:30:00 AM 17.24 63.032 0.299 7.72 1.04 8.57
8/15/2021 3:45:00 AM 17.15 62.87 0.299 7.71 1.01 8.59
8/15/2021 4:00:00 AM 17.06 62.708 0.299 7.72 1.01 8.62
8/15/2021 4:15:00 AM 16.97 62.546 0.299 7.72 0.95 8.64
8/15/2021 4:30:00 AM 16.89 62.402 0.299 7.72 1.08 8.66
8/15/2021 4:45:00 AM 16.8 62.24 0.299 7.72 0.88 8.69
8/15/2021 5:00:00 AM 16.72 62.096 0.299 7.71 1.29 8.71
8/15/2021 5:15:00 AM 16.64 61.952 0.299 7.72 1.08 8.73
8/15/2021 5:30:00 AM 16.56 61.808 0.299 7.71 0.98 8.76
8/15/2021 5:45:00 AM 16.48 61.664 0.3 7.72 0.9 8.78
8/15/2021 6:00:00 AM 16.4 61.52 0.3 7.72 0.88 8.81
8/15/2021 6:15:00 AM 16.34 61.412 0.3 7.73 0.87 8.87
8/15/2021 6:30:00 AM 16.27 61.286 0.3 7.74 0.81 8.97
8/15/2021 6:45:00 AM 16.22 61.196 0.3 7.76 0.73 9.12
8/15/2021 7:00:00 AM 16.16 61.088 0.3 7.78 0.72 9.24
8/15/2021 7:15:00 AM 16.12 61.016 0.3 7.81 0.72 9.36
8/15/2021 7:30:00 AM 16.1 60.98 0.3 7.82 0.71 9.48
8/15/2021 7:45:00 AM 16.1 60.98 0.3 7.85 0.67 9.62
8/15/2021 8:00:00 AM 16.16 61.088 0.3 7.89 0.63 9.83
8/15/2021 8:15:00 AM 16.27 61.286 0.3 7.94 0.67 10.05
8/15/2021 8:30:00 AM 16.42 61.556 0.3 7.98 0.67 10.24
8/15/2021 8:45:00 AM 16.53 61.754 0.299 8.03 0.71 10.36
8/15/2021 9:00:00 AM 16.65 61.97 0.299 8.08 0.63 10.5
8/15/2021 9:15:00 AM 16.88 62.384 0.299 8.15 0.69 10.69
8/15/2021 9:30:00 AM 17.13 62.834 0.298 8.2 0.64 10.82
8/15/2021 9:45:00 AM 17.43 63.374 0.298 8.27 0.9 10.96
8/15/2021 10:00:00 AM 17.75 63.95 0.298 8.32 0.62 11.05
8/15/2021 10:15:00 AM 18.03 64.454 0.297 8.36 0.62 11.1
8/15/2021 10:30:00 AM 18.44 65.192 0.297 8.42 0.76 11.17
8/15/2021 10:45:00 AM 18.58 65.444 0.297 8.43 0.61 11.1
8/15/2021 11:00:00 AM 18.94 66.092 0.297 8.49 0.74 11.22
8/15/2021 11:15:00 AM 19.25 66.65 0.296 8.53 4.18 11.26
8/15/2021 11:30:00 AM 19.55 67.19 0.296 8.55 1.33 11.24
8/15/2021 11:45:00 AM 19.79 67.622 0.296 8.57 0.86 11.25
8/15/2021 12:00:00 PM 20.1 68.18 0.296 8.6 0.88 11.27
8/15/2021 12:15:00 PM 20.32 68.576 0.296 8.62 0.69 11.24
8/15/2021 12:30:00 PM 20.62 69.116 0.296 8.63 5.93 11.2
8/15/2021 12:45:00 PM 20.91 69.638 0.295 8.64 2.24 11.17
8/15/2021 1:00:00 PM 21.12 70.016 0.295 8.65 1.59 11.15
8/15/2021 1:15:00 PM 21.24 70.232 0.295 8.67 0.93 11.14
8/15/2021 1:30:00 PM 21.07 69.926 0.295 8.66 1.59 11.01
8/15/2021 1:45:00 PM 21.26 70.268 0.294 8.69 0.96 11.16
8/15/2021 2:00:00 PM 21.41 70.538 0.294 8.72 0.85 11.2
8/15/2021 2:15:00 PM 21.59 70.862 0.293 8.74 0.83 11.21
8/15/2021 2:30:00 PM 21.54 70.772 0.293 8.74 0.82 11.13
8/15/2021 2:45:00 PM 21.4 70.52 0.293 8.76 0.82 11.12
8/15/2021 3:00:00 PM 21.41 70.538 0.292 8.77 0.76 11.13
8/15/2021 3:15:00 PM 21.63 70.934 0.292 8.8 0.81 11.2
8/15/2021 3:30:00 PM 21.85 71.33 0.292 8.81 0.8 11.15
8/15/2021 3:45:00 PM 21.71 71.078 0.291 8.79 0.87 10.97
8/15/2021 4:00:00 PM 21.68 71.024 0.291 8.8 0.81 11.03
8/15/2021 4:15:00 PM 21.84 71.312 0.291 8.81 1.86 11.01
8/15/2021 4:30:00 PM 21.77 71.186 0.291 8.79 1.61 10.84
8/15/2021 4:45:00 PM 21.66 70.988 0.291 8.79 3.63 10.78
8/15/2021 5:00:00 PM 21.45 70.61 0.291 8.77 1.24 10.63
8/15/2021 5:15:00 PM 21.32 70.376 0.291 8.76 0.73 10.6
8/15/2021 5:30:00 PM 21.22 70.196 0.291 8.74 0.85 10.48
8/15/2021 5:45:00 PM 21.12 70.016 0.292 8.71 0.75 10.37
8/15/2021 6:00:00 PM 21.07 69.926 0.292 8.66 0.73 10.22
8/15/2021 6:15:00 PM 20.91 69.638 0.293 8.58 0.87 9.97
8/15/2021 6:30:00 PM 20.67 69.206 0.294 8.51 0.76 9.76
8/15/2021 6:45:00 PM 20.57 69.026 0.294 8.47 0.77 9.76
8/15/2021 7:00:00 PM 20.44 68.792 0.295 8.38 0.61 9.48
8/15/2021 7:15:00 PM 20.2 68.36 0.296 8.24 0.68 9.14
8/15/2021 7:30:00 PM 20.02 68.036 0.297 8.14 0.64 8.99
8/15/2021 7:45:00 PM 19.84 67.712 0.298 8.05 0.69 8.85
8/15/2021 8:00:00 PM 19.65 67.37 0.298 7.96 0.71 8.61
8/15/2021 8:15:00 PM 19.46 67.028 0.299 7.89 0.73 8.39
8/15/2021 8:30:00 PM 19.27 66.686 0.299 7.83 0.84 8.26
8/15/2021 8:45:00 PM 19.11 66.398 0.3 7.8 0.97 8.2
8/15/2021 9:00:00 PM 18.96 66.128 0.3 7.78 1.03 8.17
8/15/2021 9:15:00 PM 18.83 65.894 0.3 7.76 1.11 8.14
8/15/2021 9:30:00 PM 18.7 65.66 0.3 7.74 1.03 8.14
8/15/2021 9:45:00 PM 18.58 65.444 0.3 7.74 1.1 8.14
8/15/2021 10:00:00 PM 18.47 65.246 0.301 7.73 1.16 8.16
8/15/2021 10:15:00 PM 18.35 65.03 0.301 7.73 1.01 8.19
8/15/2021 10:30:00 PM 18.25 64.85 0.301 7.72 1.06 8.22
8/15/2021 10:45:00 PM 18.13 64.634 0.301 7.72 1.05 8.25
8/15/2021 11:00:00 PM 18.03 64.454 0.301 7.72 1 8.27
8/15/2021 11:15:00 PM 17.91 64.238 0.302 7.72 0.95 8.31
8/15/2021 11:30:00 PM 17.81 64.058 0.302 7.72 1.82 8.33
8/15/2021 11:45:00 PM 17.7 63.86 0.302 7.72 1.07 8.35
8/16/2021 12:00:00 AM 17.6 63.68 0.302 7.72 1.14 8.37
8/16/2021 12:15:00 AM 17.49 63.482 0.303 7.72 1.14 8.41
8/16/2021 12:30:00 AM 17.39 63.302 0.303 7.72 1.14 8.44
8/16/2021 12:45:00 AM 17.3 63.14 0.303 7.72 1.13 8.47
8/16/2021 1:00:00 AM 17.2 62.96 0.303 7.72 0.99 8.49
8/16/2021 1:15:00 AM 17.1 62.78 0.303 7.72 0.99 8.52
8/16/2021 1:30:00 AM 17.01 62.618 0.304 7.72 1.02 8.53
8/16/2021 1:45:00 AM 16.92 62.456 0.304 7.72 1.06 8.56
8/16/2021 2:00:00 AM 16.83 62.294 0.304 7.72 0.98 8.59
8/16/2021 2:15:00 AM 16.75 62.15 0.304 7.72 0.98 8.6
8/16/2021 2:30:00 AM 16.66 61.988 0.304 7.72 1.09 8.62
8/16/2021 2:45:00 AM 16.58 61.844 0.304 7.72 1.09 8.64
8/16/2021 3:00:00 AM 16.5 61.7 0.304 7.73 1.08 8.67
8/16/2021 3:15:00 AM 16.42 61.556 0.304 7.72 1.55 8.69
8/16/2021 3:30:00 AM 16.34 61.412 0.304 7.73 1.06 8.72
8/16/2021 3:45:00 AM 16.27 61.286 0.304 7.73 1.07 8.74
8/16/2021 4:00:00 AM 16.2 61.16 0.305 7.73 1.05 8.76
8/16/2021 4:15:00 AM 16.13 61.034 0.305 7.69 1.04 8.78
8/16/2021 4:30:00 AM 16.07 60.926 0.305 7.72 1.03 8.8
8/16/2021 4:45:00 AM 16 60.8 0.305 7.72 1.1 8.83
8/16/2021 5:00:00 AM 15.94 60.692 0.305 7.72 1.05 8.84
8/16/2021 5:15:00 AM 15.88 60.584 0.305 7.72 1.22 8.85
8/16/2021 5:30:00 AM 15.82 60.476 0.305 7.72 1.03 8.88
8/16/2021 5:45:00 AM 15.76 60.368 0.305 7.72 1.19 8.9
8/16/2021 6:00:00 AM 15.7 60.26 0.305 7.73 0.96 8.92
8/16/2021 6:15:00 AM 15.64 60.152 0.305 7.73 0.82 8.97
8/16/2021 6:30:00 AM 15.6 60.08 0.305 7.74 0.79 9.07
8/16/2021 6:45:00 AM 15.57 60.026 0.305 7.77 0.78 9.23
8/16/2021 7:00:00 AM 15.56 60.008 0.305 7.8 0.68 9.42
8/16/2021 7:15:00 AM 15.56 60.008 0.305 7.83 0.67 9.61
8/16/2021 7:30:00 AM 15.6 60.08 0.305 7.87 0.61 9.83
8/16/2021 7:45:00 AM 15.65 60.17 0.305 7.92 0.71 10.04
8/16/2021 8:00:00 AM 15.75 60.35 0.305 7.98 0.64 10.31
8/16/2021 8:15:00 AM 15.85 60.53 0.304 8.04 0.58 10.49
8/16/2021 8:30:00 AM 15.96 60.728 0.304 8.09 0.72 10.64
8/16/2021 8:45:00 AM 16.06 60.908 0.304 8.13 0.63 10.74
8/16/2021 9:00:00 AM 16.17 61.106 0.303 8.17 0.62 10.86
8/16/2021 9:15:00 AM 16.38 61.484 0.303 8.24 0.61 11.03
8/16/2021 9:30:00 AM 16.67 62.006 0.302 8.31 0.68 11.21
8/16/2021 9:45:00 AM 16.87 62.366 0.302 8.35 0.73 11.24
8/16/2021 10:00:00 AM 17.16 62.888 0.302 8.4 0.71 11.37
8/16/2021 10:15:00 AM 17.45 63.41 0.301 8.46 0.66 11.46
8/16/2021 10:30:00 AM 17.77 63.986 0.301 8.52 0.87 11.58
8/16/2021 10:45:00 AM 17.96 64.328 0.3 8.55 0.65 11.59
8/16/2021 11:00:00 AM 18.12 64.616 0.3 8.58 0.69 11.57
8/16/2021 11:15:00 AM 18.33 64.994 0.3 8.63 0.65 11.64
8/16/2021 11:30:00 AM 18.61 65.498 0.299 8.67 0.65 11.7
8/16/2021 11:45:00 AM 18.98 66.164 0.299 8.7 0.6 11.72
8/16/2021 12:00:00 PM 19.24 66.632 0.299 8.71 0.74 11.6
8/16/2021 12:15:00 PM 19.55 67.19 0.299 8.72 0.81 11.59
8/16/2021 12:30:00 PM 20.04 68.07201 0.299 8.74 0.72 11.57
8/16/2021 12:45:00 PM 20.34 68.612 0.298 8.75 0.76 11.52
8/16/2021 1:00:00 PM 20.57 69.026 0.298 8.76 0.71 11.48
8/16/2021 1:15:00 PM 20.79 69.422 0.298 8.76 0.72 11.44
8/16/2021 1:30:00 PM 20.85 69.53 0.298 8.75 0.77 11.34
8/16/2021 1:45:00 PM 21.25 70.25 0.297 8.77 0.66 11.46
8/16/2021 2:00:00 PM 21.61 70.898 0.297 8.78 0.67 11.38
8/16/2021 2:15:00 PM 21.28 70.304 0.297 8.76 0.71 11.06
8/16/2021 2:30:00 PM 21.04 69.872 0.297 8.72 0.68 10.87
8/16/2021 2:45:00 PM 21.04 69.872 0.296 8.76 0.7 11.04
8/16/2021 3:00:00 PM 21.04 69.872 0.296 8.79 0.74 11.11
8/16/2021 3:15:00 PM 21.1 69.98 0.296 8.8 0.73 11.15
8/16/2021 3:30:00 PM 21.16 70.088 0.295 8.79 0.73 11.12
8/16/2021 3:45:00 PM 21 69.8 0.296 8.74 0.8 10.79
8/16/2021 4:00:00 PM 20.87 69.566 0.296 8.71 0.73 10.76
8/16/2021 4:15:00 PM 20.79 69.422 0.296 8.7 0.71 10.68
8/16/2021 4:30:00 PM 20.72 69.296 0.296 8.68 0.65 10.54
8/16/2021 4:45:00 PM 20.63 69.134 0.297 8.63 0.69 10.33
8/16/2021 5:00:00 PM 20.57 69.026 0.297 8.6 0.82 10.31
8/16/2021 5:15:00 PM 20.46 68.828 0.298 8.52 0.73 10.05
8/16/2021 5:30:00 PM 20.37 68.666 0.299 8.45 0.75 9.88
8/16/2021 5:45:00 PM 20.25 68.45 0.299 8.34 0.95 9.55
8/16/2021 6:00:00 PM 20.16 68.288 0.3 8.27 0.61 9.42
8/16/2021 6:15:00 PM 20.08 68.144 0.3 8.2 0.71 9.28
8/16/2021 6:30:00 PM 19.97 67.946 0.301 8.09 0.66 9.01
8/16/2021 6:45:00 PM 19.87 67.766 0.302 8 0.61 8.78
8/16/2021 7:00:00 PM 19.79 67.622 0.302 7.94 0.59 8.64
8/16/2021 7:15:00 PM 19.72 67.496 0.303 7.91 0.6 8.63
8/16/2021 7:30:00 PM 19.64 67.352 0.303 7.87 0.63 8.51
8/16/2021 7:45:00 PM 19.56 67.208 0.303 7.84 0.64 8.37
8/16/2021 8:00:00 PM 19.47 67.046 0.304 7.79 0.6 8.24
8/16/2021 8:15:00 PM 19.41 66.938 0.304 7.78 0.7 8.16
8/16/2021 8:30:00 PM 19.34 66.812 0.304 7.75 0.82 8.1
8/16/2021 8:45:00 PM 19.28 66.704 0.304 7.74 0.87 8.06
8/16/2021 9:00:00 PM 19.22 66.596 0.304 7.74 1 8.04
8/16/2021 9:15:00 PM 19.16 66.488 0.305 7.73 0.99 8.04
8/16/2021 9:30:00 PM 19.11 66.398 0.305 7.72 1.09 8.03
8/16/2021 9:45:00 PM 19.07 66.326 0.305 7.71 0.99 8.03
8/16/2021 10:00:00 PM 19.02 66.236 0.305 7.72 1.02 8.04
8/16/2021 10:15:00 PM 18.97 66.146 0.305 7.71 0.97 8.04
8/16/2021 10:30:00 PM 18.93 66.074 0.306 7.71 1.03 8.05
8/16/2021 10:45:00 PM 18.89 66.002 0.306 7.71 1.08 8.06
8/16/2021 11:00:00 PM 18.86 65.948 0.306 7.71 4.52 8.07
8/16/2021 11:15:00 PM 18.82 65.876 0.306 7.71 1.08 8.09
8/16/2021 11:30:00 PM 18.78 65.804 0.306 7.71 1.15 8.1
8/16/2021 11:45:00 PM 18.75 65.75 0.306 7.71 1.08 8.1
8/17/2021 12:00:00 AM 18.72 65.696 0.306 7.71 1.07 8.11
8/17/2021 12:15:00 AM 18.69 65.642 0.306 7.72 0.98 8.13
8/17/2021 12:30:00 AM 18.66 65.588 0.306 7.71 1.03 8.13
8/17/2021 12:45:00 AM 18.64 65.552 0.306 7.71 0.88 8.13
8/17/2021 1:00:00 AM 18.61 65.498 0.306 7.71 1.08 8.13
8/17/2021 1:15:00 AM 18.58 65.444 0.306 7.7 1.16 8.14
8/17/2021 1:30:00 AM 18.56 65.408 0.306 7.71 2.8 8.15
8/17/2021 1:45:00 AM 18.53 65.354 0.306 7.71 1.08 8.15
8/17/2021 2:00:00 AM 18.51 65.318 0.306 7.71 1.17 8.15
8/17/2021 2:15:00 AM 18.48 65.264 0.307 7.71 1.05 8.16
8/17/2021 2:30:00 AM 18.46 65.228 0.307 7.71 0.99 8.17
8/17/2021 2:45:00 AM 18.44 65.192 0.307 7.72 1.09 8.18
8/17/2021 3:00:00 AM 18.42 65.156 0.307 7.72 1.17 8.18
8/17/2021 3:15:00 AM 18.39 65.102 0.307 7.72 1.18 8.19
8/17/2021 3:30:00 AM 18.37 65.066 0.307 7.71 0.97 8.2
8/17/2021 3:45:00 AM 18.35 65.03 0.306 7.71 1 8.22
8/17/2021 4:00:00 AM 18.33 64.994 0.306 7.72 1.25 8.22
8/17/2021 4:15:00 AM 18.33 64.994 0.306 7.72 1.05 8.23
8/17/2021 4:30:00 AM 18.31 64.958 0.306 7.72 1.06 8.24
8/17/2021 4:45:00 AM 18.3 64.94 0.306 7.72 1.04 8.24
8/17/2021 5:00:00 AM 18.29 64.922 0.306 7.73 1.06 8.26
8/17/2021 5:15:00 AM 18.29 64.922 0.306 7.72 1.09 8.26
8/17/2021 5:30:00 AM 18.28 64.904 0.306 7.72 0.96 8.27
8/17/2021 5:45:00 AM 18.27 64.886 0.306 7.72 1.07 8.27
8/17/2021 6:00:00 AM 18.26 64.868 0.307 7.72 1.07 8.25
8/17/2021 6:15:00 AM 18.26 64.868 0.306 7.72 1.51 8.27
8/17/2021 6:30:00 AM 18.27 64.886 0.306 7.73 0.91 8.29
8/17/2021 6:45:00 AM 18.27 64.886 0.306 7.73 1 8.38
8/17/2021 7:00:00 AM 18.28 64.904 0.306 7.75 0.8 8.48
8/17/2021 7:15:00 AM 18.3 64.94 0.306 7.78 0.76 8.63
8/17/2021 7:30:00 AM 18.33 64.994 0.305 7.79 0.75 8.76
8/17/2021 7:45:00 AM 18.35 65.03 0.305 7.81 0.74 8.84
8/17/2021 8:00:00 AM 18.35 65.03 0.304 7.81 0.7 8.82
8/17/2021 8:15:00 AM 18.38 65.084 0.296 7.81 0.97 8.82
8/17/2021 8:30:00 AM 18.38 65.084 0.295 7.8 0.89 8.75
8/17/2021 8:45:00 AM 18.4 65.12 0.293 7.82 1.65 8.83
8/17/2021 9:00:00 AM 18.41 65.138 0.288 7.82 1.75 8.96
8/17/2021 9:15:00 AM 18.47 65.246 0.277 7.84 2.78 9.07
8/17/2021 9:30:00 AM 18.6 65.48 0.26 7.82 4.85 9.08
8/17/2021 9:45:00 AM 18.71 65.67799 0.246 7.83 4.95 9.17
8/17/2021 10:00:00 AM 18.82 65.876 0.238 7.85 5.61 9.29
8/17/2021 10:15:00 AM 18.9 66.02 0.236 7.89 7.06 9.52
8/17/2021 10:30:00 AM 18.92 66.056 0.238 7.87 5.01 9.42
8/17/2021 10:45:00 AM 18.94 66.092 0.238 7.89 5.02 9.42
8/17/2021 11:00:00 AM 18.95 66.11 0.242 7.94 5.25 9.59
8/17/2021 11:15:00 AM 18.89 66.002 0.247 7.95 6.22 9.58
8/17/2021 11:30:00 AM 18.89 66.002 0.241 7.97 11.43 9.58
8/17/2021 11:45:00 AM 18.98 66.164 0.225 7.91 20.37 9.46
8/17/2021 12:00:00 PM 19.21 66.578 0.202 7.87 45.58 9.35
8/17/2021 12:15:00 PM 19.34 66.812 0.192 7.86 28.98 9.38
8/17/2021 12:30:00 PM 19.13 66.434 0.206 7.86 27.78 9.45
8/17/2021 12:45:00 PM 18.97 66.146 0.212 7.9 35.37 9.61
8/17/2021 1:00:00 PM 18.85 65.93 0.211 7.88 50.5 9.57
8/17/2021 1:15:00 PM 18.9 66.02 0.2 7.9 60.66 9.61
8/17/2021 1:30:00 PM 19.01 66.218 0.194 7.89 70.02 9.57
8/17/2021 1:45:00 PM 19.07 66.326 0.189 7.87 75.93 9.5
8/17/2021 2:00:00 PM 19.15 66.47 0.186 7.87 66.92 9.49
8/17/2021 2:15:00 PM 19.24 66.632 0.185 7.87 64.24 9.48
8/17/2021 2:30:00 PM 19.38 66.884 0.183 7.87 65.37 9.47
8/17/2021 2:45:00 PM 19.45 67.01 0.18 7.87 64.37 9.44
8/17/2021 3:00:00 PM 19.65 67.37 0.179 7.87 61.17 9.46
8/17/2021 3:15:00 PM 19.75 67.55 0.177 7.87 56.88 9.44
8/17/2021 3:30:00 PM 19.9 67.82 0.175 7.87 49.84 9.46
8/17/2021 3:45:00 PM 19.99 67.982 0.173 7.88 46.05 9.46
8/17/2021 4:00:00 PM 19.99 67.982 0.171 7.88 42.46 9.42
8/17/2021 4:15:00 PM 20.03 68.054 0.171 7.87 39.14 9.42
8/17/2021 4:30:00 PM 20.07 68.126 0.171 7.86 35.04 9.4
8/17/2021 4:45:00 PM 20.11 68.198 0.171 7.85 31.94 9.36
8/17/2021 5:00:00 PM 20.17 68.306 0.17 7.85 29.54 9.34
8/17/2021 5:15:00 PM 20.15 68.27 0.169 7.83 27.25 9.31
8/17/2021 5:30:00 PM 20.13 68.234 0.169 7.82 24.92 9.3
8/17/2021 5:45:00 PM 20.09 68.162 0.168 7.81 23.12 9.27
8/17/2021 6:00:00 PM 20.04 68.07201 0.167 7.81 21.2 9.25
8/17/2021 6:15:00 PM 19.99 67.982 0.167 7.78 21.92 9.18
8/17/2021 6:30:00 PM 19.94 67.892 0.167 7.76 23.46 9.13
8/17/2021 6:45:00 PM 19.89 67.802 0.167 7.74 24.58 9.09
8/17/2021 7:00:00 PM 19.84 67.712 0.167 7.73 22.99 9.06
8/17/2021 7:15:00 PM 19.79 67.622 0.167 7.72 19.15 9.05
8/17/2021 7:30:00 PM 19.73 67.514 0.168 7.72 17.39 9.04
8/17/2021 7:45:00 PM 19.68 67.424 0.169 7.72 15.62 9.02
8/17/2021 8:00:00 PM 19.63 67.334 0.17 7.7 14.71 9.02
8/17/2021 8:15:00 PM 19.59 67.262 0.171 7.69 13.85 9.01
8/17/2021 8:30:00 PM 19.54 67.172 0.172 7.68 13.43 9.01
8/17/2021 8:45:00 PM 19.49 67.082 0.173 7.69 12.68 9
8/17/2021 9:00:00 PM 19.45 67.01 0.174 7.68 12.28 9.01
8/17/2021 9:15:00 PM 19.41 66.938 0.175 7.68 12.01 9.01
8/17/2021 9:30:00 PM 19.38 66.884 0.176 7.67 11.69 9.01
8/17/2021 9:45:00 PM 19.36 66.848 0.177 7.68 11.78 9.01
8/17/2021 10:00:00 PM 19.33 66.794 0.178 7.68 11.01 9.02
8/17/2021 10:15:00 PM 19.3 66.74 0.179 7.69 11.85 9.02
8/17/2021 10:30:00 PM 19.27 66.686 0.18 7.69 11.4 9.02
8/17/2021 10:45:00 PM 19.23 66.614 0.181 7.7 10.38 9.03
8/17/2021 11:00:00 PM 19.2 66.56 0.182 7.69 9.54 9.03
8/17/2021 11:15:00 PM 19.17 66.506 0.183 7.7 9.08 9.03
8/17/2021 11:30:00 PM 19.12 66.416 0.185 7.7 9.39 9.05
8/17/2021 11:45:00 PM 18.94 66.092 0.202 7.73 15.56 9.18
8/18/2021 12:00:00 AM 18.8 65.84 0.199 7.74 35.33 9.27
8/18/2021 12:15:00 AM 18.79 65.82201 0.188 7.72 58.67 9.28
8/18/2021 12:30:00 AM 18.84 65.912 0.185 7.7 49.06 9.26
8/18/2021 12:45:00 AM 18.85 65.93 0.179 7.7 36.62 9.27
8/18/2021 1:00:00 AM 18.85 65.93 0.176 7.69 32.02 9.28
8/18/2021 1:15:00 AM 18.84 65.912 0.177 7.71 27.66 9.29
8/18/2021 1:30:00 AM 18.83 65.894 0.179 7.71 27.12 9.29
8/18/2021 1:45:00 AM 18.82 65.876 0.181 7.7 29.3 9.28
8/18/2021 2:00:00 AM 18.77 65.786 0.182 7.72 32.86 9.29
8/18/2021 2:15:00 AM 18.74 65.732 0.18 7.71 35.2 9.28
8/18/2021 2:30:00 AM 18.72 65.696 0.177 7.7 36.65 9.27
8/18/2021 2:45:00 AM 18.72 65.696 0.175 7.69 34 9.26
8/18/2021 3:00:00 AM 18.72 65.696 0.176 7.69 30.09 9.25
8/18/2021 3:15:00 AM 18.72 65.696 0.177 7.68 26.99 9.24
8/18/2021 3:30:00 AM 18.71 65.67799 0.178 7.68 23.95 9.23
8/18/2021 3:45:00 AM 18.71 65.67799 0.179 7.67 21.47 9.23
8/18/2021 4:00:00 AM 18.71 65.67799 0.18 7.68 19.61 9.22
8/18/2021 4:15:00 AM 18.71 65.67799 0.181 7.67 17.19 9.21
8/18/2021 4:30:00 AM 18.71 65.67799 0.182 7.68 15.26 9.2
8/18/2021 4:45:00 AM 18.71 65.67799 0.183 7.68 14.31 9.2
8/18/2021 5:00:00 AM 18.71 65.67799 0.183 7.68 12.95 9.2
8/18/2021 5:15:00 AM 18.71 65.67799 0.184 7.69 11.56 9.2
8/18/2021 5:30:00 AM 18.71 65.67799 0.184 7.69 10.87 9.19
8/18/2021 5:45:00 AM 18.72 65.696 0.185 7.69 10.35 9.19
8/18/2021 6:00:00 AM 18.72 65.696 0.185 7.69 9.8 9.18
8/18/2021 6:15:00 AM 18.73 65.714 0.185 7.68 9.6 9.17
8/18/2021 6:30:00 AM 18.71 65.67799 0.186 7.69 9.18 9.18
8/18/2021 6:45:00 AM 18.73 65.714 0.185 7.69 8.86 9.21
8/18/2021 7:00:00 AM 18.74 65.732 0.184 7.7 9.33 9.22
8/18/2021 7:15:00 AM 18.88 65.984 0.176 7.71 10.97 9.22
8/18/2021 7:30:00 AM 18.88 65.984 0.177 7.71 10.63 9.24
8/18/2021 7:45:00 AM 18.84 65.912 0.18 7.72 11.08 9.28
8/18/2021 8:00:00 AM 18.76 65.768 0.182 7.74 12.97 9.31
8/18/2021 8:15:00 AM 18.71 65.67799 0.181 7.74 26.7 9.38
8/18/2021 8:30:00 AM 18.75 65.75 0.176 7.79 54.65 9.42
8/18/2021 8:45:00 AM 18.9 66.02 0.16 7.75 94.98 9.42
8/18/2021 9:00:00 AM 18.9 66.02 0.153 7.76 109.79 9.43
8/18/2021 9:15:00 AM 18.86 65.948 0.15 7.72 165.21 9.45
8/18/2021 9:30:00 AM 18.89 66.002 0.147 7.76 222.49 9.45
8/18/2021 9:45:00 AM 18.95 66.11 0.14 7.79 252.97 9.45
8/18/2021 10:00:00 AM 18.99 66.182 0.134 7.73 246.43 9.44
8/18/2021 10:15:00 AM 19.02 66.236 0.131 7.69 241.23 9.44
8/18/2021 10:30:00 AM 19.04 66.272 0.127 7.7 247.41 9.43
8/18/2021 10:45:00 AM 19.06 66.308 0.124 7.68 233.28 9.41
8/18/2021 11:00:00 AM 19.1 66.38 0.122 7.65 198.61 9.39
8/18/2021 11:15:00 AM 19.14 66.452 0.12 7.66 161.72 9.38
8/18/2021 11:30:00 AM 19.17 66.506 0.119 7.64 138.72 9.38
8/18/2021 11:45:00 AM 19.18 66.524 0.117 7.63 136.57 9.36
8/18/2021 12:00:00 PM 19.22 66.596 0.116 7.63 130.53 9.35
8/18/2021 12:15:00 PM 19.25 66.65 0.116 7.62 128.54 9.33
8/18/2021 12:30:00 PM 19.29 66.722 0.115 7.58 106.84 9.32
8/18/2021 12:45:00 PM 19.33 66.794 0.116 7.61 106.6 9.31
8/18/2021 1:00:00 PM 19.39 66.902 0.117 7.61 100.73 9.31
8/18/2021 1:15:00 PM 19.43 66.974 0.118 7.62 93.59 9.3
8/18/2021 1:30:00 PM 19.46 67.028 0.119 7.61 81.44 9.29
8/18/2021 1:45:00 PM 19.5 67.1 0.12 7.6 72.32 9.28
8/18/2021 2:00:00 PM 19.52 67.136 0.122 7.59 59.16 9.28
8/18/2021 2:15:00 PM 19.53 67.154 0.123 7.61 52.14 9.27
8/18/2021 2:30:00 PM 19.54 67.172 0.124 7.61 47.72 9.27
8/18/2021 2:45:00 PM 19.55 67.19 0.126 7.59 42.25 9.27
8/18/2021 3:00:00 PM 19.55 67.19 0.127 7.61 51.61 9.26
8/18/2021 3:15:00 PM 19.56 67.208 0.128 7.6 36.35 9.26
8/18/2021 3:30:00 PM 19.56 67.208 0.129 7.61 34.28 9.26
8/18/2021 3:45:00 PM 19.56 67.208 0.13 7.61 33.44 9.27
8/18/2021 4:00:00 PM 19.56 67.208 0.132 7.62 31.43 9.26
8/18/2021 4:15:00 PM 19.56 67.208 0.133 7.61 31.02 9.26
8/18/2021 4:30:00 PM 19.57 67.226 0.134 7.62 29 9.25
8/18/2021 4:45:00 PM 19.57 67.226 0.135 7.62 27.55 9.25
8/18/2021 5:00:00 PM 19.56 67.208 0.136 7.62 26.32 9.24
8/18/2021 5:15:00 PM 19.54 67.172 0.137 7.62 26.12 9.23
8/18/2021 5:30:00 PM 19.53 67.154 0.138 7.62 24.79 9.22
8/18/2021 5:45:00 PM 19.51 67.118 0.138 7.6 24.92 9.22
8/18/2021 6:00:00 PM 19.49 67.082 0.139 7.61 25.65 9.21
8/18/2021 6:15:00 PM 19.48 67.064 0.139 7.6 24.62 9.21
8/18/2021 6:30:00 PM 19.51 67.118 0.139 7.61 25.1 9.19
8/18/2021 6:45:00 PM 19.45 67.01 0.141 7.6 23.57 9.19
8/18/2021 7:00:00 PM 19.42 66.956 0.141 7.61 23.78 9.19
8/18/2021 7:15:00 PM 19.39 66.902 0.143 7.6 22.55 9.18
8/18/2021 7:30:00 PM 19.36 66.848 0.144 7.61 21.99 9.18
8/18/2021 7:45:00 PM 19.32 66.776 0.145 7.6 21.25 9.19
8/18/2021 8:00:00 PM 19.29 66.722 0.146 7.62 21.84 9.19
8/18/2021 8:15:00 PM 19.26 66.668 0.147 7.62 20.68 9.2
8/18/2021 8:30:00 PM 19.24 66.632 0.147 7.62 20.26 9.21
8/18/2021 8:45:00 PM 19.23 66.614 0.147 7.63 20.49 9.22
8/18/2021 9:00:00 PM 19.24 66.632 0.146 7.61 22.05 9.23
8/18/2021 9:15:00 PM 19.25 66.65 0.145 7.63 22.43 9.23
8/18/2021 9:30:00 PM 19.27 66.686 0.144 7.64 26.08 9.24
8/18/2021 9:45:00 PM 19.26 66.668 0.145 7.65 27.29 9.24
8/18/2021 10:00:00 PM 19.26 66.668 0.145 7.67 32.29 9.27
8/18/2021 10:15:00 PM 19.28 66.704 0.143 7.69 46.09 9.3
8/18/2021 10:30:00 PM 19.34 66.812 0.138 7.69 73.82 9.32
8/18/2021 10:45:00 PM 19.39 66.902 0.132 7.67 132.42 9.33
8/18/2021 11:00:00 PM 19.43 66.974 0.068 7.74 172.17 9.33
8/18/2021 11:15:00 PM 19.47 67.046 0.119 7.71 217.07 9.3
8/18/2021 11:30:00 PM 19.48 67.064 0.115 7.68 265.11 9.29
8/18/2021 11:45:00 PM 19.48 67.064 0.113 7.66 263.04 9.28
8/19/2021 12:00:00 AM 19.51 67.118 0.11 7.63 262.05 9.27
8/19/2021 12:15:00 AM 19.52 67.136 0.106 7.61 278.96 9.27
8/19/2021 12:30:00 AM 19.52 67.136 0.104 7.63 335.17 9.26
8/19/2021 12:45:00 AM 19.54 67.172 0.101 7.59 493.76 9.26
8/19/2021 1:00:00 AM 19.54 67.172 0.097 7.58 514.08 9.25
8/19/2021 1:15:00 AM 19.53 67.154 0.093 7.59 507.04 9.25
8/19/2021 1:30:00 AM 19.51 67.118 0.09 7.57 547.01 9.24
8/19/2021 1:45:00 AM 19.5 67.1 0.088 7.54 602.13 9.22
8/19/2021 2:00:00 AM 19.49 67.082 0.086 7.45 676.21 9.21
8/19/2021 2:15:00 AM 19.48 67.064 0.085 7.48 503.37 9.2
8/19/2021 2:30:00 AM 19.46 67.028 0.085 7.49 440.77 9.2
8/19/2021 2:45:00 AM 19.42 66.956 0.085 7.49 444.98 9.19
8/19/2021 3:00:00 AM 19.39 66.902 0.086 7.46 602.16 9.18
8/19/2021 3:15:00 AM 19.36 66.848 0.082 7.4 4710.95 9.17
8/19/2021 3:30:00 AM 19.33 66.794 0.076 7.41 2625.42 9.15
8/19/2021 3:45:00 AM 19.3 66.74 0.076 7.42 280.45 9.14
8/19/2021 4:00:00 AM 19.28 66.704 0.071 7.39 158.78 9.13
8/19/2021 4:15:00 AM 19.26 66.668 0.059 7.38 140.48 9.11
8/19/2021 4:30:00 AM 19.24 66.632 0.06 7.38 122.3 9.1
8/19/2021 4:45:00 AM 19.23 66.614 0.06 7.36 107.15 9.09
8/19/2021 5:00:00 AM 19.21 66.578 0.058 7.33 112.91 9.07
8/19/2021 5:15:00 AM 19.19 66.542 0.056 7.33 108.77 9.07
8/19/2021 5:30:00 AM 19.17 66.506 0.054 7.34 112.19 9.07
8/19/2021 5:45:00 AM 19.16 66.488 0.052 7.34 104.95 9.07
8/19/2021 6:00:00 AM 19.14 66.452 0.092 7.34 207.26 9.07
8/19/2021 6:15:00 AM 19.12 66.416 0.093 7.33 410.84 9.07
8/19/2021 6:30:00 AM 19.1 66.38 0.094 7.3 150.14 9.08
8/19/2021 6:45:00 AM 19.08 66.344 0.095 7.27 124.75 9.08
8/19/2021 7:00:00 AM 19.06 66.308 0.095 7.33 107.58 9.08
8/19/2021 7:15:00 AM 19.05 66.29 0.096 7.34 100.04 9.09
8/19/2021 7:30:00 AM 19.04 66.272 0.097 7.33 105.89 9.1
8/19/2021 7:45:00 AM 19.02 66.236 0.098 7.35 88.25 9.11
8/19/2021 8:00:00 AM 19.02 66.236 0.098 7.35 86.9 9.12
8/19/2021 8:15:00 AM 19.01 66.218 0.099 7.39 80.06 9.13
8/19/2021 8:30:00 AM 19.02 66.236 0.1 7.37 81.03 9.14
8/19/2021 8:45:00 AM 19.03 66.254 0.101 7.36 73.41 9.15
8/19/2021 9:00:00 AM 19.04 66.272 0.101 7.41 67.23 9.16
8/19/2021 9:15:00 AM 19.05 66.29 0.102 7.4 78.82 9.17
8/19/2021 9:30:00 AM 19.06 66.308 0.103 7.41 64.5 9.18
8/19/2021 9:45:00 AM 19.07 66.326 0.103 7.41 60.4 9.19
8/19/2021 10:00:00 AM 19.09 66.362 0.104 7.44 56.26 9.2
8/19/2021 10:15:00 AM 19.11 66.398 0.104 7.43 55.73 9.2
8/19/2021 10:30:00 AM 19.13 66.434 0.105 7.45 52.02 9.2
8/19/2021 10:45:00 AM 19.16 66.488 0.105 7.45 49.53 9.21
8/19/2021 11:00:00 AM 19.21 66.578 0.105 7.46 51.25 9.21
8/19/2021 11:15:00 AM 19.22 66.596 0.106 7.46 49.42 9.21
8/19/2021 11:30:00 AM 19.23 66.614 0.106 7.46 47.72 9.22
8/19/2021 11:45:00 AM 19.24 66.632 0.106 7.47 44.82 9.22
8/19/2021 12:00:00 PM 19.3 66.74 0.106 7.47 43.56 9.22
8/19/2021 12:15:00 PM 19.37 66.866 0.107 7.46 45.13 9.21
8/19/2021 12:30:00 PM 19.41 66.938 0.107 7.5 39.45 9.21
8/19/2021 12:45:00 PM 19.42 66.956 0.107 7.5 37.97 9.21
8/19/2021 1:00:00 PM 19.43 66.974 0.108 7.51 37 9.21
8/19/2021 1:15:00 PM 19.44 66.992 0.108 7.5 34.95 9.21
8/19/2021 1:30:00 PM 19.44 66.992 0.109 7.48 36.46 9.21
8/19/2021 1:45:00 PM 19.45 67.01 0.109 7.49 39.57 9.21
8/19/2021 2:00:00 PM 19.46 67.028 0.11 7.5 32.64 9.21
8/19/2021 2:15:00 PM 19.49 67.082 0.11 7.51 32.12 9.21
8/19/2021 2:30:00 PM 19.51 67.118 0.111 7.51 31.63 9.2
8/19/2021 2:45:00 PM 19.52 67.136 0.111 7.48 32.21 9.2
8/19/2021 3:00:00 PM 19.55 67.19 0.112 7.5 29.94 9.21
8/19/2021 3:15:00 PM 19.57 67.226 0.112 7.5 29.59 9.2
8/19/2021 3:30:00 PM 19.56 67.208 0.113 7.48 28.87 9.2
8/19/2021 3:45:00 PM 19.61 67.298 0.113 7.51 29.59 9.2
8/19/2021 4:00:00 PM 19.68 67.424 0.114 7.52 29.71 9.19
8/19/2021 4:15:00 PM 19.73 67.514 0.114 7.5 30.09 9.18
8/19/2021 4:30:00 PM 19.77 67.586 0.114 7.49 29.27 9.18
8/19/2021 4:45:00 PM 19.79 67.622 0.114 7.53 29.07 9.18
8/19/2021 5:00:00 PM 19.79 67.622 0.114 7.53 27.85 9.18
8/19/2021 5:15:00 PM 19.75 67.55 0.114 7.54 29.12 9.18
8/19/2021 5:30:00 PM 19.75 67.55 0.114 7.54 26.44 9.18
8/19/2021 5:45:00 PM 19.73 67.514 0.114 7.55 24.31 9.18
8/19/2021 6:00:00 PM 19.72 67.496 0.114 7.54 26.83 9.17
8/19/2021 6:15:00 PM 19.69 67.442 0.114 7.54 26.18 9.18
8/19/2021 6:30:00 PM 19.68 67.424 0.115 7.56 22.66 9.18
8/19/2021 6:45:00 PM 19.66 67.388 0.115 7.55 21.8 9.18
8/19/2021 7:00:00 PM 19.64 67.352 0.115 7.55 21.75 9.17
8/19/2021 7:15:00 PM 19.6 67.28 0.116 7.55 21.01 9.17
8/19/2021 7:30:00 PM 19.55 67.19 0.116 7.54 20.87 9.17
8/19/2021 7:45:00 PM 19.5 67.1 0.117 7.54 20.6 9.17
8/19/2021 8:00:00 PM 19.46 67.028 0.117 7.53 20.02 9.17
8/19/2021 8:15:00 PM 19.41 66.938 0.118 7.53 19.2 9.18
8/19/2021 8:30:00 PM 19.36 66.848 0.118 7.53 19.47 9.18
8/19/2021 8:45:00 PM 19.31 66.758 0.119 7.53 19.87 9.18
8/19/2021 9:00:00 PM 19.27 66.686 0.119 7.53 19.11 9.19
8/19/2021 9:15:00 PM 19.22 66.596 0.12 7.53 19.07 9.19
8/19/2021 9:30:00 PM 19.18 66.524 0.12 7.53 18.54 9.2
8/19/2021 9:45:00 PM 19.14 66.452 0.121 7.53 18.04 9.21
8/19/2021 10:00:00 PM 19.1 66.38 0.121 7.52 19.3 9.22
8/19/2021 10:15:00 PM 19.05 66.29 0.122 7.52 18.89 9.23
8/19/2021 10:30:00 PM 19.01 66.218 0.123 7.52 19.27 9.24
8/19/2021 10:45:00 PM 18.97 66.146 0.123 7.52 18.78 9.24
8/19/2021 11:00:00 PM 18.93 66.074 0.123 7.52 17.5 9.25
8/19/2021 11:15:00 PM 18.9 66.02 0.124 7.52 17.58 9.26
8/19/2021 11:30:00 PM 18.86 65.948 0.124 7.52 17.01 9.26
8/19/2021 11:45:00 PM 18.82 65.876 0.125 7.51 16.49 9.27
8/20/2021 12:00:00 AM 18.78 65.804 0.125 7.51 16.05 9.28
8/20/2021 12:15:00 AM 18.75 65.75 0.125 7.52 15.61 9.28
8/20/2021 12:30:00 AM 18.71 65.67799 0.126 7.52 13.98 9.29
8/20/2021 12:45:00 AM 18.67 65.606 0.126 7.52 15.21 9.3
8/20/2021 1:00:00 AM 18.63 65.534 0.126 7.52 15.07 9.3
8/20/2021 1:15:00 AM 18.6 65.48 0.127 7.52 14.34 9.31
8/20/2021 1:30:00 AM 18.57 65.426 0.127 7.52 14.19 9.32
8/20/2021 1:45:00 AM 18.54 65.372 0.128 7.52 14.33 9.32
8/20/2021 2:00:00 AM 18.5 65.3 0.128 7.52 13.71 9.33
8/20/2021 2:15:00 AM 18.48 65.264 0.128 7.52 13.77 9.33
8/20/2021 2:30:00 AM 18.45 65.21 0.128 7.52 13.58 9.34
8/20/2021 2:45:00 AM 18.42 65.156 0.129 7.53 13.24 9.34
8/20/2021 3:00:00 AM 18.39 65.102 0.129 7.53 13.12 9.35
8/20/2021 3:15:00 AM 18.36 65.048 0.13 7.53 12.66 9.35
8/20/2021 3:30:00 AM 18.33 64.994 0.13 7.53 12.93 9.36
8/20/2021 3:45:00 AM 18.31 64.958 0.13 7.53 12.91 9.37
8/20/2021 4:00:00 AM 18.28 64.904 0.13 7.54 12.78 9.38
8/20/2021 4:15:00 AM 18.25 64.85 0.131 7.54 12.38 9.38
8/20/2021 4:30:00 AM 18.22 64.796 0.131 7.54 12.27 9.38
8/20/2021 4:45:00 AM 18.19 64.742 0.131 7.54 12.21 9.39
8/20/2021 5:00:00 AM 18.17 64.706 0.132 7.53 12.26 9.39
8/20/2021 5:15:00 AM 18.15 64.67 0.132 7.54 12.09 9.4
8/20/2021 5:30:00 AM 18.13 64.634 0.132 7.53 11.96 9.41
8/20/2021 5:45:00 AM 18.11 64.598 0.132 7.54 11.55 9.41
8/20/2021 6:00:00 AM 18.09 64.562 0.133 7.54 11.77 9.42
8/20/2021 6:15:00 AM 18.07 64.526 0.133 7.54 11.23 9.42
8/20/2021 6:30:00 AM 18.06 64.508 0.133 7.54 11.15 9.42
8/20/2021 6:45:00 AM 18.05 64.49 0.134 7.54 11.3 9.43
8/20/2021 7:00:00 AM 18.04 64.472 0.134 7.54 10.82 9.43
8/20/2021 7:15:00 AM 18.03 64.454 0.134 7.55 10.47 9.43
8/20/2021 7:30:00 AM 18.03 64.454 0.134 7.54 10.34 9.44
8/20/2021 7:45:00 AM 18.03 64.454 0.134 7.54 10.34 9.44
8/20/2021 8:00:00 AM 18.04 64.472 0.135 7.54 10.25 9.45
8/20/2021 8:15:00 AM 18.07 64.526 0.135 7.55 10.48 9.46
8/20/2021 8:30:00 AM 18.09 64.562 0.135 7.55 10.38 9.46
8/20/2021 8:45:00 AM 18.15 64.67 0.135 7.56 10.1 9.46
8/20/2021 9:00:00 AM 18.2 64.76 0.135 7.57 9.62 9.46
8/20/2021 9:15:00 AM 18.27 64.886 0.136 7.58 9.37 9.46
8/20/2021 9:30:00 AM 18.35 65.03 0.136 7.59 9.56 9.46
8/20/2021 9:45:00 AM 18.43 65.174 0.136 7.6 10.11 9.45
8/20/2021 10:00:00 AM 18.52 65.336 0.136 7.6 9.49 9.44
8/20/2021 10:15:00 AM 18.63 65.534 0.136 7.6 9.41 9.43
8/20/2021 10:30:00 AM 18.77 65.786 0.136 7.61 9.17 9.41
8/20/2021 10:45:00 AM 18.91 66.038 0.137 7.62 9 9.4
8/20/2021 11:00:00 AM 18.97 66.146 0.137 7.62 8.84 9.38
8/20/2021 11:15:00 AM 19.05 66.29 0.137 7.62 8.99 9.37
8/20/2021 11:30:00 AM 19.07 66.326 0.137 7.62 8.99 9.36
8/20/2021 11:45:00 AM 19.09 66.362 0.137 7.62 8.77 9.35
8/20/2021 12:00:00 PM 19.13 66.434 0.137 7.62 8.65 9.34
8/20/2021 12:15:00 PM 19.16 66.488 0.137 7.62 8.57 9.33
8/20/2021 12:30:00 PM 19.19 66.542 0.137 7.61 8.57 9.33
8/20/2021 12:45:00 PM 19.23 66.614 0.138 7.62 8.35 9.32
8/20/2021 1:00:00 PM 19.33 66.794 0.138 7.62 8.66 9.31
8/20/2021 1:15:00 PM 19.42 66.956 0.138 7.62 8.32 9.3
8/20/2021 1:30:00 PM 19.48 67.064 0.138 7.63 8.08 9.28
8/20/2021 1:45:00 PM 19.6 67.28 0.138 7.62 8.03 9.26
8/20/2021 2:00:00 PM 19.67 67.406 0.139 7.63 7.94 9.25
8/20/2021 2:15:00 PM 19.72 67.496 0.139 7.63 8.18 9.23
8/20/2021 2:30:00 PM 19.78 67.604 0.139 7.63 8.34 9.22
8/20/2021 2:45:00 PM 19.85 67.73 0.139 7.63 8.23 9.2
8/20/2021 3:00:00 PM 19.9 67.82 0.139 7.63 8.29 9.19
8/20/2021 3:15:00 PM 19.99 67.982 0.14 7.63 8.19 9.18
8/20/2021 3:30:00 PM 20.05 68.09 0.14 7.64 8.46 9.17
8/20/2021 3:45:00 PM 20.13 68.234 0.14 7.64 8.1 9.17
8/20/2021 4:00:00 PM 20.21 68.378 0.14 7.64 7.94 9.15
8/20/2021 4:15:00 PM 20.22 68.396 0.141 7.65 7.87 9.14
8/20/2021 4:30:00 PM 20.23 68.414 0.141 7.64 7.8 9.12
8/20/2021 4:45:00 PM 20.23 68.414 0.141 7.63 7.63 9.12
8/20/2021 5:00:00 PM 20.2 68.36 0.141 7.63 7.62 9.11
8/20/2021 5:15:00 PM 20.19 68.342 0.142 7.63 7.68 9.1
8/20/2021 5:30:00 PM 20.16 68.288 0.142 7.63 7.4 9.1
8/20/2021 5:45:00 PM 20.14 68.252 0.142 7.63 7.34 9.09
8/20/2021 6:00:00 PM 20.1 68.18 0.143 7.64 7.34 9.09
8/20/2021 6:15:00 PM 20.05 68.09 0.143 7.63 7.45 9.09
8/20/2021 6:30:00 PM 20 68 0.143 7.62 7.55 9.09
8/20/2021 6:45:00 PM 19.95 67.91 0.144 7.62 7.56 9.09
8/20/2021 7:00:00 PM 19.9 67.82 0.144 7.62 7.41 9.1
8/20/2021 7:15:00 PM 19.84 67.712 0.144 7.61 7.22 9.1
8/20/2021 7:30:00 PM 19.77 67.586 0.144 7.61 7.19 9.1
8/20/2021 7:45:00 PM 19.71 67.478 0.145 7.6 7.44 9.1
8/20/2021 8:00:00 PM 19.65 67.37 0.145 7.6 7.29 9.11
8/20/2021 8:15:00 PM 19.6 67.28 0.145 7.6 7.22 9.11
8/20/2021 8:30:00 PM 19.54 67.172 0.146 7.59 7.22 9.12
8/20/2021 8:45:00 PM 19.49 67.082 0.146 7.59 7.26 9.12
8/20/2021 9:00:00 PM 19.44 66.992 0.147 7.59 7.24 9.13
8/20/2021 9:15:00 PM 19.39 66.902 0.147 7.59 7.44 9.14
8/20/2021 9:30:00 PM 19.35 66.83 0.147 7.59 7.62 9.16
8/20/2021 9:45:00 PM 19.31 66.758 0.147 7.59 7.43 9.16
8/20/2021 10:00:00 PM 19.27 66.686 0.147 7.59 7.45 9.17
8/20/2021 10:15:00 PM 19.23 66.614 0.148 7.59 7.55 9.18
8/20/2021 10:30:00 PM 19.19 66.542 0.148 7.59 7.28 9.19
8/20/2021 10:45:00 PM 19.14 66.452 0.148 7.59 6.96 9.2
8/20/2021 11:00:00 PM 19.11 66.398 0.148 7.58 7.12 9.21
8/20/2021 11:15:00 PM 19.07 66.326 0.149 7.58 6.98 9.21
8/20/2021 11:30:00 PM 19.04 66.272 0.149 7.59 7.23 9.22
8/20/2021 11:45:00 PM 19.01 66.218 0.149 7.58 6.92 9.22
8/21/2021 12:00:00 AM 18.97 66.146 0.149 7.58 6.96 9.23
8/21/2021 12:15:00 AM 18.94 66.092 0.149 7.58 7 9.23
8/21/2021 12:30:00 AM 18.91 66.038 0.149 7.58 6.82 9.24
8/21/2021 12:45:00 AM 18.88 65.984 0.149 7.57 6.66 9.25
8/21/2021 1:00:00 AM 18.85 65.93 0.15 7.57 6.87 9.25
8/21/2021 1:15:00 AM 18.82 65.876 0.15 7.57 6.98 9.26
8/21/2021 1:30:00 AM 18.8 65.84 0.15 7.58 6.75 9.27
8/21/2021 1:45:00 AM 18.77 65.786 0.15 7.57 6.81 9.27
8/21/2021 2:00:00 AM 18.75 65.75 0.15 7.57 6.94 9.27
8/21/2021 2:15:00 AM 18.73 65.714 0.15 7.57 6.67 9.28
8/21/2021 2:30:00 AM 18.71 65.67799 0.15 7.58 6.84 9.29
8/21/2021 2:45:00 AM 18.7 65.66 0.149 7.59 7.12 9.3
8/21/2021 3:00:00 AM 18.72 65.696 0.148 7.6 8.92 9.29
8/21/2021 3:15:00 AM 18.69 65.642 0.147 7.61 8.65 9.29
8/21/2021 3:30:00 AM 18.65 65.57 0.147 7.61 9.25 9.3
8/21/2021 3:45:00 AM 18.62 65.516 0.147 7.62 10.63 9.31
8/21/2021 4:00:00 AM 18.59 65.462 0.147 7.64 12.91 9.33
8/21/2021 4:15:00 AM 18.58 65.444 0.144 7.65 15.27 9.36
8/21/2021 4:30:00 AM 18.58 65.444 0.14 7.65 15.87 9.37
8/21/2021 4:45:00 AM 18.57 65.426 0.137 7.65 18.34 9.39
8/21/2021 5:00:00 AM 18.55 65.39 0.135 7.65 20.65 9.4
8/21/2021 5:15:00 AM 18.53 65.354 0.134 7.65 23 9.4
8/21/2021 5:30:00 AM 18.52 65.336 0.133 7.64 22.45 9.4
8/21/2021 5:45:00 AM 18.53 65.354 0.132 7.64 21.54 9.4
8/21/2021 6:00:00 AM 18.53 65.354 0.13 7.65 19.99 9.4
8/21/2021 6:15:00 AM 18.52 65.336 0.129 7.63 20.62 9.4
8/21/2021 6:30:00 AM 18.51 65.318 0.128 7.62 20.59 9.4
8/21/2021 6:45:00 AM 18.51 65.318 0.127 7.61 20.52 9.39
8/21/2021 7:00:00 AM 18.5 65.3 0.127 7.62 19.55 9.39
8/21/2021 7:15:00 AM 18.49 65.282 0.126 7.61 18.91 9.4
8/21/2021 7:30:00 AM 18.48 65.264 0.126 7.6 18.27 9.4
8/21/2021 7:45:00 AM 18.48 65.264 0.125 7.6 17.47 9.4
8/21/2021 8:00:00 AM 18.51 65.318 0.125 7.6 16.59 9.41
8/21/2021 8:15:00 AM 18.54 65.372 0.125 7.61 15.67 9.41
8/21/2021 8:30:00 AM 18.58 65.444 0.126 7.61 15.28 9.41
8/21/2021 8:45:00 AM 18.6 65.48 0.126 7.62 14.87 9.41
8/21/2021 9:00:00 AM 18.62 65.516 0.126 7.62 14.61 9.41
8/21/2021 9:15:00 AM 18.65 65.57 0.126 7.62 13.7 9.4
8/21/2021 9:30:00 AM 18.68 65.624 0.127 7.62 12.89 9.4
8/21/2021 9:45:00 AM 18.71 65.67799 0.127 7.62 12.46 9.4
8/21/2021 10:00:00 AM 18.77 65.786 0.128 7.62 11.73 9.4
8/21/2021 10:15:00 AM 18.8 65.84 0.128 7.63 11.33 9.39
8/21/2021 10:30:00 AM 18.82 65.876 0.129 7.63 10.77 9.38
8/21/2021 10:45:00 AM 18.83 65.894 0.129 7.63 10.48 9.37
8/21/2021 11:00:00 AM 18.91 66.038 0.13 7.63 10.24 9.36
8/21/2021 11:15:00 AM 18.98 66.164 0.13 7.63 10.22 9.36
8/21/2021 11:30:00 AM 19.06 66.308 0.131 7.64 9.86 9.36
8/21/2021 11:45:00 AM 19.2 66.56 0.131 7.65 9.51 9.35
8/21/2021 12:00:00 PM 19.36 66.848 0.131 7.65 9.7 9.34
8/21/2021 12:15:00 PM 19.49 67.082 0.132 7.66 9.21 9.32
8/21/2021 12:30:00 PM 19.57 67.226 0.132 7.67 8.84 9.3
8/21/2021 12:45:00 PM 19.61 67.298 0.132 7.67 8.52 9.28
8/21/2021 1:00:00 PM 19.68 67.424 0.133 7.67 8.62 9.26
8/21/2021 1:15:00 PM 19.79 67.622 0.133 7.67 8.41 9.25
8/21/2021 1:30:00 PM 19.87 67.766 0.134 7.67 8.4 9.24
8/21/2021 1:45:00 PM 19.86 67.748 0.134 7.67 8.15 9.22
8/21/2021 2:00:00 PM 19.92 67.856 0.134 7.67 8.2 9.2
8/21/2021 2:15:00 PM 19.95 67.91 0.134 7.67 8.18 9.19
8/21/2021 2:30:00 PM 19.9 67.82 0.133 7.68 281.28 9.19
8/21/2021 2:45:00 PM 19.98 67.964 0.132 7.67 322.94 9.16
8/21/2021 3:00:00 PM 20.05 68.09 0.134 7.68 11.82 9.18
8/21/2021 3:15:00 PM 20.01 68.018 0.135 7.68 11.01 9.2
8/21/2021 3:30:00 PM 19.99 67.982 0.135 7.68 11.65 9.19
8/21/2021 3:45:00 PM 20.03 68.054 0.135 7.69 12.37 9.2
8/21/2021 4:00:00 PM 19.99 67.982 0.135 7.7 12.5 9.2
8/21/2021 4:15:00 PM 19.97 67.946 0.133 7.69 13.16 9.2
8/21/2021 4:30:00 PM 19.96 67.92799 0.132 7.68 12.73 9.2
8/21/2021 4:45:00 PM 19.97 67.946 0.132 7.68 11.76 9.2
8/21/2021 5:00:00 PM 20.02 68.036 0.133 7.68 10.92 9.2
8/21/2021 5:15:00 PM 20.04 68.07201 0.133 7.69 10.42 9.19
8/21/2021 5:30:00 PM 20.05 68.09 0.134 7.7 9.28 9.18
8/21/2021 5:45:00 PM 20.1 68.18 0.134 7.69 9.02 9.18
8/21/2021 6:00:00 PM 20.12 68.216 0.134 7.69 8.59 9.16
8/21/2021 6:15:00 PM 20.1 68.18 0.135 7.69 8.41 9.17
8/21/2021 6:30:00 PM 20.05 68.09 0.135 7.69 8.23 9.16
8/21/2021 6:45:00 PM 20 68 0.135 7.68 7.87 9.16
8/21/2021 7:00:00 PM 19.96 67.92799 0.135 7.68 7.53 9.16
8/21/2021 7:15:00 PM 19.92 67.856 0.136 7.67 7.51 9.16
8/21/2021 7:30:00 PM 19.87 67.766 0.136 7.67 7.6 9.15
8/21/2021 7:45:00 PM 19.82 67.676 0.137 7.66 7.09 9.15
8/21/2021 8:00:00 PM 19.76 67.568 0.137 7.64 7.06 9.15
8/21/2021 8:15:00 PM 19.7 67.46 0.138 7.65 11.75 9.15
8/21/2021 8:30:00 PM 19.65 67.37 0.138 7.63 7.46 9.14
8/21/2021 8:45:00 PM 19.59 67.262 0.138 7.64 6.83 9.15
8/21/2021 9:00:00 PM 19.53 67.154 0.139 7.63 7 9.15
8/21/2021 9:15:00 PM 19.47 67.046 0.139 7.62 6.86 9.16
8/21/2021 9:30:00 PM 19.41 66.938 0.14 7.62 7 9.17
8/21/2021 9:45:00 PM 19.36 66.848 0.14 7.62 7 9.17
8/21/2021 10:00:00 PM 19.3 66.74 0.14 7.62 6.93 9.18
8/21/2021 10:15:00 PM 19.25 66.65 0.141 7.62 6.83 9.19
8/21/2021 10:30:00 PM 19.2 66.56 0.141 7.62 6.88 9.19
8/21/2021 10:45:00 PM 19.16 66.488 0.142 7.62 6.82 9.2
8/21/2021 11:00:00 PM 19.11 66.398 0.142 7.62 6.97 9.21
8/21/2021 11:15:00 PM 19.06 66.308 0.142 7.62 6.68 9.23
8/21/2021 11:30:00 PM 19.01 66.218 0.142 7.62 6.66 9.24
8/21/2021 11:45:00 PM 18.96 66.128 0.143 7.62 6.62 9.24
8/22/2021 12:00:00 AM 18.91 66.038 0.143 7.62 6.72 9.25
8/22/2021 12:15:00 AM 18.87 65.966 0.144 7.62 6.56 9.26
8/22/2021 12:30:00 AM 18.82 65.876 0.144 7.62 6.53 9.27
8/22/2021 12:45:00 AM 18.78 65.804 0.144 7.62 6.65 9.28
8/22/2021 1:00:00 AM 18.74 65.732 0.144 7.62 6.5 9.28
8/22/2021 1:15:00 AM 18.7 65.66 0.145 7.62 6.69 9.29
8/22/2021 1:30:00 AM 18.67 65.606 0.145 7.62 6.56 9.3
8/22/2021 1:45:00 AM 18.63 65.534 0.145 7.62 6.66 9.3
8/22/2021 2:00:00 AM 18.6 65.48 0.145 7.63 6.41 9.31
8/22/2021 2:15:00 AM 18.57 65.426 0.146 7.63 6.48 9.31
8/22/2021 2:30:00 AM 18.54 65.372 0.146 7.62 6.53 9.32
8/22/2021 2:45:00 AM 18.5 65.3 0.146 7.62 6.33 9.33
8/22/2021 3:00:00 AM 18.47 65.246 0.146 7.62 6.21 9.33
8/22/2021 3:15:00 AM 18.43 65.174 0.146 7.62 6.14 9.34
8/22/2021 3:30:00 AM 18.4 65.12 0.147 7.62 6.17 9.34
8/22/2021 3:45:00 AM 18.37 65.066 0.147 7.62 11.03 9.34
8/22/2021 4:00:00 AM 18.33 64.994 0.147 7.62 11.45 9.36
8/22/2021 4:15:00 AM 18.3 64.94 0.147 7.62 12.91 9.36
8/22/2021 4:30:00 AM 18.27 64.886 0.147 7.62 13.96 9.37
8/22/2021 4:45:00 AM 18.24 64.832 0.148 7.61 15.13 9.38
8/22/2021 5:00:00 AM 18.2 64.76 0.148 7.61 13.59 9.38
8/22/2021 5:15:00 AM 18.17 64.706 0.148 7.61 19.27 9.39
8/22/2021 5:30:00 AM 18.14 64.652 0.148 7.61 17.75 9.4
8/22/2021 5:45:00 AM 18.11 64.598 0.148 7.61 5.91 9.4
8/22/2021 6:00:00 AM 18.08 64.544 0.148 7.62 8.29 9.41
8/22/2021 6:15:00 AM 18.05 64.49 0.149 7.61 10.17 9.41
8/22/2021 6:30:00 AM 18.02 64.436 0.149 7.61 5.72 9.42
8/22/2021 6:45:00 AM 17.99 64.382 0.149 7.62 5.52 9.43
8/22/2021 7:00:00 AM 17.97 64.346 0.149 7.61 5.43 9.44
8/22/2021 7:15:00 AM 17.96 64.328 0.149 7.62 5.84 9.45
8/22/2021 7:30:00 AM 17.96 64.328 0.15 7.62 5.24 9.46
8/22/2021 7:45:00 AM 17.97 64.346 0.15 7.62 5.44 9.47
8/22/2021 8:00:00 AM 17.99 64.382 0.15 7.63 5.24 9.48
8/22/2021 8:15:00 AM 18.02 64.436 0.15 7.64 14.92 9.48
8/22/2021 8:30:00 AM 18.07 64.526 0.15 7.63 404.03 9.48
8/22/2021 8:45:00 AM 18.12 64.616 0.15 7.64 27.43 9.49
8/22/2021 9:00:00 AM 18.17 64.706 0.15 7.64 34.46 9.48
8/22/2021 9:15:00 AM 18.26 64.868 0.15 7.65 10.21 9.48
8/22/2021 9:30:00 AM 18.36 65.048 0.151 7.66 58.25 9.47
8/22/2021 9:45:00 AM 18.4 65.12 0.151 7.67 11.31 9.46
8/22/2021 10:00:00 AM 18.51 65.318 0.151 7.67 21.88 9.45
8/22/2021 10:15:00 AM 18.65 65.57 0.151 7.67 19.95 9.44
8/22/2021 10:30:00 AM 18.78 65.804 0.151 7.67 13.61 9.43
8/22/2021 10:45:00 AM 18.71 65.67799 0.151 7.68 14.54 9.42
8/22/2021 11:00:00 AM 18.77 65.786 0.151 7.68 16.81 9.41
8/22/2021 11:15:00 AM 18.99 66.182 0.151 7.69 11.43 9.4
8/22/2021 11:30:00 AM 19.19 66.542 0.151 7.7 12.51 9.37
8/22/2021 11:45:00 AM 19.35 66.83 0.151 7.71 12.04 9.37
8/22/2021 12:00:00 PM 19.4 66.92 0.151 7.71 13.56 9.34
8/22/2021 12:15:00 PM 19.55 67.19 0.152 7.71 13.09 9.31
8/22/2021 12:30:00 PM 19.68 67.424 0.152 7.72 14.66 9.29
8/22/2021 12:45:00 PM 19.78 67.604 0.152 7.71 13.94 9.26
8/22/2021 1:00:00 PM 19.84 67.712 0.152 7.71 27.55 9.25
8/22/2021 1:15:00 PM 19.9 67.82 0.152 7.72 27.92 9.25
8/22/2021 1:30:00 PM 19.99 67.982 0.152 7.72 10.87 9.24
8/22/2021 1:45:00 PM 20.08 68.144 0.152 7.72 35.82 9.23
8/22/2021 2:00:00 PM 20.23 68.414 0.152 7.72 73.45 9.2
8/22/2021 2:15:00 PM 20.34 68.612 0.153 7.73 11.84 9.19
8/22/2021 2:30:00 PM 20.51 68.918 0.153 7.73 20.33 9.16
8/22/2021 2:45:00 PM 20.66 69.188 0.153 7.73 18.23 9.13
8/22/2021 3:00:00 PM 20.73 69.314 0.153 7.74 19.78 9.1
8/22/2021 3:15:00 PM 20.69 69.242 0.153 7.73 17.74 9.07
8/22/2021 3:30:00 PM 20.68 69.224 0.152 7.73 10.27 9.05
8/22/2021 3:45:00 PM 20.69 69.242 0.153 7.73 11.99 9.02
8/22/2021 4:00:00 PM 20.66 69.188 0.153 7.72 10.15 9.02
8/22/2021 4:15:00 PM 20.71 69.278 0.154 7.72 9.66 9.04
8/22/2021 4:30:00 PM 20.73 69.314 0.155 7.73 8.58 9.04
8/22/2021 4:45:00 PM 20.8 69.44 0.155 7.73 12.89 9.03
8/22/2021 5:00:00 PM 20.86 69.548 0.155 7.73 11.86 9.02
8/22/2021 5:15:00 PM 20.86 69.548 0.155 7.73 10.52 9
8/22/2021 5:30:00 PM 20.9 69.62 0.156 7.73 6.91 9
8/22/2021 5:45:00 PM 20.92 69.656 0.156 7.72 8.04 9
8/22/2021 6:00:00 PM 20.87 69.566 0.156 7.72 7.84 8.98
8/22/2021 6:15:00 PM 20.84 69.512 0.156 7.72 7.99 8.97
8/22/2021 6:30:00 PM 20.79 69.422 0.157 7.72 7.63 8.97
8/22/2021 6:45:00 PM 20.7 69.26 0.157 7.72 7.85 8.98
8/22/2021 7:00:00 PM 20.61 69.098 0.157 7.71 14.78 8.97
8/22/2021 7:15:00 PM 20.53 68.954 0.158 7.7 23.94 8.99
8/22/2021 7:30:00 PM 20.44 68.792 0.158 7.7 20.93 8.99
8/22/2021 7:45:00 PM 20.37 68.666 0.158 7.7 18.79 8.99
8/22/2021 8:00:00 PM 20.3 68.54 0.158 7.7 19.16 8.99
8/22/2021 8:15:00 PM 20.24 68.432 0.159 7.7 130.48 8.99
8/22/2021 8:30:00 PM 20.17 68.306 0.159 7.69 87.21 8.99
8/22/2021 8:45:00 PM 20.11 68.198 0.16 7.69 62.37 8.99
8/22/2021 9:00:00 PM 20.06 68.108 0.16 7.69 6.66 9.01
8/22/2021 9:15:00 PM 20 68 0.16 7.7 5.4 9.01
8/22/2021 9:30:00 PM 19.94 67.892 0.16 7.7 4.99 9.02
8/22/2021 9:45:00 PM 19.89 67.802 0.161 7.69 5.25 9.03
8/22/2021 10:00:00 PM 19.84 67.712 0.161 7.69 6.64 9.03
8/22/2021 10:15:00 PM 19.81 67.658 0.159 7.7 5.71 9.06
8/22/2021 10:30:00 PM 19.77 67.586 0.158 7.7 4.8 9.07
8/22/2021 10:45:00 PM 19.9 67.82 0.152 7.69 9.47 9.03
8/22/2021 11:00:00 PM 19.84 67.712 0.153 7.68 9.75 9.03
8/22/2021 11:15:00 PM 19.7 67.46 0.156 7.69 10.1 9.05
8/22/2021 11:30:00 PM 19.61 67.298 0.158 7.7 13.83 9.09
8/22/2021 11:45:00 PM 19.54 67.172 0.157 7.71 20.46 9.12
8/23/2021 12:00:00 AM 19.51 67.118 0.149 7.7 27.09 9.13
8/23/2021 12:15:00 AM 19.5 67.1 0.143 7.7 26.62 9.15
8/23/2021 12:30:00 AM 19.47 67.046 0.138 7.7 28.99 9.16
8/23/2021 12:45:00 AM 19.41 66.938 0.135 7.71 35.42 9.19
8/23/2021 1:00:00 AM 19.38 66.884 0.134 7.71 41.42 9.19
8/23/2021 1:15:00 AM 19.4 66.92 0.133 7.7 46.58 9.18
8/23/2021 1:30:00 AM 19.42 66.956 0.13 7.71 51.83 9.18
8/23/2021 1:45:00 AM 19.43 66.974 0.126 7.7 56.77 9.17
8/23/2021 2:00:00 AM 19.43 66.974 0.123 7.67 60.89 9.16
8/23/2021 2:15:00 AM 19.41 66.938 0.121 7.66 62.77 9.16
8/23/2021 2:30:00 AM 19.4 66.92 0.119 7.65 48.1 9.16
8/23/2021 2:45:00 AM 19.41 66.938 0.118 7.65 45.51 9.15
8/23/2021 3:00:00 AM 19.42 66.956 0.118 7.65 42.39 9.15
8/23/2021 3:15:00 AM 19.43 66.974 0.118 7.64 38.01 9.14
8/23/2021 3:30:00 AM 19.44 66.992 0.118 7.63 34.7 9.14
8/23/2021 3:45:00 AM 19.43 66.974 0.119 7.62 31.73 9.14
8/23/2021 4:00:00 AM 19.42 66.956 0.12 7.62 30.1 9.14
8/23/2021 4:15:00 AM 19.41 66.938 0.12 7.62 28.02 9.14
8/23/2021 4:30:00 AM 19.39 66.902 0.121 7.61 26.9 9.14
8/23/2021 4:45:00 AM 19.37 66.866 0.122 7.61 25.9 9.14
8/23/2021 5:00:00 AM 19.35 66.83 0.122 7.6 25.59 9.15
8/23/2021 5:15:00 AM 19.32 66.776 0.123 7.6 24.69 9.15
8/23/2021 5:30:00 AM 19.3 66.74 0.123 7.6 23.93 9.15
8/23/2021 5:45:00 AM 19.27 66.686 0.123 7.59 23.56 9.15
8/23/2021 6:00:00 AM 19.25 66.65 0.124 7.59 23.14 9.16
8/23/2021 6:15:00 AM 19.24 66.632 0.124 7.59 22.93 9.16
8/23/2021 6:30:00 AM 19.22 66.596 0.124 7.59 22.25 9.16
8/23/2021 6:45:00 AM 19.2 66.56 0.124 7.59 21.63 9.17
8/23/2021 7:00:00 AM 19.19 66.542 0.124 7.58 21.51 9.18
8/23/2021 7:15:00 AM 19.17 66.506 0.125 7.59 20.99 9.19
8/23/2021 7:30:00 AM 19.16 66.488 0.125 7.59 20.35 9.19
8/23/2021 7:45:00 AM 19.15 66.47 0.126 7.61 19.69 9.2
8/23/2021 8:00:00 AM 19.15 66.47 0.126 7.6 19.57 9.21
8/23/2021 8:15:00 AM 19.16 66.488 0.127 7.61 19.47 9.22
8/23/2021 8:30:00 AM 19.18 66.524 0.127 7.62 19.42 9.23
8/23/2021 8:45:00 AM 19.22 66.596 0.128 7.63 18.9 9.24
8/23/2021 9:00:00 AM 19.23 66.614 0.128 7.64 19.53 9.24
8/23/2021 9:15:00 AM 19.27 66.686 0.129 7.64 18.99 9.25
8/23/2021 9:30:00 AM 19.3 66.74 0.129 7.65 18.4 9.25
8/23/2021 9:45:00 AM 19.3 66.74 0.129 7.65 17.63 9.24
8/23/2021 10:00:00 AM 19.31 66.758 0.13 7.65 17.11 9.24
8/23/2021 10:15:00 AM 19.34 66.812 0.13 7.65 16.71 9.24
8/23/2021 10:30:00 AM 19.42 66.956 0.13 7.65 16.39 9.25
8/23/2021 10:45:00 AM 19.47 67.046 0.131 7.66 16.14 9.26
8/23/2021 11:00:00 AM 19.52 67.136 0.131 7.66 16.19 9.26
8/23/2021 11:15:00 AM 19.59 67.262 0.132 7.67 15.8 9.25
8/23/2021 11:30:00 AM 19.67 67.406 0.132 7.67 15.65 9.25
8/23/2021 11:45:00 AM 19.75 67.55 0.132 7.67 14.31 9.24
8/23/2021 12:00:00 PM 19.8 67.64 0.133 7.68 14.66 9.23
8/23/2021 12:15:00 PM 19.87 67.766 0.133 7.68 13.98 9.22
8/23/2021 12:30:00 PM 19.92 67.856 0.133 7.69 13.99 9.21
8/23/2021 12:45:00 PM 20.02 68.036 0.134 7.69 14.12 9.2
8/23/2021 1:00:00 PM 20.04 68.07201 0.134 7.69 12.48 9.2
8/23/2021 1:15:00 PM 20.09 68.162 0.134 7.69 11.64 9.19
8/23/2021 1:30:00 PM 20.13 68.234 0.135 7.7 11.35 9.18
8/23/2021 1:45:00 PM 20.18 68.324 0.135 7.69 11.18 9.17
8/23/2021 2:00:00 PM 20.26 68.468 0.136 7.69 10.31 9.16
8/23/2021 2:15:00 PM 20.27 68.486 0.136 7.7 10.58 9.16
8/23/2021 2:30:00 PM 20.39 68.702 0.136 7.69 10.12 9.15
8/23/2021 2:45:00 PM 20.57 69.026 0.137 7.7 10 9.13
8/23/2021 3:00:00 PM 20.6 69.08 0.137 7.7 10.16 9.11
8/23/2021 3:15:00 PM 20.65 69.17 0.137 7.7 10 9.1
8/23/2021 3:30:00 PM 20.76 69.368 0.137 7.7 9.73 9.09
8/23/2021 3:45:00 PM 20.84 69.512 0.138 7.7 9.51 9.07
8/23/2021 4:00:00 PM 20.85 69.53 0.138 7.7 9.48 9.05
8/23/2021 4:15:00 PM 20.85 69.53 0.139 7.7 9.53 9.04
8/23/2021 4:30:00 PM 20.9 69.62 0.139 7.7 9.37 9.04
8/23/2021 4:45:00 PM 20.88 69.584 0.139 7.7 9.33 9.04
8/23/2021 5:00:00 PM 20.85 69.53 0.14 7.7 9.28 9.04
8/23/2021 5:15:00 PM 20.82 69.476 0.14 7.7 9.28 9.03
8/23/2021 5:30:00 PM 20.83 69.494 0.14 7.7 9.28 9.03
8/23/2021 5:45:00 PM 20.8 69.44 0.141 7.7 9.24 9.02
8/23/2021 6:00:00 PM 20.77 69.386 0.141 7.69 9.1 9.01
8/23/2021 6:15:00 PM 20.7 69.26 0.141 7.69 9.09 9.01
8/23/2021 6:30:00 PM 20.61 69.098 0.142 7.69 8.83 9
8/23/2021 6:45:00 PM 20.53 68.954 0.142 7.67 9.01 8.99
8/23/2021 7:00:00 PM 20.46 68.828 0.142 7.67 8.82 9
8/23/2021 7:15:00 PM 20.37 68.666 0.143 7.66 8.7 8.99
8/23/2021 7:30:00 PM 20.28 68.504 0.143 7.66 8.7 9
8/23/2021 7:45:00 PM 20.2 68.36 0.144 7.65 8.6 9
8/23/2021 8:00:00 PM 20.14 68.252 0.144 7.64 8.85 9
8/23/2021 8:15:00 PM 20.08 68.144 0.144 7.63 9.24 9
8/23/2021 8:30:00 PM 20.01 68.018 0.145 7.62 9.14 9.01
8/23/2021 8:45:00 PM 19.96 67.92799 0.145 7.62 8.96 9.01
8/23/2021 9:00:00 PM 19.91 67.838 0.146 7.62 8.84 9.02
8/23/2021 9:15:00 PM 19.86 67.748 0.146 7.62 8.83 9.03
8/23/2021 9:30:00 PM 19.8 67.64 0.146 7.62 8.85 9.04
8/23/2021 9:45:00 PM 19.76 67.568 0.147 7.6 8.81 9.04
8/23/2021 10:00:00 PM 19.72 67.496 0.147 7.61 8.8 9.05
8/23/2021 10:15:00 PM 19.69 67.442 0.148 7.61 8.81 9.06
8/23/2021 10:30:00 PM 19.65 67.37 0.148 7.61 8.74 9.07
8/23/2021 10:45:00 PM 19.61 67.298 0.148 7.61 8.68 9.07
8/23/2021 11:00:00 PM 19.58 67.244 0.149 7.6 39.5 9.08
8/23/2021 11:15:00 PM 19.55 67.19 0.149 7.61 198.86 9.09
8/23/2021 11:30:00 PM 19.51 67.118 0.149 7.61 305.18 9.1
8/23/2021 11:45:00 PM 19.48 67.064 0.149 7.61 434.78 9.11
8/24/2021 12:00:00 AM 19.45 67.01 0.149 7.61 222.14 9.11
8/24/2021 12:15:00 AM 19.42 66.956 0.15 7.6 83.77 9.12
8/24/2021 12:30:00 AM 19.38 66.884 0.15 7.6 64.98 9.12
8/24/2021 12:45:00 AM 19.34 66.812 0.15 7.6 82.83 9.13
8/24/2021 1:00:00 AM 19.31 66.758 0.15 7.61 68.25 9.14
8/24/2021 1:15:00 AM 19.27 66.686 0.151 7.6 178.35 9.14
8/24/2021 1:30:00 AM 19.22 66.596 0.151 7.61 148.22 9.15
8/24/2021 1:45:00 AM 19.18 66.524 0.151 7.61 20.77 9.16
8/24/2021 2:00:00 AM 19.14 66.452 0.151 7.62 19.01 9.17
8/24/2021 2:15:00 AM 19.1 66.38 0.151 7.62 619.57 9.18
8/24/2021 2:30:00 AM 19.06 66.308 0.152 7.61 565.58 9.19
8/24/2021 2:45:00 AM 19.02 66.236 0.151 7.63 324.25 9.2
8/24/2021 3:00:00 AM 18.98 66.164 0.152 7.63 692.9 9.21
8/24/2021 3:15:00 AM 18.94 66.092 0.152 7.62 489.08 9.22
8/24/2021 3:30:00 AM 18.9 66.02 0.152 7.65 9.96 9.22
8/24/2021 3:45:00 AM 18.87 65.966 0.152 7.65 11.09 9.23
8/24/2021 4:00:00 AM 18.83 65.894 0.152 7.64 10.64 9.23
8/24/2021 4:15:00 AM 18.79 65.82201 0.152 7.62 499.22 9.25
8/24/2021 4:30:00 AM 18.75 65.75 0.152 7.64 9.64 9.26
8/24/2021 4:45:00 AM 18.71 65.67799 0.152 7.64 9.52 9.26
8/24/2021 5:00:00 AM 18.67 65.606 0.152 7.64 1203.43 9.27
8/24/2021 5:15:00 AM 18.63 65.534 0.153 7.65 346.69 9.28
8/24/2021 5:30:00 AM 18.59 65.462 0.153 7.64 8.45 9.29
8/24/2021 5:45:00 AM 18.55 65.39 0.153 7.65 9.49 9.29
8/24/2021 6:00:00 AM 18.51 65.318 0.153 7.64 36.45 9.3
8/24/2021 6:15:00 AM 18.46 65.228 0.153 7.63 257.9 9.31
8/24/2021 6:30:00 AM 18.41 65.138 0.153 7.64 70.15 9.33
8/24/2021 6:45:00 AM 18.38 65.084 0.153 7.64 95.87 9.34
8/24/2021 7:00:00 AM 18.35 65.03 0.153 7.63 107.58 9.36
8/24/2021 7:15:00 AM 18.33 64.994 0.153 7.64 136.3 9.37
8/24/2021 7:30:00 AM 18.32 64.976 0.153 7.64 120 9.39
8/24/2021 7:45:00 AM 18.31 64.958 0.153 7.64 77.97 9.4
8/24/2021 8:00:00 AM 18.31 64.958 0.153 7.65 35.86 9.42
8/24/2021 8:15:00 AM 18.33 64.994 0.153 7.66 230.32 9.42
8/24/2021 8:30:00 AM 18.37 65.066 0.154 7.67 56.84 9.43
8/24/2021 8:45:00 AM 18.4 65.12 0.154 7.67 29.56 9.44
8/24/2021 9:00:00 AM 18.45 65.21 0.154 7.69 38.41 9.45
8/24/2021 9:15:00 AM 18.52 65.336 0.154 7.69 109.49 9.46
8/24/2021 9:30:00 AM 18.62 65.516 0.154 7.68 27254.64 9.46
8/24/2021 9:45:00 AM 18.73 65.714 0.154 7.69 27506.89 9.46
8/24/2021 10:00:00 AM 18.83 65.894 0.154 7.7 27366.6 9.45
8/24/2021 10:15:00 AM 18.95 66.11 0.154 7.7 26281.11 9.45
8/24/2021 10:30:00 AM 19.07 66.326 0.154 7.71 22104.84 9.43
8/24/2021 10:45:00 AM 19.21 66.578 0.154 7.71 22244.92 9.42
8/24/2021 11:00:00 AM 19.36 66.848 0.154 7.73 28057.04 9.4
8/24/2021 11:15:00 AM 19.51 67.118 0.154 7.72 540.35 9.39
8/24/2021 11:30:00 AM 19.67 67.406 0.154 7.71 751.12 9.37
8/24/2021 11:45:00 AM 19.84 67.712 0.154 7.72 695.16 9.35
8/24/2021 12:00:00 PM 20.01 68.018 0.154 7.72 786.55 9.32
8/24/2021 12:15:00 PM 20.17 68.306 0.155 7.72 883.06 9.3
8/24/2021 12:30:00 PM 20.34 68.612 0.155 7.73 799.28 9.29
8/24/2021 12:45:00 PM 20.5 68.9 0.155 7.74 204.17 9.26
8/24/2021 1:00:00 PM 20.67 69.206 0.155 7.75 163 9.24
8/24/2021 1:15:00 PM 20.83 69.494 0.155 7.74 158.17 9.21
8/24/2021 1:30:00 PM 20.98 69.764 0.155 7.74 147.76 9.18
8/24/2021 1:45:00 PM 21.14 70.052 0.154 7.75 171.34 9.16
8/24/2021 2:00:00 PM 21.29 70.32201 0.155 7.75 158.36 9.13
8/24/2021 2:15:00 PM 21.42 70.556 0.155 7.75 180.32 9.1
8/24/2021 2:30:00 PM 21.56 70.808 0.155 7.75 175.27 9.08
8/24/2021 2:45:00 PM 21.68 71.024 0.155 7.76 165.54 9.06
8/24/2021 3:00:00 PM 21.78 71.204 0.156 7.76 266.03 9.04
8/24/2021 3:15:00 PM 21.86 71.348 0.156 7.77 380.78 9.03
8/24/2021 3:30:00 PM 21.92 71.456 0.156 7.76 290.86 9.01
8/24/2021 3:45:00 PM 21.97 71.546 0.157 7.75 293.43 9
8/24/2021 4:00:00 PM 22 71.6 0.157 7.75 333.24 8.99
8/24/2021 4:15:00 PM 22.02 71.636 0.157 7.76 287.56 8.98
8/24/2021 4:30:00 PM 22.02 71.636 0.158 7.76 271.64 8.97
8/24/2021 4:45:00 PM 22 71.6 0.158 7.76 201.75 8.96
8/24/2021 5:00:00 PM 21.97 71.546 0.158 7.76 344.38 8.96
8/24/2021 5:15:00 PM 21.92 71.456 0.159 7.76 431.07 8.96
8/24/2021 5:30:00 PM 21.84 71.312 0.159 7.76 527.6 8.96
8/24/2021 5:45:00 PM 21.75 71.15 0.159 7.76 142.47 8.96
8/24/2021 6:00:00 PM 21.64 70.952 0.16 7.75 588.85 8.95
8/24/2021 6:15:00 PM 21.52 70.736 0.16 7.75 259.63 8.95
8/24/2021 6:30:00 PM 21.4 70.52 0.16 7.68 23.97 8.95
8/24/2021 6:45:00 PM 21.27 70.286 0.16 7.73 9.76 8.94
8/24/2021 7:00:00 PM 21.14 70.052 0.161 7.72 11.34 8.94
8/24/2021 7:15:00 PM 21.01 69.818 0.161 7.71 10.96 8.94
8/24/2021 7:30:00 PM 20.89 69.602 0.161 7.7 15.18 8.94
8/24/2021 7:45:00 PM 20.76 69.368 0.161 7.69 18.59 8.93
8/24/2021 8:00:00 PM 20.64 69.152 0.161 7.67 664.95 8.94
8/24/2021 8:15:00 PM 20.53 68.954 0.161 7.68 30.08 8.96
8/24/2021 8:30:00 PM 20.42 68.756 0.162 7.68 28.49 8.97
8/24/2021 8:45:00 PM 20.32 68.576 0.162 7.69 28.14 8.97
8/24/2021 9:00:00 PM 20.23 68.414 0.162 7.68 28.02 9
8/24/2021 9:15:00 PM 20.13 68.234 0.162 7.68 27.25 9.01
8/24/2021 9:30:00 PM 20.04 68.07201 0.162 7.67 23.14 9.01
8/24/2021 9:45:00 PM 19.95 67.91 0.162 7.68 20.87 9.04
8/24/2021 10:00:00 PM 19.87 67.766 0.163 7.68 17.74 9.06
8/24/2021 10:15:00 PM 19.79 67.622 0.163 7.67 16.1 9.08
8/24/2021 10:30:00 PM 19.71 67.478 0.163 7.66 19.34 9.09
8/24/2021 10:45:00 PM 19.64 67.352 0.164 7.67 23.12 9.1
8/24/2021 11:00:00 PM 19.57 67.226 0.164 7.67 476.64 9.12
8/24/2021 11:15:00 PM 19.5 67.1 0.164 7.67 184.09 9.13
8/24/2021 11:30:00 PM 19.43 66.974 0.164 7.67 556.86 9.15
8/24/2021 11:45:00 PM 19.37 66.866 0.164 7.66 638.35 9.16
8/25/2021 12:00:00 AM 19.31 66.758 0.164 7.67 35.87 9.17
8/25/2021 12:15:00 AM 19.24 66.632 0.165 7.67 316.38 9.19
8/25/2021 12:30:00 AM 19.18 66.524 0.165 7.67 83.31 9.2
8/25/2021 12:45:00 AM 19.12 66.416 0.165 7.66 40.28 9.21
8/25/2021 1:00:00 AM 19.06 66.308 0.165 7.66 132.91 9.22
8/25/2021 1:15:00 AM 19 66.2 0.165 7.66 301.92 9.23
8/25/2021 1:30:00 AM 18.95 66.11 0.165 7.67 823.14 9.24
8/25/2021 1:45:00 AM 18.89 66.002 0.165 7.67 320.2 9.25
8/25/2021 2:00:00 AM 18.84 65.912 0.165 7.67 946.23 9.26
8/25/2021 2:15:00 AM 18.78 65.804 0.166 7.65 11.75 9.28
8/25/2021 2:30:00 AM 18.73 65.714 0.166 7.67 690.75 9.29
8/25/2021 2:45:00 AM 18.68 65.624 0.166 7.67 478.42 9.3
8/25/2021 3:00:00 AM 18.63 65.534 0.166 7.67 426.38 9.3
8/25/2021 3:15:00 AM 18.58 65.444 0.166 7.66 14.06 9.32
8/25/2021 3:30:00 AM 18.53 65.354 0.166 7.66 777.04 9.33
8/25/2021 3:45:00 AM 18.48 65.264 0.166 7.66 711.6 9.33
8/25/2021 4:00:00 AM 18.44 65.192 0.166 7.67 25.12 9.35
8/25/2021 4:15:00 AM 18.39 65.102 0.166 7.67 25.52 9.35
8/25/2021 4:30:00 AM 18.34 65.012 0.166 7.67 24.78 9.37
8/25/2021 4:45:00 AM 18.3 64.94 0.166 7.66 28.95 9.38
8/25/2021 5:00:00 AM 18.26 64.868 0.166 7.67 27.31 9.38
8/25/2021 5:15:00 AM 18.21 64.778 0.166 7.67 263.45 9.39
8/25/2021 5:30:00 AM 18.17 64.706 0.166 7.67 91.73 9.4
8/25/2021 5:45:00 AM 18.13 64.634 0.166 7.66 14.43 9.42
8/25/2021 6:00:00 AM 18.09 64.562 0.166 7.66 38.68 9.42
8/25/2021 6:15:00 AM 18.05 64.49 0.166 7.67 36.77 9.43
8/25/2021 6:30:00 AM 18.01 64.418 0.167 7.67 36.78 9.45
8/25/2021 6:45:00 AM 17.98 64.364 0.167 7.67 35.72 9.46
8/25/2021 7:00:00 AM 17.95 64.31 0.167 7.67 33.3 9.47
8/25/2021 7:15:00 AM 17.93 64.274 0.167 7.66 35.16 9.5
8/25/2021 7:30:00 AM 17.92 64.256 0.167 7.67 27.73 9.51
8/25/2021 7:45:00 AM 17.92 64.256 0.167 7.68 27.88 9.54
8/25/2021 8:00:00 AM 17.94 64.292 0.167 7.68 28.1 9.56
8/25/2021 8:15:00 AM 17.98 64.364 0.167 7.7 28.3 9.59
8/25/2021 8:30:00 AM 18.04 64.472 0.167 7.7 28.35 9.6
8/25/2021 8:45:00 AM 18.1 64.58 0.167 7.71 29.73 9.63
8/25/2021 9:00:00 AM 18.18 64.724 0.167 7.71 50.88 9.63
8/25/2021 9:15:00 AM 18.26 64.868 0.167 7.72 35.53 9.64
8/25/2021 9:30:00 AM 18.36 65.048 0.167 7.73 34.17 9.64
8/25/2021 9:45:00 AM 18.45 65.21 0.167 7.73 50.28 9.64
8/25/2021 10:00:00 AM 18.57 65.426 0.168 7.73 38.42 9.63
8/25/2021 10:15:00 AM 18.71 65.67799 0.167 7.74 38 9.62
8/25/2021 10:30:00 AM 18.87 65.966 0.167 7.75 40.01 9.62
8/25/2021 10:45:00 AM 19.01 66.218 0.167 7.76 34.86 9.61
8/25/2021 11:00:00 AM 19.15 66.47 0.168 7.77 46.38 9.6
8/25/2021 11:15:00 AM 19.3 66.74 0.168 7.78 76.07 9.59
8/25/2021 11:30:00 AM 19.47 67.046 0.167 7.78 57.57 9.57
8/25/2021 11:45:00 AM 19.64 67.352 0.167 7.79 29.49 9.54
8/25/2021 12:00:00 PM 19.83 67.694 0.167 7.8 37.72 9.53
8/25/2021 12:15:00 PM 20 68 0.167 7.81 51.07 9.5
8/25/2021 12:30:00 PM 20.22 68.396 0.167 7.81 37.24 9.48
8/25/2021 12:45:00 PM 20.37 68.666 0.167 7.81 36.56 9.45
8/25/2021 1:00:00 PM 20.59 69.062 0.167 7.81 78.28 9.43
8/25/2021 1:15:00 PM 20.82 69.476 0.168 7.8 188.13 9.4
8/25/2021 1:30:00 PM 20.96 69.728 0.168 7.81 87.96 9.36
8/25/2021 1:45:00 PM 21.06 69.908 0.168 7.82 521.12 9.32
8/25/2021 2:00:00 PM 21.29 70.32201 0.168 7.82 1323.99 9.3
8/25/2021 2:15:00 PM 21.43 70.574 0.168 7.81 1572.58 9.28
8/25/2021 2:30:00 PM 21.58 70.844 0.168 7.81 1104.03 9.26
8/25/2021 2:45:00 PM 21.73 71.114 0.168 7.81 978.09 9.23
8/25/2021 3:00:00 PM 21.8 71.24 0.168 7.81 1180.58 9.2
8/25/2021 3:15:00 PM 21.88 71.384 0.169 7.81 1174.09 9.17
8/25/2021 3:30:00 PM 22.02 71.636 0.169 7.77 35.22 9.16
8/25/2021 3:45:00 PM 22.11 71.798 0.169 7.76 35.1 9.14
8/25/2021 4:00:00 PM 22.17 71.906 0.169 7.75 22.87 9.12
8/25/2021 4:15:00 PM 22.22 71.996 0.169 7.82 736.82 9.11
8/25/2021 4:30:00 PM 22.24 72.032 0.17 7.81 450.04 9.09
8/25/2021 4:45:00 PM 22.24 72.032 0.17 7.8 1042.42 9.06
8/25/2021 5:00:00 PM 22.24 72.032 0.171 7.8 35.07 9.03
8/25/2021 5:15:00 PM 22.23 72.014 0.171 7.77 768 9.03
8/25/2021 5:30:00 PM 22.19 71.942 0.171 7.79 35.02 9.01
8/25/2021 5:45:00 PM 22.12 71.816 0.172 7.77 35.31 9
8/25/2021 6:00:00 PM 22.02 71.636 0.172 7.75 35.37 8.97
8/25/2021 6:15:00 PM 21.91 71.438 0.172 7.74 36.47 8.95
8/25/2021 6:30:00 PM 21.8 71.24 0.173 7.72 245.27 8.93
8/25/2021 6:45:00 PM 21.66 70.988 0.173 7.72 250.27 8.9
8/25/2021 7:00:00 PM 21.53 70.754 0.173 7.72 50.08 8.87
8/25/2021 7:15:00 PM 21.39 70.502 0.174 7.69 50.23 8.87
8/25/2021 7:30:00 PM 21.28 70.304 0.174 7.7 36.62 8.87
8/25/2021 7:45:00 PM 21.17 70.106 0.174 7.7 38.38 8.87
8/25/2021 8:00:00 PM 21.06 69.908 0.175 7.69 37.87 8.86
8/25/2021 8:15:00 PM 20.94 69.692 0.176 7.69 37.65 8.86
8/25/2021 8:30:00 PM 20.83 69.494 0.176 7.67 37.81 8.87
8/25/2021 8:45:00 PM 20.73 69.314 0.176 7.66 37.93 8.88
8/25/2021 9:00:00 PM 20.65 69.17 0.176 7.67 38.24 8.9
8/25/2021 9:15:00 PM 20.56 69.008 0.177 7.68 38.42 8.92
8/25/2021 9:30:00 PM 20.48 68.864 0.177 7.69 38.17 8.93
8/25/2021 9:45:00 PM 20.4 68.72 0.177 7.69 38.57 8.93
8/25/2021 10:00:00 PM 20.32 68.576 0.177 7.68 39.01 8.95
8/25/2021 10:15:00 PM 20.25 68.45 0.178 7.67 38.63 8.96
8/25/2021 10:30:00 PM 20.18 68.324 0.178 7.67 38.79 8.98
8/25/2021 10:45:00 PM 20.1 68.18 0.178 7.66 38.76 8.99
8/25/2021 11:00:00 PM 20.04 68.07201 0.178 7.66 38.85 9
8/25/2021 11:15:00 PM 19.98 67.964 0.179 7.67 38.93 9.02
8/25/2021 11:30:00 PM 19.92 67.856 0.179 7.66 38.97 9.02
8/25/2021 11:45:00 PM 19.86 67.748 0.179 7.66 39.29 9.04
8/26/2021 12:00:00 AM 19.8 67.64 0.179 7.67 38.85 9.05
8/26/2021 12:15:00 AM 19.75 67.55 0.18 7.66 38.83 9.06
8/26/2021 12:30:00 AM 19.7 67.46 0.18 7.66 38.85 9.07
8/26/2021 12:45:00 AM 19.64 67.352 0.18 7.67 47.13 9.08
8/26/2021 1:00:00 AM 19.59 67.262 0.18 7.67 47.36 9.09
8/26/2021 1:15:00 AM 19.54 67.172 0.181 7.66 47.82 9.1
8/26/2021 1:30:00 AM 19.5 67.1 0.181 7.66 47.79 9.11
8/26/2021 1:45:00 AM 19.45 67.01 0.181 7.65 50.65 9.12
8/26/2021 2:00:00 AM 19.41 66.938 0.181 7.65 50.63 9.12
8/26/2021 2:15:00 AM 19.36 66.848 0.181 7.65 50.73 9.13
8/26/2021 2:30:00 AM 19.31 66.758 0.182 7.65 50.65 9.14
8/26/2021 2:45:00 AM 19.26 66.668 0.182 7.64 50.64 9.15
8/26/2021 3:00:00 AM 19.23 66.614 0.182 7.64 50.75 9.16
8/26/2021 3:15:00 AM 19.18 66.524 0.182 7.66 51.1 9.17
8/26/2021 3:30:00 AM 19.14 66.452 0.182 7.65 51.03 9.17
8/26/2021 3:45:00 AM 19.1 66.38 0.182 7.65 51.06 9.18
8/26/2021 4:00:00 AM 19.04 66.272 0.183 7.64 50.82 9.19
8/26/2021 4:15:00 AM 19.01 66.218 0.182 7.64 50.91 9.2
8/26/2021 4:30:00 AM 18.97 66.146 0.182 7.65 51.14 9.21
8/26/2021 4:45:00 AM 18.93 66.074 0.182 7.65 51.22 9.22
8/26/2021 5:00:00 AM 18.89 66.002 0.182 7.65 51.83 9.23
8/26/2021 5:15:00 AM 18.85 65.93 0.182 7.66 52 9.23
8/26/2021 5:30:00 AM 18.81 65.858 0.183 7.65 52.12 9.24
8/26/2021 5:45:00 AM 18.78 65.804 0.183 7.65 52.01 9.25
8/26/2021 6:00:00 AM 18.75 65.75 0.183 7.66 52.14 9.26
8/26/2021 6:15:00 AM 18.72 65.696 0.182 7.66 52.37 9.27
8/26/2021 6:30:00 AM 18.7 65.66 0.183 7.64 52.42 9.28
8/26/2021 6:45:00 AM 18.67 65.606 0.183 7.64 52.56 9.29
8/26/2021 7:00:00 AM 18.66 65.588 0.183 7.66 52.63 9.32
8/26/2021 7:15:00 AM 18.64 65.552 0.183 7.65 52.52 9.33
8/26/2021 7:30:00 AM 18.63 65.534 0.184 7.65 52.61 9.36
8/26/2021 7:45:00 AM 18.63 65.534 0.184 7.66 52.53 9.39
8/26/2021 8:00:00 AM 18.64 65.552 0.183 7.67 54.94 9.42
8/26/2021 8:15:00 AM 18.65 65.57 0.183 7.68 54.97 9.45
8/26/2021 8:30:00 AM 18.67 65.606 0.183 7.68 54.87 9.49
8/26/2021 8:45:00 AM 18.71 65.67799 0.183 7.69 54.81 9.55
8/26/2021 9:00:00 AM 18.77 65.786 0.183 7.71 51.79 9.59
8/26/2021 9:15:00 AM 18.84 65.912 0.183 7.73 51.8 9.63
8/26/2021 9:30:00 AM 18.9 66.02 0.183 7.73 52.23 9.66
8/26/2021 9:45:00 AM 18.97 66.146 0.183 7.74 52.12 9.67
8/26/2021 10:00:00 AM 19.06 66.308 0.183 7.76 52.06 9.69
8/26/2021 10:15:00 AM 19.16 66.488 0.183 7.77 52.02 9.7
8/26/2021 10:30:00 AM 19.3 66.74 0.183 7.79 52.05 9.72
8/26/2021 10:45:00 AM 19.38 66.884 0.183 7.79 51.97 9.72
8/26/2021 11:00:00 AM 19.46 67.028 0.183 7.8 52.87 9.7
8/26/2021 11:15:00 AM 19.6 67.28 0.183 7.81 53.06 9.7
8/26/2021 11:30:00 AM 19.71 67.478 0.183 7.82 52.95 9.69
8/26/2021 11:45:00 AM 19.89 67.802 0.183 7.83 52.75 9.69
8/26/2021 12:00:00 PM 19.97 67.946 0.183 7.83 52.59 9.68
8/26/2021 12:15:00 PM 20.15 68.27 0.183 7.84 52.13 9.68
8/26/2021 12:30:00 PM 20.27 68.486 0.183 7.85 52.02 9.67
8/26/2021 12:45:00 PM 20.36 68.648 0.183 7.84 52.09 9.64
8/26/2021 1:00:00 PM 20.63 69.134 0.183 7.87 52.03 9.64
8/26/2021 1:15:00 PM 20.82 69.476 0.182 7.87 52.6 9.62
8/26/2021 1:30:00 PM 20.92 69.656 0.183 7.88 51.82 9.6
8/26/2021 1:45:00 PM 21.03 69.854 0.183 7.87 52.05 9.57
8/26/2021 2:00:00 PM 21.13 70.034 0.183 7.88 51.84 9.55
8/26/2021 2:15:00 PM 21.31 70.358 0.183 7.88 51.88 9.53
8/26/2021 2:30:00 PM 21.46 70.628 0.183 7.89 51.31 9.51
8/26/2021 2:45:00 PM 21.67 71.006 0.183 7.9 51.52 9.48
8/26/2021 3:00:00 PM 21.82 71.276 0.183 7.9 51.55 9.44
8/26/2021 3:15:00 PM 21.94 71.492 0.183 7.9 51 9.41
8/26/2021 3:30:00 PM 22.05 71.69 0.184 7.9 50.9 9.38
8/26/2021 3:45:00 PM 22.13 71.834 0.184 7.9 50.74 9.35
8/26/2021 4:00:00 PM 22.16 71.888 0.184 7.89 50.87 9.31
8/26/2021 4:15:00 PM 22.31 72.158 0.184 7.88 50.95 9.31
8/26/2021 4:30:00 PM 22.38 72.284 0.184 7.9 50.97 9.28
8/26/2021 4:45:00 PM 22.37 72.266 0.184 7.89 51.07 9.24
8/26/2021 5:00:00 PM 22.39 72.302 0.184 7.88 51.25 9.22
8/26/2021 5:15:00 PM 22.26 72.068 0.184 7.86 51.3 9.12
8/26/2021 5:30:00 PM 22.21 71.978 0.185 7.85 52.18 9.1
8/26/2021 5:45:00 PM 22.12 71.816 0.186 7.83 54.87 9.06
8/26/2021 6:00:00 PM 22.08 71.744 0.186 7.82 54.29 9.09
8/26/2021 6:15:00 PM 22.02 71.636 0.185 7.83 54.11 9.07
8/26/2021 6:30:00 PM 21.91 71.438 0.186 7.81 54 9.03
8/26/2021 6:45:00 PM 21.78 71.204 0.186 7.79 53.83 8.95
8/26/2021 7:00:00 PM 21.65 70.97 0.186 7.78 60.41 8.91
8/26/2021 7:15:00 PM 21.53 70.754 0.187 7.78 67.64 8.88
8/26/2021 7:30:00 PM 21.42 70.556 0.187 7.78 70.54 8.87
8/26/2021 7:45:00 PM 21.29 70.32201 0.187 7.75 69.27 8.85
8/26/2021 8:00:00 PM 21.17 70.106 0.188 7.74 62.9 8.82
8/26/2021 8:15:00 PM 21.06 69.908 0.188 7.73 58.78 8.82
8/26/2021 8:30:00 PM 20.95 69.71 0.188 7.73 54.25 8.83
8/26/2021 8:45:00 PM 20.85 69.53 0.189 7.73 76.23 8.84
8/26/2021 9:00:00 PM 20.74 69.332 0.189 7.72 102.44 8.85
8/26/2021 9:15:00 PM 20.65 69.17 0.189 7.72 108.76 8.86
8/26/2021 9:30:00 PM 20.56 69.008 0.189 7.72 108.75 8.87
8/26/2021 9:45:00 PM 20.47 68.846 0.19 7.72 97.59 8.89
8/26/2021 10:00:00 PM 20.39 68.702 0.19 7.71 46.13 8.9
8/26/2021 10:15:00 PM 20.31 68.558 0.19 7.71 46.62 8.91
8/26/2021 10:30:00 PM 20.24 68.432 0.19 7.71 45.91 8.92
8/26/2021 10:45:00 PM 20.15 68.27 0.191 7.7 45.85 8.94
8/26/2021 11:00:00 PM 20.09 68.162 0.191 7.71 45.86 8.95
8/26/2021 11:15:00 PM 20.01 68.018 0.191 7.7 181.32 8.96
8/26/2021 11:30:00 PM 19.95 67.91 0.191 7.7 181.46 8.98
8/26/2021 11:45:00 PM 19.89 67.802 0.191 7.7 180.95 8.99
8/27/2021 12:00:00 AM 19.82 67.676 0.192 7.7 180.7 9
8/27/2021 12:15:00 AM 19.76 67.568 0.191 7.7 180.91 9.01
8/27/2021 12:30:00 AM 19.7 67.46 0.189 7.7 181.25 9.02
8/27/2021 12:45:00 AM 19.65 67.37 0.187 7.7 176.48 9.03
8/27/2021 1:00:00 AM 19.59 67.262 0.192 7.7 176.96 9.04
8/27/2021 1:15:00 AM 19.54 67.172 0.193 7.69 175.22 9.06
8/27/2021 1:30:00 AM 19.49 67.082 0.192 7.69 173.01 9.06
8/27/2021 1:45:00 AM 19.44 66.992 0.192 7.69 184.93 9.07
8/27/2021 2:00:00 AM 19.39 66.902 0.183 7.7 40.68 9.08
8/27/2021 2:15:00 AM 19.34 66.812 0.182 7.71 40.02 9.09
8/27/2021 2:30:00 AM 19.29 66.722 0.189 7.69 46.89 9.1
8/27/2021 2:45:00 AM 19.25 66.65 0.189 7.7 54.92 9.11
8/27/2021 3:00:00 AM 19.2 66.56 0.187 7.69 71.26 9.11
8/27/2021 3:15:00 AM 19.15 66.47 0.188 7.69 245.27 9.13
8/27/2021 3:30:00 AM 19.11 66.398 0.188 7.7 147.89 9.13
8/27/2021 3:45:00 AM 19.06 66.308 0.192 7.7 217.98 9.15
8/27/2021 4:00:00 AM 19.02 66.236 0.193 7.7 252.28 9.15
8/27/2021 4:15:00 AM 18.97 66.146 0.193 7.7 443.69 9.16
8/27/2021 4:30:00 AM 18.93 66.074 0.193 7.7 80.98 9.17
8/27/2021 4:45:00 AM 18.88 65.984 0.193 7.71 17.57 9.17
8/27/2021 5:00:00 AM 18.85 65.93 0.193 7.7 6.51 9.19
8/27/2021 5:15:00 AM 18.82 65.876 0.193 7.69 4.13 9.2
8/27/2021 5:30:00 AM 18.78 65.804 0.194 7.69 236.06 9.21
8/27/2021 5:45:00 AM 18.73 65.714 0.194 7.7 7.07 9.21
8/27/2021 6:00:00 AM 18.69 65.642 0.194 7.68 3.32 9.22
8/27/2021 6:15:00 AM 18.67 65.606 0.194 7.7 13.7 9.22
8/27/2021 6:30:00 AM 18.65 65.57 0.194 7.69 249.68 9.24
8/27/2021 6:45:00 AM 18.64 65.552 0.194 7.69 3.22 9.26
8/27/2021 7:00:00 AM 18.61 65.498 0.194 7.69 3.01 9.31
8/27/2021 7:15:00 AM 18.6 65.48 0.194 7.71 47.87 9.37
8/27/2021 7:30:00 AM 18.6 65.48 0.194 7.72 3.03 9.45
8/27/2021 7:45:00 AM 18.6 65.48 0.194 7.73 10.49 9.46
8/27/2021 8:00:00 AM 18.61 65.498 0.194 7.74 2.83 9.52
8/27/2021 8:15:00 AM 18.63 65.534 0.194 7.75 2.84 9.58
8/27/2021 8:30:00 AM 18.66 65.588 0.194 7.75 2.45 9.65
8/27/2021 8:45:00 AM 18.72 65.696 0.194 7.79 7.95 9.72
8/27/2021 9:00:00 AM 18.77 65.786 0.194 7.81 596.97 9.78
8/27/2021 9:15:00 AM 18.82 65.876 0.194 7.83 7650.59 9.81
8/27/2021 9:30:00 AM 18.88 65.984 0.194 7.84 1068.52 9.84
8/27/2021 9:45:00 AM 18.96 66.128 0.194 7.85 141.68 9.89
8/27/2021 10:00:00 AM 19.03 66.254 0.194 7.87 34.68 9.91
8/27/2021 10:15:00 AM 19.17 66.506 0.194 7.89 5 9.95
8/27/2021 10:30:00 AM 19.26 66.668 0.194 7.91 4.41 9.98
8/27/2021 10:45:00 AM 19.37 66.866 0.194 7.94 7.99 9.99
8/27/2021 11:00:00 AM 19.54 67.172 0.194 7.95 536.1 10.01
8/27/2021 11:15:00 AM 19.63 67.334 0.194 7.96 4852.62 10
8/27/2021 11:30:00 AM 19.81 67.658 0.193 7.97 2.33 10.01
8/27/2021 11:45:00 AM 19.98 67.964 0.194 8 16.78 10.02
8/27/2021 12:00:00 PM 20.15 68.27 0.193 8.02 1274.91 10.03
8/27/2021 12:15:00 PM 20.38 68.684 0.193 8.03 46.31 10.03
8/27/2021 12:30:00 PM 20.65 69.17 0.193 8.06 6.39 10.01
8/27/2021 12:45:00 PM 20.79 69.422 0.193 8.06 3.63 9.99
8/27/2021 1:00:00 PM 20.82 69.476 0.193 8.05 1111.05 9.88
8/27/2021 1:15:00 PM 20.98 69.764 0.193 8.06 2.36 9.85
8/27/2021 1:30:00 PM 21.25 70.25 0.193 8.07 3.97 9.86
8/27/2021 1:45:00 PM 21.54 70.772 0.193 8.08 14.57 9.84
8/27/2021 2:00:00 PM 21.54 70.772 0.193 8.08 9.71 9.83
8/27/2021 2:15:00 PM 21.74 71.132 0.193 8.09 3.12 9.84
8/27/2021 2:30:00 PM 21.69 71.042 0.193 8.08 2.21 9.77
8/27/2021 2:45:00 PM 21.48 70.664 0.193 8 2.07 9.47
8/27/2021 3:00:00 PM 21.36 70.448 0.193 7.95 5.4 9.27
8/27/2021 3:15:00 PM 21.32 70.376 0.193 7.92 11.24 9.24
8/27/2021 3:30:00 PM 21.41 70.538 0.191 7.96 3.58 9.39
8/27/2021 3:45:00 PM 21.37 70.466 0.188 7.92 10.59 9.23
8/27/2021 4:00:00 PM 21.28 70.304 0.185 7.96 232.01 9.12
8/27/2021 4:15:00 PM 20.87 69.566 0.068 7.87 882.97 9.05
8/27/2021 4:30:00 PM 20.83 69.494 0.056 7.81 1338.77 9.04
8/27/2021 4:45:00 PM 20.76 69.368 0.054 7.78 2387.84 9.05
8/27/2021 5:00:00 PM 20.76 69.368 0.053 7.79 3306.28 9.03
8/27/2021 5:15:00 PM 20.61 69.098 0.054 7.78 2116.34 9.07
8/27/2021 5:30:00 PM 20.5 68.9 0.056 7.76 3863.95 9.08
8/27/2021 5:45:00 PM 20.49 68.882 0.055 7.72 3860.82 9.09
8/27/2021 6:00:00 PM 20.41 68.738 0.11 7.72 4206.66 9.09
8/27/2021 6:15:00 PM 20.38 68.684 0.127 7.71 4871.33 9.1
8/27/2021 6:30:00 PM 20.33 68.594 0.13 7.71 5157.37 9.11
8/27/2021 6:45:00 PM 20.27 68.486 0.131 7.71 6106.48 9.12
8/27/2021 7:00:00 PM 20.23 68.414 0.132 7.7 5704.27 9.12
8/27/2021 7:15:00 PM 20.2 68.36 0.134 7.71 6295.09 9.11
8/27/2021 7:30:00 PM 20.18 68.324 0.135 7.71 6238.18 9.12
8/27/2021 7:45:00 PM 20.14 68.252 0.137 7.7 7342.02 9.11
8/27/2021 8:00:00 PM 20.1 68.18 0.138 7.7 9271.18 9.11
8/27/2021 8:15:00 PM 20.05 68.09 0.14 7.69 10117.91 9.1
8/27/2021 8:30:00 PM 19.99 67.982 0.142 7.69 10883.7 9.1
8/27/2021 8:45:00 PM 19.94 67.892 0.143 7.68 3841.53 9.11
8/27/2021 9:00:00 PM 19.89 67.802 0.145 7.68 3819.12 9.11
8/27/2021 9:15:00 PM 19.84 67.712 0.146 7.68 3866.42 9.12
8/27/2021 9:30:00 PM 19.79 67.622 0.147 7.68 3918.25 9.13
8/27/2021 9:45:00 PM 19.75 67.55 0.148 7.66 3848.51 9.14
8/27/2021 10:00:00 PM 19.71 67.478 0.149 7.68 4042.01 9.14
8/27/2021 10:15:00 PM 19.68 67.424 0.15 7.68 4056.87 9.15
8/27/2021 10:30:00 PM 19.63 67.334 0.151 7.68 4021.48 9.15
8/27/2021 10:45:00 PM 19.59 67.262 0.152 7.68 4131.07 9.17
8/27/2021 11:00:00 PM 19.55 67.19 0.153 7.68 4120.05 9.18
8/27/2021 11:15:00 PM 19.52 67.136 0.154 7.68 4157.76 9.18
8/27/2021 11:30:00 PM 19.48 67.064 0.155 7.68 4114.01 9.18
8/27/2021 11:45:00 PM 19.44 66.992 0.156 7.68 4085.97 9.19
8/28/2021 12:00:00 AM 19.4 66.92 0.157 7.68 4063 9.19
8/28/2021 12:15:00 AM 19.36 66.848 0.157 7.68 4088.56 9.2
8/28/2021 12:30:00 AM 19.33 66.794 0.158 7.68 4099.59 9.21
8/28/2021 12:45:00 AM 19.29 66.722 0.158 7.68 4165.05 9.22
8/28/2021 1:00:00 AM 19.26 66.668 0.159 7.69 4137.45 9.23
8/28/2021 1:15:00 AM 19.22 66.596 0.16 7.69 4167.15 9.23
8/28/2021 1:30:00 AM 19.18 66.524 0.16 7.69 3964.24 9.24
8/28/2021 1:45:00 AM 19.14 66.452 0.161 7.69 4004.41 9.24
8/28/2021 2:00:00 AM 19.1 66.38 0.161 7.69 4027.96 9.25
8/28/2021 2:15:00 AM 19.06 66.308 0.162 7.69 4027.54 9.25
8/28/2021 2:30:00 AM 19.01 66.218 0.162 7.69 3923.98 9.26
8/28/2021 2:45:00 AM 18.97 66.146 0.163 7.69 3935.53 9.27
8/28/2021 3:00:00 AM 18.92 66.056 0.163 7.69 3811.6 9.28
8/28/2021 3:15:00 AM 18.88 65.984 0.164 7.69 3923.31 9.29
8/28/2021 3:30:00 AM 18.84 65.912 0.164 7.7 3916.95 9.29
8/28/2021 3:45:00 AM 18.8 65.84 0.165 7.69 3844.59 9.3
8/28/2021 4:00:00 AM 18.77 65.786 0.165 7.69 3842 9.3
8/28/2021 4:15:00 AM 18.73 65.714 0.166 7.69 3845.91 9.31
8/28/2021 4:30:00 AM 18.7 65.66 0.166 7.69 3886.77 9.32
8/28/2021 4:45:00 AM 18.66 65.588 0.167 7.69 3816.91 9.32
8/28/2021 5:00:00 AM 18.64 65.552 0.167 7.69 3775.71 9.33
8/28/2021 5:15:00 AM 18.6 65.48 0.167 7.69 3800.73 9.33
8/28/2021 5:30:00 AM 18.58 65.444 0.168 7.69 3902.66 9.34
8/28/2021 5:45:00 AM 18.55 65.39 0.168 7.69 3808.73 9.35
8/28/2021 6:00:00 AM 18.53 65.354 0.168 7.7 3842.73 9.35
8/28/2021 6:15:00 AM 18.51 65.318 0.169 7.7 3784.62 9.35
8/28/2021 6:30:00 AM 18.49 65.282 0.169 7.7 3779.33 9.36
8/28/2021 6:45:00 AM 18.48 65.264 0.17 7.7 3812.39 9.38
8/28/2021 7:00:00 AM 18.46 65.228 0.17 7.7 3854.51 9.4
8/28/2021 7:15:00 AM 18.46 65.228 0.17 7.71 3779.96 9.43
8/28/2021 7:30:00 AM 18.46 65.228 0.17 7.72 3795.04 9.46
8/28/2021 7:45:00 AM 18.47 65.246 0.171 7.73 3788.85 9.54
8/28/2021 8:00:00 AM 18.48 65.264 0.171 7.75 3820.18 9.56
8/28/2021 8:15:00 AM 18.5 65.3 0.171 7.76 3815.95 9.6
8/28/2021 8:30:00 AM 18.51 65.318 0.171 7.76 3801.54 9.59
8/28/2021 8:45:00 AM 18.53 65.354 0.171 7.77 3802.76 9.61
8/28/2021 9:00:00 AM 18.56 65.408 0.172 7.78 3795.88 9.65
8/28/2021 9:15:00 AM 18.62 65.516 0.172 7.8 3782.9 9.73
8/28/2021 9:30:00 AM 18.7 65.66 0.172 7.83 3696.45 9.82
8/28/2021 9:45:00 AM 18.74 65.732 0.172 7.84 3778.76 9.84
8/28/2021 10:00:00 AM 18.79 65.82201 0.172 7.85 3768.19 9.85
8/28/2021 10:15:00 AM 18.81 65.858 0.172 7.84 3702.81 9.81
8/28/2021 10:30:00 AM 18.84 65.912 0.173 7.85 3814.35 9.79
8/28/2021 10:45:00 AM 18.91 66.038 0.173 7.86 3816.59 9.8
8/28/2021 11:00:00 AM 18.97 66.146 0.173 7.86 3822.56 9.79
8/28/2021 11:15:00 AM 18.99 66.182 0.173 7.85 3839.5 9.74
8/28/2021 11:30:00 AM 19.03 66.254 0.173 7.86 3852.93 9.77
8/28/2021 11:45:00 AM 19.06 66.308 0.173 7.87 3926.14 9.79
8/28/2021 12:00:00 PM 19.08 66.344 0.173 7.88 3941.23 9.8
8/28/2021 12:15:00 PM 19.11 66.398 0.173 7.88 3933.5 9.8
8/28/2021 12:30:00 PM 19.16 66.488 0.174 7.9 3923.58 9.85
8/28/2021 12:45:00 PM 19.24 66.632 0.174 7.92 3911.55 9.91
8/28/2021 1:00:00 PM 19.32 66.776 0.174 7.93 3925.08 9.96
8/28/2021 1:15:00 PM 19.39 66.902 0.174 7.94 3945.36 9.94
8/28/2021 1:30:00 PM 19.51 67.118 0.174 7.95 3949.98 9.96
8/28/2021 1:45:00 PM 19.64 67.352 0.174 7.98 3907.06 10.01
8/28/2021 2:00:00 PM 19.77 67.586 0.174 8 3822.67 10.04
8/28/2021 2:15:00 PM 19.84 67.712 0.174 8 3925.06 10.03
8/28/2021 2:30:00 PM 19.93 67.874 0.175 8.01 3930.22 10.02
8/28/2021 2:45:00 PM 19.98 67.964 0.175 8.02 3746.29 9.98
8/28/2021 3:00:00 PM 20.04 68.07201 0.175 8.02 3750.15 9.95
8/28/2021 3:15:00 PM 20.16 68.288 0.175 8.02 3591.46 9.95
8/28/2021 3:30:00 PM 20.21 68.378 0.175 8.03 3608.5 9.94
8/28/2021 3:45:00 PM 20.32 68.576 0.175 8.04 3597.78 9.95
8/28/2021 4:00:00 PM 20.41 68.738 0.175 8.05 3380.39 9.93
8/28/2021 4:15:00 PM 20.47 68.846 0.175 8.04 3412.17 9.89
8/28/2021 4:30:00 PM 20.62 69.116 0.175 8.05 3446.56 9.89
8/28/2021 4:45:00 PM 20.72 69.296 0.176 8.04 3484.16 9.87
8/28/2021 5:00:00 PM 20.7 69.26 0.176 8.03 3481.19 9.8
8/28/2021 5:15:00 PM 20.68 69.224 0.176 8.02 3481.75 9.77
8/28/2021 5:30:00 PM 20.73 69.314 0.176 8.01 3541.93 9.74
8/28/2021 5:45:00 PM 20.67 69.206 0.176 7.99 3562.43 9.68
8/28/2021 6:00:00 PM 20.62 69.116 0.177 7.98 3529.74 9.64
8/28/2021 6:15:00 PM 20.53 68.954 0.177 7.95 3553.54 9.58
8/28/2021 6:30:00 PM 20.43 68.774 0.177 7.93 3550.05 9.5
8/28/2021 6:45:00 PM 20.32 68.576 0.178 7.9 3529.39 9.39
8/28/2021 7:00:00 PM 20.22 68.396 0.178 7.86 3559.07 9.31
8/28/2021 7:15:00 PM 20.13 68.234 0.178 7.85 3479.89 9.26
8/28/2021 7:30:00 PM 20.04 68.07201 0.178 7.83 3577.76 9.21
8/28/2021 7:45:00 PM 19.94 67.892 0.179 7.81 3558.18 9.16
8/28/2021 8:00:00 PM 19.86 67.748 0.179 7.79 3570.53 9.13
8/28/2021 8:15:00 PM 19.79 67.622 0.18 7.78 3574.18 9.11
8/28/2021 8:30:00 PM 19.74 67.532 0.18 7.78 3581.86 9.1
8/28/2021 8:45:00 PM 19.69 67.442 0.18 7.77 3605.82 9.1
8/28/2021 9:00:00 PM 19.63 67.334 0.181 7.76 3638.63 9.1
8/28/2021 9:15:00 PM 19.57 67.226 0.181 7.76 3637.95 9.11
8/28/2021 9:30:00 PM 19.52 67.136 0.181 7.75 3651.85 9.11
8/28/2021 9:45:00 PM 19.48 67.064 0.181 7.75 3647.46 9.12
8/28/2021 10:00:00 PM 19.43 66.974 0.181 7.75 3641.25 9.13
8/28/2021 10:15:00 PM 19.38 66.884 0.182 7.75 3649.62 9.14
8/28/2021 10:30:00 PM 19.34 66.812 0.182 7.75 3654.94 9.14
8/28/2021 10:45:00 PM 19.3 66.74 0.182 7.75 3658.88 9.15
8/28/2021 11:00:00 PM 19.26 66.668 0.182 7.75 3658.65 9.16
8/28/2021 11:15:00 PM 19.22 66.596 0.182 7.75 3669.59 9.16
8/28/2021 11:30:00 PM 19.19 66.542 0.183 7.75 3653.01 9.17
8/28/2021 11:45:00 PM 19.15 66.47 0.183 7.75 3655.31 9.18
8/29/2021 12:00:00 AM 19.12 66.416 0.183 7.75 3659.95 9.18
8/29/2021 12:15:00 AM 19.08 66.344 0.183 7.75 3651.99 9.19
8/29/2021 12:30:00 AM 19.05 66.29 0.183 7.75 3656.13 9.2
8/29/2021 12:45:00 AM 19.02 66.236 0.183 7.75 3657.59 9.2
8/29/2021 1:00:00 AM 18.99 66.182 0.183 7.75 3657 9.21
8/29/2021 1:15:00 AM 18.96 66.128 0.183 7.75 3649.76 9.22
8/29/2021 1:30:00 AM 18.93 66.074 0.184 7.75 3655.28 9.22
8/29/2021 1:45:00 AM 18.9 66.02 0.184 7.75 3679.8 9.23
8/29/2021 2:00:00 AM 18.88 65.984 0.184 7.75 3686.62 9.23
8/29/2021 2:15:00 AM 18.85 65.93 0.184 7.75 3715.78 9.23
8/29/2021 2:30:00 AM 18.83 65.894 0.182 7.75 3732.78 9.24
8/29/2021 2:45:00 AM 18.8 65.84 0.184 7.75 3731.23 9.24
8/29/2021 3:00:00 AM 18.78 65.804 0.184 7.75 3727.6 9.25
8/29/2021 3:15:00 AM 18.75 65.75 0.185 7.75 3719.9 9.25
8/29/2021 3:30:00 AM 18.73 65.714 0.184 7.75 3719.85 9.25
8/29/2021 3:45:00 AM 18.71 65.67799 0.185 7.75 3688.1 9.26
8/29/2021 4:00:00 AM 18.69 65.642 0.185 7.75 3685.1 9.26
8/29/2021 4:15:00 AM 18.66 65.588 0.185 7.75 3688.3 9.27
8/29/2021 4:30:00 AM 18.64 65.552 0.185 7.75 3696.01 9.27
8/29/2021 4:45:00 AM 18.62 65.516 0.185 7.75 3679.69 9.27
8/29/2021 5:00:00 AM 18.6 65.48 0.185 7.75 3700.23 9.28
8/29/2021 5:15:00 AM 18.58 65.444 0.185 7.75 3691.52 9.28
8/29/2021 5:30:00 AM 18.56 65.408 0.185 7.75 3682.07 9.28
8/29/2021 5:45:00 AM 18.54 65.372 0.185 7.75 3693.6 9.28
8/29/2021 6:00:00 AM 18.53 65.354 0.185 7.75 3685.69 9.29
8/29/2021 6:15:00 AM 18.51 65.318 0.185 7.75 3713.36 9.29
8/29/2021 6:30:00 AM 18.5 65.3 0.185 7.75 3557.39 9.3
8/29/2021 6:45:00 AM 18.48 65.264 0.185 7.74 3628.27 9.32
8/29/2021 7:00:00 AM 18.47 65.246 0.185 7.75 3638.43 9.35
8/29/2021 7:15:00 AM 18.46 65.228 0.186 7.76 3643.38 9.38
8/29/2021 7:30:00 AM 18.45 65.21 0.186 7.77 3638.95 9.41
8/29/2021 7:45:00 AM 18.45 65.21 0.186 7.78 3668.18 9.47
8/29/2021 8:00:00 AM 18.46 65.228 0.186 7.78 3702.23 9.53
8/29/2021 8:15:00 AM 18.46 65.228 0.186 7.79 3702.11 9.57
8/29/2021 8:30:00 AM 18.48 65.264 0.186 7.81 3711.04 9.65
8/29/2021 8:45:00 AM 18.5 65.3 0.185 7.82 3667.68 9.71
8/29/2021 9:00:00 AM 18.51 65.318 0.186 7.83 3562.38 9.73
8/29/2021 9:15:00 AM 18.52 65.336 0.186 7.84 3575.39 9.75
8/29/2021 9:30:00 AM 18.55 65.39 0.185 7.85 3586.1 9.78
8/29/2021 9:45:00 AM 18.58 65.444 0.185 7.86 3588 9.85
8/29/2021 10:00:00 AM 18.64 65.552 0.185 7.89 3565.13 9.96
8/29/2021 10:15:00 AM 18.7 65.66 0.185 7.91 3571.57 10.05
8/29/2021 10:30:00 AM 18.78 65.804 0.185 7.94 3560.91 10.1
8/29/2021 10:45:00 AM 18.88 65.984 0.185 7.97 3555.7 10.18
8/29/2021 11:00:00 AM 19.02 66.236 0.185 8 3555.81 10.28
8/29/2021 11:15:00 AM 19.15 66.47 0.185 8.03 3381.89 10.3
8/29/2021 11:30:00 AM 19.29 66.722 0.185 8.05 3486.22 10.32
8/29/2021 11:45:00 AM 19.5 67.1 0.185 8.08 3511.09 10.34
8/29/2021 12:00:00 PM 19.49 67.082 0.185 8.09 3310.19 10.34
8/29/2021 12:15:00 PM 19.53 67.154 0.185 8.1 3351.09 10.35
8/29/2021 12:30:00 PM 19.59 67.262 0.185 8.11 3338.57 10.33
8/29/2021 12:45:00 PM 19.7 67.46 0.185 8.12 3305.45 10.29
8/29/2021 1:00:00 PM 19.97 67.946 0.185 8.14 3295.76 10.34
8/29/2021 1:15:00 PM 20.15 68.27 0.185 8.16 3325.46 10.33
8/29/2021 1:30:00 PM 20.46 68.828 0.185 8.18 3343.82 10.32
8/29/2021 1:45:00 PM 20.59 69.062 0.185 8.19 3312.5 10.3
8/29/2021 2:00:00 PM 20.67 69.206 0.185 8.19 3324.74 10.25
8/29/2021 2:15:00 PM 20.81 69.458 0.185 8.19 3357.65 10.16
8/29/2021 2:30:00 PM 21.11 69.998 0.185 8.2 3391.6 10.17
8/29/2021 2:45:00 PM 21.32 70.376 0.185 8.21 3440.95 10.16
8/29/2021 3:00:00 PM 21.51 70.718 0.186 8.22 3468.5 10.15
8/29/2021 3:15:00 PM 21.59 70.862 0.186 8.22 3456.64 10.08
8/29/2021 3:30:00 PM 21.86 71.348 0.186 8.24 3445.63 10.09
8/29/2021 3:45:00 PM 21.97 71.546 0.186 8.24 3460.49 10.03
8/29/2021 4:00:00 PM 22.05 71.69 0.187 8.23 3437.31 9.98
8/29/2021 4:15:00 PM 22.03 71.654 0.186 8.21 3394.38 9.94
8/29/2021 4:30:00 PM 21.91 71.438 0.186 8.19 3233.97 9.84
8/29/2021 4:45:00 PM 21.85 71.33 0.187 8.16 3357.81 9.78
8/29/2021 5:00:00 PM 21.78 71.204 0.187 8.14 3341.08 9.68
8/29/2021 5:15:00 PM 21.74 71.132 0.187 8.08 3356.51 9.55
8/29/2021 5:30:00 PM 21.74 71.132 0.187 8.09 3376.47 9.59
8/29/2021 5:45:00 PM 21.67 71.006 0.188 8.06 3413.23 9.49
8/29/2021 6:00:00 PM 21.6 70.88 0.188 8.05 3422.86 9.5
8/29/2021 6:15:00 PM 21.51 70.718 0.188 8.03 3417.6 9.43
8/29/2021 6:30:00 PM 21.41 70.538 0.188 8 3370.15 9.36
8/29/2021 6:45:00 PM 21.28 70.304 0.189 7.97 3289.8 9.24
8/29/2021 7:00:00 PM 21.14 70.052 0.189 7.93 3259.63 9.14
8/29/2021 7:15:00 PM 21.02 69.836 0.189 7.9 3310.22 9.05
8/29/2021 7:30:00 PM 20.91 69.638 0.19 7.87 3401.11 8.98
8/29/2021 7:45:00 PM 20.79 69.422 0.19 7.85 3136.3 8.92
8/29/2021 8:00:00 PM 20.68 69.224 0.191 7.83 3017.8 8.88
8/29/2021 8:15:00 PM 20.58 69.044 0.191 7.81 3401.03 8.87
8/29/2021 8:30:00 PM 20.48 68.864 0.191 7.8 3246.95 8.85
8/29/2021 8:45:00 PM 20.38 68.684 0.191 7.79 3264.7 8.86
8/29/2021 9:00:00 PM 20.29 68.522 0.191 7.79 3184.12 8.87
8/29/2021 9:15:00 PM 20.21 68.378 0.192 7.78 3241.41 8.87
8/29/2021 9:30:00 PM 20.13 68.234 0.191 7.77 3169.12 8.89
8/29/2021 9:45:00 PM 20.06 68.108 0.192 7.77 3283.9 8.89
8/29/2021 10:00:00 PM 19.99 67.982 0.192 7.77 3278.91 8.9
8/29/2021 10:15:00 PM 19.92 67.856 0.193 7.76 3304.44 8.91
8/29/2021 10:30:00 PM 19.87 67.766 0.193 7.76 3327.93 8.92
8/29/2021 10:45:00 PM 19.81 67.658 0.193 7.76 3333.1 8.93
8/29/2021 11:00:00 PM 19.76 67.568 0.193 7.76 3357.86 8.94
8/29/2021 11:15:00 PM 19.71 67.478 0.193 7.76 3333.74 8.95
8/29/2021 11:30:00 PM 19.66 67.388 0.194 7.75 3374.31 8.95
8/29/2021 11:45:00 PM 19.61 67.298 0.194 7.75 3379.52 8.96
8/30/2021 12:00:00 AM 19.56 67.208 0.194 7.75 2588.47 8.97
8/30/2021 12:15:00 AM 19.51 67.118 0.194 7.75 2537.52 8.98
8/30/2021 12:30:00 AM 19.47 67.046 0.194 7.75 2713.44 8.99
8/30/2021 12:45:00 AM 19.42 66.956 0.194 7.75 2698.73 8.99
8/30/2021 1:00:00 AM 19.38 66.884 0.194 7.75 2597.67 9
8/30/2021 1:15:00 AM 19.33 66.794 0.194 7.75 2671.33 9.01
8/30/2021 1:30:00 AM 19.29 66.722 0.195 7.74 2590.5 9.02
8/30/2021 1:45:00 AM 19.25 66.65 0.195 7.74 2579.51 9.02
8/30/2021 2:00:00 AM 19.21 66.578 0.195 7.74 2589.74 9.03
8/30/2021 2:15:00 AM 19.17 66.506 0.195 7.74 2569.47 9.03
8/30/2021 2:30:00 AM 19.14 66.452 0.195 7.74 2579.45 9.04
8/30/2021 2:45:00 AM 19.1 66.38 0.195 7.73 2524.93 9.05
8/30/2021 3:00:00 AM 19.06 66.308 0.195 7.74 2548.16 9.05
8/30/2021 3:15:00 AM 19.02 66.236 0.195 7.74 2582.93 9.06
8/30/2021 3:30:00 AM 19 66.2 0.196 7.74 2568.82 9.07
8/30/2021 3:45:00 AM 18.97 66.146 0.196 7.73 2593.81 9.06
8/30/2021 4:00:00 AM 18.94 66.092 0.196 7.73 2591.67 9.07
8/30/2021 4:15:00 AM 18.91 66.038 0.196 7.73 2459.82 9.08
8/30/2021 4:30:00 AM 18.88 65.984 0.196 7.73 2551.79 9.08
8/30/2021 4:45:00 AM 18.86 65.948 0.196 7.74 2560.44 9.09
8/30/2021 5:00:00 AM 18.83 65.894 0.196 7.73 2500.27 9.09
8/30/2021 5:15:00 AM 18.81 65.858 0.196 7.73 2530.76 9.09
8/30/2021 5:30:00 AM 18.78 65.804 0.196 7.73 2534.94 9.1
8/30/2021 5:45:00 AM 18.76 65.768 0.196 7.73 2436.22 9.11
8/30/2021 6:00:00 AM 18.73 65.714 0.196 7.73 2573.64 9.11
8/30/2021 6:15:00 AM 18.71 65.67799 0.196 7.73 2608.97 9.12
8/30/2021 6:30:00 AM 18.69 65.642 0.196 7.73 2463.69 9.12
8/30/2021 6:45:00 AM 18.67 65.606 0.196 7.73 2578.5 9.15
8/30/2021 7:00:00 AM 18.66 65.588 0.196 7.74 2619.48 9.21
8/30/2021 7:15:00 AM 18.64 65.552 0.196 7.75 2597.68 9.26
8/30/2021 7:30:00 AM 18.64 65.552 0.196 7.77 2666.62 9.41
8/30/2021 7:45:00 AM 18.64 65.552 0.196 7.78 2666.01 9.46
8/30/2021 8:00:00 AM 18.65 65.57 0.196 7.8 2604.87 9.59
8/30/2021 8:15:00 AM 18.65 65.57 0.196 7.81 2637.11 9.58
8/30/2021 8:30:00 AM 18.66 65.588 0.196 7.82 2674.23 9.67
8/30/2021 8:45:00 AM 18.67 65.606 0.196 7.82 2496.08 9.63
8/30/2021 9:00:00 AM 18.71 65.67799 0.196 7.84 2559.12 9.8
8/30/2021 9:15:00 AM 18.79 65.82201 0.196 7.88 2598.97 10
8/30/2021 9:30:00 AM 18.91 66.038 0.195 7.93 2606.88 10.18
8/30/2021 9:45:00 AM 18.94 66.092 0.195 7.96 2646.13 10.18
8/30/2021 10:00:00 AM 19.01 66.218 0.195 7.98 2712.8 10.18
8/30/2021 10:15:00 AM 19.03 66.254 0.195 7.97 2759.97 10
8/30/2021 10:30:00 AM 19.14 66.452 0.195 8 2693.74 10.13
8/30/2021 10:45:00 AM 19.21 66.578 0.195 8.02 2797.24 10.09
8/30/2021 11:00:00 AM 19.35 66.83 0.195 8.04 2807.38 10.25
8/30/2021 11:15:00 AM 19.49 67.082 0.194 8.09 2835.77 10.33
8/30/2021 11:30:00 AM 19.6 67.28 0.194 8.12 2751.53 10.35
8/30/2021 11:45:00 AM 19.73 67.514 0.194 8.14 2939.51 10.37
8/30/2021 12:00:00 PM 19.86 67.748 0.194 8.17 2872.53 10.43
8/30/2021 12:15:00 PM 20 68 0.194 8.19 3028.89 10.39
8/30/2021 12:30:00 PM 20.21 68.378 0.194 8.22 2985.5 10.46
8/30/2021 12:45:00 PM 20.49 68.882 0.194 8.25 2851.57 10.5
8/30/2021 1:00:00 PM 20.8 69.44 0.194 8.28 2803.79 10.51
8/30/2021 1:15:00 PM 21 69.8 0.194 8.29 2816.93 10.47
8/30/2021 1:30:00 PM 21.25 70.25 0.194 8.31 2775.89 10.43
8/30/2021 1:45:00 PM 21.44 70.592 0.194 8.32 2852.8 10.39
8/30/2021 2:00:00 PM 21.22 70.196 0.195 8.23 2937.43 9.92
8/30/2021 2:15:00 PM 21.29 70.32201 0.194 8.24 2945.16 9.98
8/30/2021 2:30:00 PM 21.5 70.7 0.194 8.26 2975.98 10.1
8/30/2021 2:45:00 PM 21.7 71.06 0.194 8.29 2921.04 10.17
8/30/2021 3:00:00 PM 21.7 71.06 0.195 8.28 2872.29 10.09
8/30/2021 3:15:00 PM 21.67 71.006 0.195 8.26 2861.21 10.05
8/30/2021 3:30:00 PM 21.78 71.204 0.195 8.28 2922.18 10.1
8/30/2021 3:45:00 PM 21.94 71.492 0.195 8.31 3013.08 10.17
8/30/2021 4:00:00 PM 21.96 71.528 0.195 8.31 2973 10.14
8/30/2021 4:15:00 PM 22 71.6 0.195 8.3 3008.69 10.04
8/30/2021 4:30:00 PM 22.03 71.654 0.195 8.28 2981.39 9.96
8/30/2021 4:45:00 PM 22.05 71.69 0.195 8.27 3089.2 9.88
8/30/2021 5:00:00 PM 22.03 71.654 0.195 8.24 3021.55 9.78
8/30/2021 5:15:00 PM 22.02 71.636 0.195 8.23 3007.78 9.75
8/30/2021 5:30:00 PM 21.93 71.474 0.195 8.2 3010.77 9.66
8/30/2021 5:45:00 PM 21.87 71.366 0.195 8.18 2971.9 9.62
8/30/2021 6:00:00 PM 21.77 71.186 0.194 8.14 2967.68 9.54
8/30/2021 6:15:00 PM 21.67 71.006 0.194 8.11 2911.07 9.45
8/30/2021 6:30:00 PM 21.53 70.754 0.194 8.06 2842.55 9.28
8/30/2021 6:45:00 PM 21.4 70.52 0.194 8.02 2891.98 9.19
8/30/2021 7:00:00 PM 21.25 70.25 0.194 7.98 2822.86 9.09
8/30/2021 7:15:00 PM 21.1 69.98 0.195 7.94 2855.95 8.99
8/30/2021 7:30:00 PM 20.95 69.71 0.195 7.91 2848.17 8.91
8/30/2021 7:45:00 PM 20.79 69.422 0.195 7.88 2738.93 8.84
8/30/2021 8:00:00 PM 20.63 69.134 0.196 7.86 2772.1 8.8
8/30/2021 8:15:00 PM 20.48 68.864 0.196 7.84 2745.26 8.79
8/30/2021 8:30:00 PM 20.34 68.612 0.197 7.83 2852.67 8.79
8/30/2021 8:45:00 PM 20.21 68.378 0.197 7.82 3052.01 8.79
8/30/2021 9:00:00 PM 20.08 68.144 0.197 7.81 3066.82 8.8
8/30/2021 9:15:00 PM 19.97 67.946 0.198 7.8 3025.76 8.82
8/30/2021 9:30:00 PM 19.85 67.73 0.198 7.79 3028.03 8.83
8/30/2021 9:45:00 PM 19.76 67.568 0.198 7.79 3025.3 8.85
8/30/2021 10:00:00 PM 19.66 67.388 0.198 7.78 3018.46 8.86
8/30/2021 10:15:00 PM 19.57 67.226 0.199 7.78 3020.45 8.88
8/30/2021 10:30:00 PM 19.47 67.046 0.199 7.77 2993.68 8.89
8/30/2021 10:45:00 PM 19.39 66.902 0.199 7.77 3033.26 8.91
8/30/2021 11:00:00 PM 19.3 66.74 0.199 7.77 3013.29 8.93
8/30/2021 11:15:00 PM 19.22 66.596 0.199 7.76 2913.9 8.94
8/30/2021 11:30:00 PM 19.13 66.434 0.2 7.76 2870.34 8.95
8/30/2021 11:45:00 PM 19.04 66.272 0.2 7.76 2837.74 8.97
8/31/2021 12:00:00 AM 18.96 66.128 0.2 7.75 2835.8 8.98
8/31/2021 12:15:00 AM 18.88 65.984 0.2 7.76 2848.44 9
8/31/2021 12:30:00 AM 18.79 65.82201 0.2 7.75 2735.6 9.01
8/31/2021 12:45:00 AM 18.71 65.67799 0.2 7.75 2791.43 9.03
8/31/2021 1:00:00 AM 18.63 65.534 0.2 7.75 2756.92 9.04
8/31/2021 1:15:00 AM 18.55 65.39 0.201 7.75 2707.18 9.06
8/31/2021 1:30:00 AM 18.48 65.264 0.201 7.75 2596.81 9.07
8/31/2021 1:45:00 AM 18.4 65.12 0.201 7.75 2552.25 9.09
8/31/2021 2:00:00 AM 18.33 64.994 0.201 7.75 2548.48 9.1
8/31/2021 2:15:00 AM 18.27 64.886 0.201 7.75 2246.21 9.12
8/31/2021 2:30:00 AM 18.19 64.742 0.201 7.7 2267.56 9.13
8/31/2021 2:45:00 AM 18.13 64.634 0.201 7.71 2243.3 9.15
8/31/2021 3:00:00 AM 18.06 64.508 0.201 7.72 2250.74 9.16
8/31/2021 3:15:00 AM 18 64.4 0.202 7.73 2235.81 9.18
8/31/2021 3:30:00 AM 17.94 64.292 0.202 7.73 2223.03 9.18
8/31/2021 3:45:00 AM 17.88 64.184 0.202 7.73 2228.33 9.19
8/31/2021 4:00:00 AM 17.82 64.076 0.202 7.73 2214.73 9.21
8/31/2021 4:15:00 AM 17.76 63.968 0.202 7.74 2207.83 9.21
8/31/2021 4:30:00 AM 17.7 63.86 0.202 7.74 2204.53 9.22
8/31/2021 4:45:00 AM 17.65 63.77 0.202 7.74 2206.88 9.24
8/31/2021 5:00:00 AM 17.6 63.68 0.202 7.74 2195.52 9.25
8/31/2021 5:15:00 AM 17.54 63.572 0.202 7.74 2136.44 9.26
8/31/2021 5:30:00 AM 17.49 63.482 0.202 7.74 2163.1 9.28
8/31/2021 5:45:00 AM 17.44 63.392 0.202 7.74 2145.28 9.29
8/31/2021 6:00:00 AM 17.38 63.284 0.202 7.74 2140.55 9.3
8/31/2021 6:15:00 AM 17.33 63.194 0.203 7.74 2128.77 9.31
8/31/2021 6:30:00 AM 17.29 63.122 0.203 7.74 2133.73 9.33
8/31/2021 6:45:00 AM 17.24 63.032 0.203 7.74 2031.62 9.38
8/31/2021 7:00:00 AM 17.21 62.978 0.203 7.75 2074.13 9.47
8/31/2021 7:15:00 AM 17.18 62.924 0.203 7.77 2073.84 9.59
8/31/2021 7:30:00 AM 17.16 62.888 0.203 7.79 2073.42 9.73
8/31/2021 7:45:00 AM 17.15 62.87 0.203 7.81 2087.93 9.88
8/31/2021 8:00:00 AM 17.15 62.87 0.203 7.84 2075.89 9.98
8/31/2021 8:15:00 AM 17.16 62.888 0.203 7.87 2086.03 10.11
8/31/2021 8:30:00 AM 17.17 62.906 0.203 7.88 2074.58 10.16
8/31/2021 8:45:00 AM 17.25 63.05 0.202 7.92 2038.69 10.33
8/31/2021 9:00:00 AM 17.34 63.212 0.202 7.96 2029.71 10.46
8/31/2021 9:15:00 AM 17.44 63.392 0.202 7.99 1999.2 10.53
8/31/2021 9:30:00 AM 17.59 63.662 0.202 8.02 1993.04 10.63
8/31/2021 9:45:00 AM 17.67 63.806 0.202 8.06 1996.93 10.66
8/31/2021 10:00:00 AM 17.72 63.896 0.202 8.05 1997.7 10.54
8/31/2021 10:15:00 AM 17.91 64.238 0.201 8.07 1961.12 10.58
8/31/2021 10:30:00 AM 18.06 64.508 0.201 8.09 1952.32 10.64
8/31/2021 10:45:00 AM 18.31 64.958 0.201 8.13 1925.75 10.71
8/31/2021 11:00:00 AM 18.4 65.12 0.202 8.15 1852.06 10.69
8/31/2021 11:15:00 AM 18.44 65.192 0.202 8.16 1877.77 10.6
8/31/2021 11:30:00 AM 18.73 65.714 0.202 8.17 1928.38 10.67
8/31/2021 11:45:00 AM 18.94 66.092 0.201 8.22 1931.78 10.73
8/31/2021 12:00:00 PM 18.94 66.092 0.201 8.24 1948.47 10.74
8/31/2021 12:15:00 PM 19.09 66.362 0.201 8.27 1975.98 10.71
8/31/2021 12:30:00 PM 19.38 66.884 0.201 8.29 1961.01 10.74
8/31/2021 12:45:00 PM 19.36 66.848 0.201 8.3 1981.55 10.67
8/31/2021 1:00:00 PM 19.55 67.19 0.201 8.31 1991.42 10.67
8/31/2021 1:15:00 PM 19.87 67.766 0.201 8.33 2006.89 10.69
8/31/2021 1:30:00 PM 19.87 67.766 0.201 8.33 1999.94 10.64
8/31/2021 1:45:00 PM 20.14 68.252 0.201 8.36 2016.09 10.72
8/31/2021 2:00:00 PM 20.09 68.162 0.201 8.37 2023.14 10.68
8/31/2021 2:15:00 PM 20.15 68.27 0.201 8.39 2036.88 10.68
8/31/2021 2:30:00 PM 20.27 68.486 0.201 8.4 2031 10.66
8/31/2021 2:45:00 PM 20.27 68.486 0.201 8.39 2045.59 10.55
8/31/2021 3:00:00 PM 20.52 68.936 0.201 8.41 2034.12 10.62
8/31/2021 3:15:00 PM 20.45 68.81 0.201 8.39 2050.38 10.49
8/31/2021 3:30:00 PM 20.67 69.206 0.201 8.41 2042.34 10.57
8/31/2021 3:45:00 PM 20.74 69.332 0.201 8.42 2044.51 10.55
8/31/2021 4:00:00 PM 20.77 69.386 0.202 8.41 2059.82 10.5
8/31/2021 4:15:00 PM 20.9 69.62 0.202 8.42 2050.62 10.52
8/31/2021 4:30:00 PM 20.9 69.62 0.202 8.42 2055.97 10.47
8/31/2021 4:45:00 PM 20.98 69.764 0.202 8.42 2061.41 10.46
8/31/2021 5:00:00 PM 20.9 69.62 0.202 8.4 2067.9 10.33
8/31/2021 5:15:00 PM 20.9 69.62 0.202 8.38 2076.41 10.27
8/31/2021 5:30:00 PM 20.84 69.512 0.203 8.35 2038.8 10.13
8/31/2021 5:45:00 PM 20.74 69.332 0.203 8.29 2054.02 9.98
8/31/2021 6:00:00 PM 20.71 69.278 0.203 8.27 2056.81 9.96
8/31/2021 6:15:00 PM 20.58 69.044 0.204 8.22 2050.08 9.77
8/31/2021 6:30:00 PM 20.49 68.882 0.204 8.17 2054.39 9.67
8/31/2021 6:45:00 PM 20.36 68.648 0.204 8.11 2054.87 9.49
8/31/2021 7:00:00 PM 20.24 68.432 0.205 8.06 2061.15 9.34
8/31/2021 7:15:00 PM 20.12 68.216 0.206 8.01 2049.83 9.21
8/31/2021 7:30:00 PM 20 68 0.206 7.96 2089.72 9.07
8/31/2021 7:45:00 PM 19.88 67.784 0.206 7.92 2094.92 8.97
8/31/2021 8:00:00 PM 19.77 67.586 0.207 7.89 2084.99 8.9
8/31/2021 8:15:00 PM 19.66 67.388 0.207 7.86 2070.2 8.87
8/31/2021 8:30:00 PM 19.56 67.208 0.207 7.85 2076.3 8.86
8/31/2021 8:45:00 PM 19.46 67.028 0.208 7.83 2072.75 8.86
8/31/2021 9:00:00 PM 19.36 66.848 0.208 7.82 2063.49 8.86
8/31/2021 9:15:00 PM 19.27 66.686 0.209 7.81 2060.57 8.87
8/31/2021 9:30:00 PM 19.17 66.506 0.209 7.8 2060.03 8.88
8/31/2021 9:45:00 PM 19.08 66.344 0.209 7.79 2056.7 8.9
8/31/2021 10:00:00 PM 18.98 66.164 0.21 7.79 2044.17 8.91
8/31/2021 10:15:00 PM 18.9 66.02 0.21 7.79 2050.98 8.92
8/31/2021 10:30:00 PM 18.82 65.876 0.21 7.78 2057.56 8.93
8/31/2021 10:45:00 PM 18.75 65.75 0.21 7.78 1827.76 8.94
8/31/2021 11:00:00 PM 18.67 65.606 0.211 7.78 1826.84 8.96
8/31/2021 11:15:00 PM 18.59 65.462 0.211 7.78 1822.33 8.97
8/31/2021 11:30:00 PM 18.51 65.318 0.211 7.77 1810.29 8.99
8/31/2021 11:45:00 PM 18.44 65.192 0.211 7.77 1856.83 9.01
9/1/2021 12:00:00 AM 18.38 65.084 0.211 7.77 1872.04 9.02
9/1/2021 12:15:00 AM 18.31 64.958 0.212 7.77 1879.69 9.03
9/1/2021 12:30:00 AM 18.23 64.814 0.212 7.77 1874.48 9.05
9/1/2021 12:45:00 AM 18.17 64.706 0.212 7.77 1844.54 9.07
9/1/2021 1:00:00 AM 18.11 64.598 0.212 7.77 1262.63 9.07
9/1/2021 1:15:00 AM 18.05 64.49 0.212 7.77 1852.82 9.09
9/1/2021 1:30:00 AM 17.98 64.364 0.212 7.77 1868.55 9.1
9/1/2021 1:45:00 AM 17.94 64.292 0.213 7.77 1686.85 9.11
9/1/2021 2:00:00 AM 17.89 64.202 0.213 7.76 1656.06 9.13
9/1/2021 2:15:00 AM 17.84 64.112 0.213 7.76 1679.39 9.13
9/1/2021 2:30:00 AM 17.79 64.022 0.213 7.76 1651.14 9.14
9/1/2021 2:45:00 AM 17.75 63.95 0.213 7.76 1623.66 9.15
9/1/2021 3:00:00 AM 17.71 63.878 0.213 7.76 1673.94 9.16
9/1/2021 3:15:00 AM 17.66 63.788 0.213 7.76 1630.24 9.17
9/1/2021 3:30:00 AM 17.62 63.716 0.214 7.76 1805.74 9.18
9/1/2021 3:45:00 AM 17.58 63.644 0.214 7.76 1552.31 9.19
9/1/2021 4:00:00 AM 17.54 63.572 0.214 7.76 1590.35 9.19
9/1/2021 4:15:00 AM 17.51 63.518 0.214 7.76 1573.53 9.2
9/1/2021 4:30:00 AM 17.48 63.464 0.214 7.76 1394.54 9.2
9/1/2021 4:45:00 AM 17.45 63.41 0.214 7.76 1344.91 9.22
9/1/2021 5:00:00 AM 17.41 63.338 0.215 7.76 1390.68 9.22
9/1/2021 5:15:00 AM 17.38 63.284 0.214 7.76 1452.94 9.23
9/1/2021 5:30:00 AM 17.35 63.23 0.214 7.76 1437.41 9.23
9/1/2021 5:45:00 AM 17.32 63.176 0.214 7.76 1328.07 9.24
9/1/2021 6:00:00 AM 17.3 63.14 0.214 7.76 1363.7 9.25
9/1/2021 6:15:00 AM 17.27 63.086 0.214 7.75 1603.42 9.25
9/1/2021 6:30:00 AM 17.25 63.05 0.214 7.75 1643.09 9.27
9/1/2021 6:45:00 AM 17.23 63.014 0.214 7.76 1633.8 9.29
9/1/2021 7:00:00 AM 17.2 62.96 0.214 7.76 1642.96 9.34
9/1/2021 7:15:00 AM 17.19 62.942 0.215 7.77 1775.25 9.41
9/1/2021 7:30:00 AM 17.17 62.906 0.214 7.78 1541.53 9.47
9/1/2021 7:45:00 AM 17.17 62.906 0.215 7.79 1518.15 9.56
9/1/2021 8:00:00 AM 17.17 62.906 0.215 7.8 1492.63 9.62
9/1/2021 8:15:00 AM 17.16 62.888 0.215 7.82 1351.41 9.73
9/1/2021 8:30:00 AM 17.16 62.888 0.214 7.83 1400.77 9.8
9/1/2021 8:45:00 AM 17.16 62.888 0.214 7.85 1299.8 9.89
9/1/2021 9:00:00 AM 17.17 62.906 0.214 7.86 1296.92 9.93
9/1/2021 9:15:00 AM 17.17 62.906 0.214 7.87 1304.89 9.98
9/1/2021 9:30:00 AM 17.18 62.924 0.213 7.88 1006.22 10
9/1/2021 9:45:00 AM 17.19 62.942 0.214 7.89 1590.28 10.06
9/1/2021 10:00:00 AM 17.2 62.96 0.214 7.91 1593.12 10.15
9/1/2021 10:15:00 AM 17.22 62.996 0.214 7.93 1595.31 10.25
9/1/2021 10:30:00 AM 17.24 63.032 0.214 7.95 1593.34 10.32
9/1/2021 10:45:00 AM 17.27 63.086 0.214 7.97 1587.3 10.36
9/1/2021 11:00:00 AM 17.3 63.14 0.213 7.98 1590.16 10.39
9/1/2021 11:15:00 AM 17.32 63.176 0.214 7.99 1596.19 10.35
9/1/2021 11:30:00 AM 17.35 63.23 0.213 8 1601.63 10.45
9/1/2021 11:45:00 AM 17.4 63.32 0.213 8.05 1606.79 10.58
9/1/2021 12:00:00 PM 17.41 63.338 0.213 8.04 1611.06 10.48
9/1/2021 12:15:00 PM 17.45 63.41 0.213 8.07 1608.1 10.61
9/1/2021 12:30:00 PM 17.46 63.428 0.213 8.05 1610.98 10.38
9/1/2021 12:45:00 PM 17.48 63.464 0.213 8.05 1610.51 10.42
9/1/2021 1:00:00 PM 17.51 63.518 0.212 8.07 1614.67 10.47
9/1/2021 1:15:00 PM 17.52 63.536 0.212 8.08 1618.26 10.49
9/1/2021 1:30:00 PM 17.54 63.572 0.212 8.08 1620.75 10.48
9/1/2021 1:45:00 PM 17.56 63.608 0.212 8.09 1614.09 10.49
9/1/2021 2:00:00 PM 17.56 63.608 0.212 8.09 1606.25 10.42
9/1/2021 2:15:00 PM 17.57 63.626 0.211 8.08 1609.2 10.41
9/1/2021 2:30:00 PM 17.57 63.626 0.211 8.08 1610.08 10.36
9/1/2021 2:45:00 PM 17.56 63.608 0.211 8.06 1607.03 10.26
9/1/2021 3:00:00 PM 17.55 63.59 0.211 8.05 1609.47 10.26
9/1/2021 3:15:00 PM 17.53 63.554 0.21 8.04 1608.56 10.19
9/1/2021 3:30:00 PM 17.52 63.536 0.21 8.03 1620.9 10.12
9/1/2021 3:45:00 PM 17.5 63.5 0.209 8.01 1620.17 10.05
9/1/2021 4:00:00 PM 17.49 63.482 0.209 7.99 1617.56 9.97
9/1/2021 4:15:00 PM 17.47 63.446 0.209 7.97 1618.9 9.91
9/1/2021 4:30:00 PM 17.46 63.428 0.209 7.96 1613.19 9.87
9/1/2021 4:45:00 PM 17.43 63.374 0.209 7.94 1610.77 9.77
9/1/2021 5:00:00 PM 17.4 63.32 0.208 7.93 1606.34 9.74
9/1/2021 5:15:00 PM 17.38 63.284 0.208 7.92 1609.13 9.78
9/1/2021 5:30:00 PM 17.37 63.266 0.207 7.92 1580.43 9.74
9/1/2021 5:45:00 PM 17.36 63.248 0.206 7.91 1579.55 9.76
9/1/2021 6:00:00 PM 17.33 63.194 0.206 7.91 1555.97 9.76
9/1/2021 6:15:00 PM 17.3 63.14 0.206 7.9 1538.47 9.71
9/1/2021 6:30:00 PM 17.27 63.086 0.206 7.9 1541.57 9.77
9/1/2021 6:45:00 PM 17.24 63.032 0.207 7.9 1536 9.71
9/1/2021 7:00:00 PM 17.21 62.978 0.207 7.89 1531.03 9.66
9/1/2021 7:15:00 PM 17.17 62.906 0.206 7.88 1520.83 9.66
9/1/2021 7:30:00 PM 17.14 62.852 0.206 7.87 1530.85 9.6
9/1/2021 7:45:00 PM 17.1 62.78 0.205 7.86 1534.47 9.56
9/1/2021 8:00:00 PM 17.07 62.726 0.203 7.85 1501.78 9.52
9/1/2021 8:15:00 PM 17.04 62.672 0.202 7.84 1493.23 9.5
9/1/2021 8:30:00 PM 17.01 62.618 0.2 7.83 1494.37 9.49
9/1/2021 8:45:00 PM 16.98 62.564 0.199 7.83 1468.53 9.49
9/1/2021 9:00:00 PM 16.95 62.51 0.198 7.82 1459.75 9.49
9/1/2021 9:15:00 PM 16.92 62.456 0.197 7.82 1287.32 9.5
9/1/2021 9:30:00 PM 16.89 62.402 0.196 7.82 1297.52 9.5
9/1/2021 9:45:00 PM 16.85 62.33 0.196 7.81 1294.36 9.51
9/1/2021 10:00:00 PM 16.82 62.276 0.195 7.81 1305.51 9.51
9/1/2021 10:15:00 PM 16.78 62.204 0.195 7.81 1299.63 9.52
9/1/2021 10:30:00 PM 16.73 62.114 0.194 7.81 1279.97 9.53
9/1/2021 10:45:00 PM 16.68 62.024 0.194 7.81 1267.27 9.54
9/1/2021 11:00:00 PM 16.63 61.934 0.194 7.81 1266.3 9.54
9/1/2021 11:15:00 PM 16.58 61.844 0.194 7.8 1258.5 9.55
9/1/2021 11:30:00 PM 16.53 61.754 0.194 7.8 1243.39 9.56
9/1/2021 11:45:00 PM 16.47 61.646 0.193 7.8 1240.33 9.57
9/2/2021 12:00:00 AM 16.41 61.538 0.193 7.8 1246.46 9.58
9/2/2021 12:15:00 AM 16.35 61.43 0.193 7.8 1253.42 9.59
9/2/2021 12:30:00 AM 16.28 61.304 0.193 7.8 1257.68 9.61
9/2/2021 12:45:00 AM 16.21 61.178 0.193 7.8 1248.96 9.62
9/2/2021 1:00:00 AM 16.14 61.052 0.193 7.8 1249.45 9.63
9/2/2021 1:15:00 AM 16.07 60.926 0.193 7.8 1165.86 9.65
9/2/2021 1:30:00 AM 16 60.8 0.193 7.8 1162.14 9.66
9/2/2021 1:45:00 AM 15.92 60.656 0.193 7.8 1166.73 9.67
9/2/2021 2:00:00 AM 15.85 60.53 0.193 7.8 1160.13 9.69
9/2/2021 2:15:00 AM 15.79 60.422 0.193 7.8 1163.98 9.7
9/2/2021 2:30:00 AM 15.72 60.296 0.193 7.79 1160.29 9.72
9/2/2021 2:45:00 AM 15.65 60.17 0.193 7.77 1179.99 9.74
9/2/2021 3:00:00 AM 15.58 60.044 0.193 7.6 1178.14 9.75
9/2/2021 3:15:00 AM 15.51 59.918 0.193 7.73 1182.09 9.77
9/2/2021 3:30:00 AM 15.45 59.81 0.193 7.77 1179.09 9.78
9/2/2021 3:45:00 AM 15.38 59.684 0.193 7.77 1178.58 9.79
9/2/2021 4:00:00 AM 15.32 59.576 0.194 7.77 1178.43 9.81
9/2/2021 4:15:00 AM 15.25 59.45 0.194 7.77 1173.48 9.82
9/2/2021 4:30:00 AM 15.19 59.342 0.194 7.77 1176.01 9.83
9/2/2021 4:45:00 AM 15.13 59.234 0.195 7.77 1178.93 9.85
9/2/2021 5:00:00 AM 15.06 59.108 0.195 7.77 1172.6 9.86
9/2/2021 5:15:00 AM 15 59 0.195 7.77 1164.19 9.88
9/2/2021 5:30:00 AM 14.93 58.874 0.195 7.77 1175.54 9.89
9/2/2021 5:45:00 AM 14.87 58.766 0.196 7.77 1176.47 9.9
9/2/2021 6:00:00 AM 14.8 58.64 0.196 7.77 1169.52 9.91
9/2/2021 6:15:00 AM 14.75 58.55 0.196 7.77 1168.72 9.93
9/2/2021 6:30:00 AM 14.68 58.424 0.196 7.77 1159.58 9.96
9/2/2021 6:45:00 AM 14.62 58.316 0.197 7.77 1156.35 10.02
9/2/2021 7:00:00 AM 14.57 58.226 0.197 7.78 1152.84 10.1
9/2/2021 7:15:00 AM 14.53 58.154 0.197 7.79 1151.55 10.18
9/2/2021 7:30:00 AM 14.49 58.082 0.197 7.81 1149.93 10.27
9/2/2021 7:45:00 AM 14.47 58.046 0.198 7.82 1144.84 10.35
9/2/2021 8:00:00 AM 14.47 58.046 0.198 7.84 1148.21 10.44
9/2/2021 8:15:00 AM 14.5 58.1 0.198 7.86 1146.55 10.54
9/2/2021 8:30:00 AM 14.55 58.19 0.198 7.89 1139.49 10.65
9/2/2021 8:45:00 AM 14.61 58.298 0.198 7.92 1141.73